Provisional Data: Susquehanna River at Kirkwood, NY


Please select a monitoring station.
Please select start date.
Please select start date.

Toggle Unit: C/F Toggle Unit: C/F
Sample Time Temperature (C) Temperature (F) Specific Conductivity (mS/cm) pH   Turbidity (NTU+) DO (mg/L)
5/4/2021 12:00:00 AM 11.58 52.844 0.145 7.67 13.95 10.17
5/4/2021 12:15:00 AM 11.57 52.826 0.145 7.67 13.83 10.16
5/4/2021 12:30:00 AM 11.57 52.826 0.145 7.67 14.54 10.15
5/4/2021 12:45:00 AM 11.56 52.808 0.145 7.68 14.44 10.15
5/4/2021 1:00:00 AM 11.55 52.79 0.145 7.68 13.65 10.15
5/4/2021 1:15:00 AM 11.54 52.772 0.145 7.68 15.5 10.13
5/4/2021 1:30:00 AM 11.54 52.772 0.145 7.67 15.6 10.14
5/4/2021 1:45:00 AM 11.53 52.754 0.145 7.67 20.1 10.12
5/4/2021 2:00:00 AM 11.53 52.754 0.145 7.68 19.55 10.12
5/4/2021 2:15:00 AM 11.53 52.754 0.145 7.66 27.91 10.11
5/4/2021 2:30:00 AM 11.52 52.736 0.145 7.67 12.76 10.1
5/4/2021 2:45:00 AM 11.52 52.736 0.145 7.67 14.63 10.1
5/4/2021 3:00:00 AM 11.52 52.736 0.145 7.67 15.56 10.08
5/4/2021 3:15:00 AM 11.52 52.736 0.145 7.66 16.18 10.08
5/4/2021 3:30:00 AM 11.52 52.736 0.145 7.66 14.08 10.07
5/4/2021 3:45:00 AM 11.52 52.736 0.145 7.66 18.34 10.07
5/4/2021 4:00:00 AM 11.52 52.736 0.145 7.66 14.37 10.05
5/4/2021 4:15:00 AM 11.52 52.736 0.145 7.67 21.44 10.05
5/4/2021 4:30:00 AM 11.53 52.754 0.145 7.67 16.4 10.04
5/4/2021 4:45:00 AM 11.53 52.754 0.145 7.66 21.09 10.03
5/4/2021 5:00:00 AM 11.54 52.772 0.146 7.67 16.18 10.03
5/4/2021 5:15:00 AM 11.54 52.772 0.146 7.66 16.16 10.02
5/4/2021 5:30:00 AM 11.55 52.79 0.146 7.66 18.43 10.01
5/4/2021 5:45:00 AM 11.55 52.79 0.135 7.66 16.66 9.99
5/4/2021 6:00:00 AM 11.56 52.808 0.126 7.67 15.12 10.01
5/4/2021 6:15:00 AM 11.56 52.808 0.146 7.66 16.01 10
5/4/2021 6:30:00 AM 11.57 52.826 0.146 7.66 15.27 9.99
5/4/2021 6:45:00 AM 11.57 52.826 0.146 7.66 15.05 9.99
5/4/2021 7:00:00 AM 11.58 52.844 0.146 7.66 25.41 9.99
5/4/2021 7:15:00 AM 11.58 52.844 0.146 7.66 16.34 10
5/4/2021 7:30:00 AM 11.59 52.862 0.146 7.66 15.02 9.99
5/4/2021 7:45:00 AM 11.59 52.862 0.146 7.66 15.95 10
5/4/2021 8:00:00 AM 11.6 52.88 0.146 7.66 16.21 10
5/4/2021 8:15:00 AM 11.6 52.88 0.146 7.66 15.88 10
5/4/2021 8:30:00 AM 11.6 52.88 0.146 7.66 16.31 10.01
5/4/2021 8:45:00 AM 11.6 52.88 0.146 7.67 14.63 10.01
5/4/2021 9:00:00 AM 11.6 52.88 0.146 7.67 15.86 10.02
5/4/2021 9:15:00 AM 11.61 52.898 0.146 7.68 14.85 10.03
5/4/2021 9:30:00 AM 11.62 52.916 0.146 7.67 12.68 10.04
5/4/2021 9:45:00 AM 11.63 52.934 0.146 7.67 10.43 10.06
5/4/2021 10:00:00 AM 11.65 52.97 0.146 7.68 14.91 10.07
5/4/2021 10:15:00 AM 11.67 53.006 0.146 7.68 13.59 10.09
5/4/2021 10:30:00 AM 11.69 53.042 0.146 7.69 16.48 10.11
5/4/2021 10:45:00 AM 11.71 53.078 0.146 7.68 15.62 10.12
5/4/2021 11:00:00 AM 11.75 53.15 0.146 7.7 13.31 10.12
5/4/2021 11:15:00 AM 11.79 53.222 0.146 7.7 9.95 10.15
5/4/2021 11:30:00 AM 11.85 53.33 0.146 7.71 13.2 10.17
5/4/2021 11:45:00 AM 11.92 53.456 0.146 7.71 12.47 10.19
5/4/2021 12:00:00 PM 11.99 53.582 0.146 7.72 11.73 10.21
5/4/2021 12:15:00 PM 12.02 53.636 0.146 7.71 14.63 10.23
5/4/2021 12:30:00 PM 12.03 53.654 0.146 7.72 13.13 10.23
5/4/2021 12:45:00 PM 12.04 53.672 0.146 7.72 12.49 10.24
5/4/2021 1:00:00 PM 12.05 53.69 0.146 7.72 12.83 10.25
5/4/2021 1:15:00 PM 12.11 53.798 0.146 7.73 15.81 10.27
5/4/2021 1:30:00 PM 12.16 53.888 0.146 7.72 12.09 10.28
5/4/2021 1:45:00 PM 12.21 53.978 0.146 7.73 14.39 10.29
5/4/2021 2:00:00 PM 12.26 54.068 0.146 7.74 11.55 10.28
5/4/2021 2:15:00 PM 12.3 54.14 0.146 7.74 11.79 10.3
5/4/2021 2:30:00 PM 12.33 54.194 0.146 7.73 14.42 10.31
5/4/2021 2:45:00 PM 12.38 54.284 0.146 7.74 12.72 10.31
5/4/2021 3:00:00 PM 12.36 54.248 0.146 7.74 12.06 10.32
5/4/2021 3:15:00 PM 12.41 54.338 0.146 7.75 12.29 10.33
5/4/2021 3:30:00 PM 12.52 54.536 0.146 7.75 12.64 10.34
5/4/2021 3:45:00 PM 12.53 54.554 0.147 7.75 11.77 10.34
5/4/2021 4:00:00 PM 12.5 54.5 0.147 7.75 11.33 10.34
5/4/2021 4:15:00 PM 12.46 54.428 0.147 7.75 12.29 10.32
5/4/2021 4:30:00 PM 12.42 54.356 0.147 7.75 13.14 10.3
5/4/2021 4:45:00 PM 12.4 54.32 0.147 7.75 12.72 10.28
5/4/2021 5:00:00 PM 12.39 54.302 0.147 7.74 13.61 10.27
5/4/2021 5:15:00 PM 12.4 54.32 0.147 7.74 12.6 10.27
5/4/2021 5:30:00 PM 12.4 54.32 0.147 7.73 12.14 10.26
5/4/2021 5:45:00 PM 12.4 54.32 0.147 7.74 12.08 10.26
5/4/2021 6:00:00 PM 12.4 54.32 0.147 7.74 13.64 10.25
5/4/2021 6:15:00 PM 12.39 54.302 0.147 7.74 11.86 10.24
5/4/2021 6:30:00 PM 12.39 54.302 0.147 7.74 11.77 10.22
5/4/2021 6:45:00 PM 12.39 54.302 0.147 7.73 13.16 10.21
5/4/2021 7:00:00 PM 12.41 54.338 0.147 7.72 15.9 10.2
5/4/2021 7:15:00 PM 12.42 54.356 0.147 7.73 11.93 10.19
5/4/2021 7:30:00 PM 12.44 54.392 0.147 7.73 14.5 10.19
5/4/2021 7:45:00 PM 12.46 54.428 0.148 7.73 12.21 10.17
5/4/2021 8:00:00 PM 12.47 54.446 0.148 7.72 13.36 10.16
5/4/2021 8:15:00 PM 12.5 54.5 0.147 7.72 13.3 10.15
5/4/2021 8:30:00 PM 12.52 54.536 0.147 7.72 13.57 10.14
5/4/2021 8:45:00 PM 12.54 54.572 0.147 7.72 14.49 10.12
5/4/2021 9:00:00 PM 12.56 54.608 0.147 7.72 13.38 10.11
5/4/2021 9:15:00 PM 12.58 54.644 0.148 7.71 24.69 10.09
5/4/2021 9:30:00 PM 12.6 54.68 0.148 7.71 15.04 10.09
5/4/2021 9:45:00 PM 12.61 54.698 0.148 7.7 13.25 10.08
5/4/2021 10:00:00 PM 12.61 54.698 0.148 7.71 15.49 10.06
5/4/2021 10:15:00 PM 12.61 54.698 0.147 7.71 15.02 10.06
5/4/2021 10:30:00 PM 12.61 54.698 0.147 7.71 15.44 10.05
5/4/2021 10:45:00 PM 12.61 54.698 0.147 7.71 14.79 10.05
5/4/2021 11:00:00 PM 12.61 54.698 0.147 7.7 15.02 10.04
5/4/2021 11:15:00 PM 12.63 54.734 0.147 7.7 16.5 10.03
5/4/2021 11:30:00 PM 12.63 54.734 0.147 7.7 15.05 10.02
5/4/2021 11:45:00 PM 12.65 54.77 0.148 7.71 15.83 10
5/5/2021 12:00:00 AM 12.65 54.77 0.148 7.7 17.59 9.99
5/5/2021 12:15:00 AM 12.64 54.752 0.147 7.7 14.77 9.99
5/5/2021 12:30:00 AM 12.64 54.752 0.147 7.69 15.82 9.97
5/5/2021 12:45:00 AM 12.64 54.752 0.147 7.7 22.11 9.96
5/5/2021 1:00:00 AM 12.64 54.752 0.146 7.69 21.7 9.96
5/5/2021 1:15:00 AM 12.64 54.752 0.146 7.69 16.32 9.94
5/5/2021 1:30:00 AM 12.64 54.752 0.146 7.69 16.63 9.94
5/5/2021 1:45:00 AM 12.64 54.752 0.146 7.68 18.64 9.93
5/5/2021 2:00:00 AM 12.64 54.752 0.146 7.69 11.51 9.92
5/5/2021 2:15:00 AM -99999.99 -179968 -99999.99 -99999.99 -99999.99 -99999.99
5/5/2021 2:30:00 AM -99999.99 -179968 -99999.99 -99999.99 -99999.99 -99999.99
5/5/2021 2:45:00 AM -99999.99 -179968 -99999.99 -99999.99 -99999.99 -99999.99
5/5/2021 3:00:00 AM -99999.99 -179968 -99999.99 -99999.99 -99999.99 -99999.99
5/5/2021 3:15:00 AM 12.63 54.734 0.145 7.67 16.89 9.85
5/5/2021 3:30:00 AM 12.62 54.716 0.145 7.67 60.47 9.83
5/5/2021 3:45:00 AM 12.61 54.698 0.144 7.67 18.32 9.84
5/5/2021 4:00:00 AM 12.6 54.68 0.144 7.66 19.58 9.83
5/5/2021 4:15:00 AM 12.6 54.68 0.144 7.66 17.2 9.82
5/5/2021 4:30:00 AM 12.6 54.68 0.143 7.66 19.23 9.81
5/5/2021 4:45:00 AM -99999.99 -179968 -99999.99 -99999.99 -99999.99 -99999.99
5/5/2021 5:00:00 AM -99999.99 -179968 -99999.99 -99999.99 -99999.99 -99999.99
5/5/2021 5:15:00 AM 12.59 54.662 0.143 7.65 18.49 9.76
5/5/2021 5:30:00 AM 12.59 54.662 0.143 7.65 17.29 9.78
5/5/2021 5:45:00 AM 12.59 54.662 0.143 7.65 18.05 9.76
5/5/2021 6:00:00 AM 12.6 54.68 0.143 7.64 19.44 9.77
5/5/2021 6:15:00 AM 12.6 54.68 0.142 7.64 33.82 9.76
5/5/2021 6:30:00 AM 12.61 54.698 0.142 7.64 15.14 9.76
5/5/2021 6:45:00 AM 12.62 54.716 0.142 7.63 17.1 9.77
5/5/2021 7:00:00 AM 12.64 54.752 0.142 7.64 18.4 9.77
5/5/2021 7:15:00 AM 12.65 54.77 0.142 7.64 19.29 9.76
5/5/2021 7:30:00 AM 12.66 54.788 0.142 7.64 14.89 9.76
5/5/2021 7:45:00 AM 12.68 54.824 0.142 7.63 20.14 9.77
5/5/2021 8:00:00 AM 12.69 54.842 0.142 7.64 22.57 9.75
5/5/2021 8:15:00 AM 12.69 54.842 0.142 7.64 15.01 9.77
5/5/2021 8:30:00 AM 12.7 54.86 0.14 7.63 16.97 9.77
5/5/2021 8:45:00 AM 12.7 54.86 0.142 7.63 45.99 9.75
5/5/2021 9:00:00 AM 12.7 54.86 0.142 7.64 22.86 9.77
5/5/2021 9:15:00 AM 12.7 54.86 0.142 7.64 15.42 9.76
5/5/2021 9:30:00 AM 12.7 54.86 0.142 7.65 15.8 9.76
5/5/2021 9:45:00 AM 12.7 54.86 0.142 7.65 15.96 9.75
5/5/2021 10:00:00 AM 12.7 54.86 0.142 7.64 15.22 9.76
5/5/2021 10:15:00 AM 12.71 54.878 0.143 7.64 15.32 9.77
5/5/2021 10:30:00 AM 12.71 54.878 0.143 7.65 16.67 9.77
5/5/2021 10:45:00 AM 12.71 54.878 0.143 7.65 16.72 9.77
5/5/2021 11:00:00 AM 12.72 54.896 0.143 7.65 16.16 9.76
5/5/2021 11:15:00 AM 12.73 54.914 0.143 7.65 16.12 9.76
5/5/2021 11:30:00 AM 12.73 54.914 0.143 7.65 40.7 9.77
5/5/2021 11:45:00 AM 12.72 54.896 0.143 7.66 13.57 9.77
5/5/2021 12:00:00 PM 12.72 54.896 0.143 7.66 29.06 9.78
5/5/2021 12:15:00 PM 12.72 54.896 0.143 7.66 15.57 9.78
5/5/2021 12:30:00 PM 12.72 54.896 0.143 7.66 14.11 9.78
5/5/2021 12:45:00 PM 12.72 54.896 0.143 7.66 15.7 9.78
5/5/2021 1:00:00 PM 12.71 54.878 0.143 7.66 14.68 9.79
5/5/2021 1:15:00 PM 12.7 54.86 0.144 7.66 13.83 9.79
5/5/2021 1:30:00 PM 12.7 54.86 0.144 7.66 16.3 9.79
5/5/2021 1:45:00 PM 12.7 54.86 0.144 7.66 18.45 9.79
5/5/2021 2:00:00 PM 12.7 54.86 0.145 7.66 17.04 9.79
5/5/2021 2:15:00 PM 12.7 54.86 0.145 7.66 14.7 9.8
5/5/2021 2:30:00 PM 12.69 54.842 0.145 7.67 14.19 9.82
5/5/2021 2:45:00 PM 12.69 54.842 0.146 7.67 28.33 9.82
5/5/2021 3:00:00 PM 12.69 54.842 0.146 7.67 14.41 9.81
5/5/2021 3:15:00 PM 12.68 54.824 0.147 7.67 20.64 9.83
5/5/2021 3:30:00 PM 12.68 54.824 0.147 7.67 15.69 9.83
5/5/2021 3:45:00 PM 12.68 54.824 0.147 7.67 31.17 9.84
5/5/2021 4:00:00 PM 12.67 54.806 0.147 7.68 17.65 9.83
5/5/2021 4:15:00 PM 12.66 54.788 0.147 7.67 20.08 9.84
5/5/2021 4:30:00 PM 12.66 54.788 0.147 7.68 15.52 9.84
5/5/2021 4:45:00 PM 12.65 54.77 0.147 7.68 16.39 9.83
5/5/2021 5:00:00 PM 12.64 54.752 0.147 7.68 15.6 9.84
5/5/2021 5:15:00 PM 12.64 54.752 0.147 7.68 18.03 9.84
5/5/2021 5:30:00 PM 12.63 54.734 0.146 7.69 17.25 9.84
5/5/2021 5:45:00 PM 12.62 54.716 0.146 7.68 16.42 9.84
5/5/2021 6:00:00 PM 12.62 54.716 0.146 7.69 17.22 9.83
5/5/2021 6:15:00 PM 12.62 54.716 0.146 7.69 18.18 9.83
5/5/2021 6:30:00 PM 12.63 54.734 0.146 7.68 15.33 9.83
5/5/2021 6:45:00 PM 12.64 54.752 0.146 7.69 18.08 9.83
5/5/2021 7:00:00 PM 12.64 54.752 0.146 7.68 16.56 9.82
5/5/2021 7:15:00 PM 12.64 54.752 0.146 7.69 54.98 9.82
5/5/2021 7:30:00 PM 12.63 54.734 0.146 7.69 19.09 9.82
5/5/2021 7:45:00 PM 12.63 54.734 0.146 7.69 16.76 9.8
5/5/2021 8:00:00 PM 12.62 54.716 0.146 7.69 32.09 9.81
5/5/2021 8:15:00 PM 12.61 54.698 0.145 7.68 19.83 9.81
5/5/2021 8:30:00 PM -99999.99 -179968 -99999.99 -99999.99 -99999.99 -99999.99
5/5/2021 8:45:00 PM -99999.99 -179968 -99999.99 -99999.99 -99999.99 -99999.99
5/5/2021 9:00:00 PM 12.58 54.644 0.145 7.69 20.22 9.8
5/5/2021 9:15:00 PM 12.58 54.644 0.145 7.69 24.19 9.8
5/5/2021 9:30:00 PM 12.58 54.644 0.145 7.68 46.94 9.79
5/5/2021 9:45:00 PM 12.57 54.626 0.145 7.69 17.87 9.79
5/5/2021 10:00:00 PM 12.57 54.626 0.145 7.68 29.09 9.79
5/5/2021 10:15:00 PM 12.57 54.626 0.145 7.68 15.46 9.79
5/5/2021 10:30:00 PM 12.56 54.608 0.145 7.69 23.21 9.78
5/5/2021 10:45:00 PM 12.56 54.608 0.145 7.68 28.99 9.78
5/5/2021 11:00:00 PM 12.57 54.626 0.145 7.68 27.86 9.77
5/5/2021 11:15:00 PM 12.57 54.626 0.145 7.68 21.08 9.76
5/5/2021 11:30:00 PM 12.57 54.626 0.145 7.69 20.35 9.76
5/5/2021 11:45:00 PM 12.58 54.644 0.145 7.68 18.32 9.75
5/6/2021 12:00:00 AM 12.58 54.644 0.145 7.69 30.13 9.75
5/6/2021 12:15:00 AM 12.58 54.644 0.145 7.68 25.53 9.75
5/6/2021 12:30:00 AM 12.58 54.644 0.145 7.69 20.56 9.75
5/6/2021 12:45:00 AM 12.58 54.644 0.145 7.69 22.29 9.74
5/6/2021 1:00:00 AM 12.57 54.626 0.145 7.68 25.29 9.73
5/6/2021 1:15:00 AM 12.57 54.626 0.144 7.68 19.56 9.72
5/6/2021 1:30:00 AM 12.57 54.626 0.144 7.68 27.97 9.72
5/6/2021 1:45:00 AM 12.56 54.608 0.144 7.68 32.32 9.73
5/6/2021 2:00:00 AM -99999.99 -179968 -99999.99 -99999.99 -99999.99 -99999.99
5/6/2021 2:15:00 AM -99999.99 -179968 -99999.99 -99999.99 -99999.99 -99999.99
5/6/2021 2:30:00 AM -99999.99 -179968 -99999.99 -99999.99 -99999.99 -99999.99
5/6/2021 2:45:00 AM -99999.99 -179968 -99999.99 -99999.99 -99999.99 -99999.99
5/6/2021 3:00:00 AM -99999.99 -179968 -99999.99 -99999.99 -99999.99 -99999.99
5/6/2021 3:15:00 AM -99999.99 -179968 -99999.99 -99999.99 -99999.99 -99999.99
5/6/2021 3:30:00 AM -99999.99 -179968 -99999.99 -99999.99 -99999.99 -99999.99
5/6/2021 3:45:00 AM -99999.99 -179968 -99999.99 -99999.99 -99999.99 -99999.99
5/6/2021 4:00:00 AM -99999.99 -179968 -99999.99 -99999.99 -99999.99 -99999.99
5/6/2021 4:15:00 AM -99999.99 -179968 -99999.99 -99999.99 -99999.99 -99999.99
5/6/2021 4:30:00 AM -99999.99 -179968 -99999.99 -99999.99 -99999.99 -99999.99
5/6/2021 4:45:00 AM -99999.99 -179968 -99999.99 -99999.99 -99999.99 -99999.99
5/6/2021 5:00:00 AM -99999.99 -179968 -99999.99 -99999.99 -99999.99 -99999.99
5/6/2021 5:15:00 AM -99999.99 -179968 -99999.99 -99999.99 -99999.99 -99999.99
5/6/2021 5:30:00 AM -99999.99 -179968 -99999.99 -99999.99 -99999.99 -99999.99
5/6/2021 5:45:00 AM -99999.99 -179968 -99999.99 -99999.99 -99999.99 -99999.99
5/6/2021 6:00:00 AM -99999.99 -179968 -99999.99 -99999.99 -99999.99 -99999.99
5/6/2021 6:15:00 AM -99999.99 -179968 -99999.99 -99999.99 -99999.99 -99999.99
5/6/2021 6:30:00 AM -99999.99 -179968 -99999.99 -99999.99 -99999.99 -99999.99
5/6/2021 6:45:00 AM -99999.99 -179968 -99999.99 -99999.99 -99999.99 -99999.99
5/6/2021 7:00:00 AM -99999.99 -179968 -99999.99 -99999.99 -99999.99 -99999.99
5/6/2021 7:15:00 AM -99999.99 -179968 -99999.99 -99999.99 -99999.99 -99999.99
5/6/2021 7:30:00 AM -99999.99 -179968 -99999.99 -99999.99 -99999.99 -99999.99
5/6/2021 7:45:00 AM -99999.99 -179968 -99999.99 -99999.99 -99999.99 -99999.99
5/6/2021 8:00:00 AM -99999.99 -179968 -99999.99 -99999.99 -99999.99 -99999.99
5/6/2021 8:15:00 AM -99999.99 -179968 -99999.99 -99999.99 -99999.99 -99999.99
5/6/2021 8:30:00 AM -99999.99 -179968 -99999.99 -99999.99 -99999.99 -99999.99
5/6/2021 8:45:00 AM -99999.99 -179968 -99999.99 -99999.99 -99999.99 -99999.99
5/6/2021 9:00:00 AM -99999.99 -179968 -99999.99 -99999.99 -99999.99 -99999.99
5/6/2021 9:15:00 AM -99999.99 -179968 -99999.99 -99999.99 -99999.99 -99999.99
5/6/2021 9:30:00 AM -99999.99 -179968 -99999.99 -99999.99 -99999.99 -99999.99
5/6/2021 9:45:00 AM -99999.99 -179968 -99999.99 -99999.99 -99999.99 -99999.99
5/6/2021 10:00:00 AM -99999.99 -179968 -99999.99 -99999.99 -99999.99 -99999.99
5/6/2021 10:15:00 AM -99999.99 -179968 -99999.99 -99999.99 -99999.99 -99999.99
5/6/2021 10:30:00 AM -99999.99 -179968 -99999.99 -99999.99 -99999.99 -99999.99
5/6/2021 10:45:00 AM -99999.99 -179968 -99999.99 -99999.99 -99999.99 -99999.99
5/6/2021 11:00:00 AM -99999.99 -179968 -99999.99 -99999.99 -99999.99 -99999.99
5/6/2021 11:15:00 AM -99999.99 -179968 -99999.99 -99999.99 -99999.99 -99999.99
5/6/2021 11:30:00 AM -99999.99 -179968 -99999.99 -99999.99 -99999.99 -99999.99
5/6/2021 11:45:00 AM -99999.99 -179968 -99999.99 -99999.99 -99999.99 -99999.99
5/6/2021 12:00:00 PM -99999.99 -179968 -99999.99 -99999.99 -99999.99 -99999.99
5/6/2021 12:15:00 PM -99999.99 -179968 -99999.99 -99999.99 -99999.99 -99999.99
5/6/2021 12:30:00 PM -99999.99 -179968 -99999.99 -99999.99 -99999.99 -99999.99
5/6/2021 12:45:00 PM -99999.99 -179968 -99999.99 -99999.99 -99999.99 -99999.99
5/6/2021 1:00:00 PM -99999.99 -179968 -99999.99 -99999.99 -99999.99 -99999.99
5/6/2021 1:15:00 PM -99999.99 -179968 -99999.99 -99999.99 -99999.99 -99999.99
5/6/2021 1:30:00 PM -99999.99 -179968 -99999.99 -99999.99 -99999.99 -99999.99
5/6/2021 1:45:00 PM -99999.99 -179968 -99999.99 -99999.99 -99999.99 -99999.99
5/6/2021 2:00:00 PM -99999.99 -179968 -99999.99 -99999.99 -99999.99 -99999.99
5/6/2021 2:15:00 PM -99999.99 -179968 -99999.99 -99999.99 -99999.99 -99999.99
5/6/2021 2:30:00 PM -99999.99 -179968 -99999.99 -99999.99 -99999.99 -99999.99
5/6/2021 2:45:00 PM -99999.99 -179968 -99999.99 -99999.99 -99999.99 -99999.99
5/6/2021 3:00:00 PM -99999.99 -179968 -99999.99 -99999.99 -99999.99 -99999.99
5/6/2021 3:15:00 PM -99999.99 -179968 -99999.99 -99999.99 -99999.99 -99999.99
5/6/2021 3:30:00 PM -99999.99 -179968 -99999.99 -99999.99 -99999.99 -99999.99
5/6/2021 3:45:00 PM -99999.99 -179968 -99999.99 -99999.99 -99999.99 -99999.99
5/6/2021 4:00:00 PM -99999.99 -179968 -99999.99 -99999.99 -99999.99 -99999.99
5/6/2021 4:15:00 PM -99999.99 -179968 -99999.99 -99999.99 -99999.99 -99999.99
5/6/2021 4:30:00 PM -99999.99 -179968 -99999.99 -99999.99 -99999.99 -99999.99
5/6/2021 4:45:00 PM -99999.99 -179968 -99999.99 -99999.99 -99999.99 -99999.99
5/6/2021 5:00:00 PM -99999.99 -179968 -99999.99 -99999.99 -99999.99 -99999.99
5/6/2021 5:15:00 PM -99999.99 -179968 -99999.99 -99999.99 -99999.99 -99999.99
5/6/2021 5:30:00 PM -99999.99 -179968 -99999.99 -99999.99 -99999.99 -99999.99
5/6/2021 5:45:00 PM -99999.99 -179968 -99999.99 -99999.99 -99999.99 -99999.99
5/6/2021 6:00:00 PM -99999.99 -179968 -99999.99 -99999.99 -99999.99 -99999.99
5/6/2021 6:15:00 PM -99999.99 -179968 -99999.99 -99999.99 -99999.99 -99999.99
5/6/2021 6:30:00 PM -99999.99 -179968 -99999.99 -99999.99 -99999.99 -99999.99
5/6/2021 6:45:00 PM -99999.99 -179968 -99999.99 -99999.99 -99999.99 -99999.99
5/6/2021 7:00:00 PM -99999.99 -179968 -99999.99 -99999.99 -99999.99 -99999.99
5/6/2021 7:15:00 PM -99999.99 -179968 -99999.99 -99999.99 -99999.99 -99999.99
5/6/2021 7:30:00 PM -99999.99 -179968 -99999.99 -99999.99 -99999.99 -99999.99
5/6/2021 7:45:00 PM -99999.99 -179968 -99999.99 -99999.99 -99999.99 -99999.99
5/6/2021 8:00:00 PM -99999.99 -179968 -99999.99 -99999.99 -99999.99 -99999.99
5/6/2021 8:15:00 PM -99999.99 -179968 -99999.99 -99999.99 -99999.99 -99999.99
5/6/2021 8:30:00 PM -99999.99 -179968 -99999.99 -99999.99 -99999.99 -99999.99
5/6/2021 8:45:00 PM -99999.99 -179968 -99999.99 -99999.99 -99999.99 -99999.99
5/6/2021 9:00:00 PM -99999.99 -179968 -99999.99 -99999.99 -99999.99 -99999.99
5/6/2021 9:15:00 PM -99999.99 -179968 -99999.99 -99999.99 -99999.99 -99999.99
5/6/2021 9:30:00 PM -99999.99 -179968 -99999.99 -99999.99 -99999.99 -99999.99
5/6/2021 9:45:00 PM -99999.99 -179968 -99999.99 -99999.99 -99999.99 -99999.99
5/6/2021 10:00:00 PM -99999.99 -179968 -99999.99 -99999.99 -99999.99 -99999.99
5/6/2021 10:15:00 PM -99999.99 -179968 -99999.99 -99999.99 -99999.99 -99999.99
5/6/2021 10:30:00 PM -99999.99 -179968 -99999.99 -99999.99 -99999.99 -99999.99
5/6/2021 10:45:00 PM -99999.99 -179968 -99999.99 -99999.99 -99999.99 -99999.99
5/6/2021 11:00:00 PM -99999.99 -179968 -99999.99 -99999.99 -99999.99 -99999.99
5/6/2021 11:15:00 PM -99999.99 -179968 -99999.99 -99999.99 -99999.99 -99999.99
5/6/2021 11:30:00 PM -99999.99 -179968 -99999.99 -99999.99 -99999.99 -99999.99
5/6/2021 11:45:00 PM -99999.99 -179968 -99999.99 -99999.99 -99999.99 -99999.99
5/7/2021 12:00:00 AM -99999.99 -179968 -99999.99 -99999.99 -99999.99 -99999.99
5/7/2021 12:15:00 AM -99999.99 -179968 -99999.99 -99999.99 -99999.99 -99999.99
5/7/2021 12:30:00 AM -99999.99 -179968 -99999.99 -99999.99 -99999.99 -99999.99
5/7/2021 12:45:00 AM -99999.99 -179968 -99999.99 -99999.99 -99999.99 -99999.99
5/7/2021 1:00:00 AM -99999.99 -179968 -99999.99 -99999.99 -99999.99 -99999.99
5/7/2021 1:15:00 AM -99999.99 -179968 -99999.99 -99999.99 -99999.99 -99999.99
5/7/2021 1:30:00 AM -99999.99 -179968 -99999.99 -99999.99 -99999.99 -99999.99
5/7/2021 1:45:00 AM -99999.99 -179968 -99999.99 -99999.99 -99999.99 -99999.99
5/7/2021 2:00:00 AM -99999.99 -179968 -99999.99 -99999.99 -99999.99 -99999.99
5/7/2021 2:15:00 AM -99999.99 -179968 -99999.99 -99999.99 -99999.99 -99999.99
5/7/2021 2:30:00 AM -99999.99 -179968 -99999.99 -99999.99 -99999.99 -99999.99
5/7/2021 2:45:00 AM -99999.99 -179968 -99999.99 -99999.99 -99999.99 -99999.99
5/7/2021 3:00:00 AM -99999.99 -179968 -99999.99 -99999.99 -99999.99 -99999.99
5/7/2021 3:15:00 AM -99999.99 -179968 -99999.99 -99999.99 -99999.99 -99999.99
5/7/2021 3:30:00 AM -99999.99 -179968 -99999.99 -99999.99 -99999.99 -99999.99
5/7/2021 3:45:00 AM -99999.99 -179968 -99999.99 -99999.99 -99999.99 -99999.99
5/7/2021 4:00:00 AM -99999.99 -179968 -99999.99 -99999.99 -99999.99 -99999.99
5/7/2021 4:15:00 AM -99999.99 -179968 -99999.99 -99999.99 -99999.99 -99999.99
5/7/2021 4:30:00 AM -99999.99 -179968 -99999.99 -99999.99 -99999.99 -99999.99
5/7/2021 4:45:00 AM -99999.99 -179968 -99999.99 -99999.99 -99999.99 -99999.99
5/7/2021 5:00:00 AM -99999.99 -179968 -99999.99 -99999.99 -99999.99 -99999.99
5/7/2021 5:15:00 AM -99999.99 -179968 -99999.99 -99999.99 -99999.99 -99999.99
5/7/2021 5:30:00 AM -99999.99 -179968 -99999.99 -99999.99 -99999.99 -99999.99
5/7/2021 5:45:00 AM -99999.99 -179968 -99999.99 -99999.99 -99999.99 -99999.99
5/7/2021 6:00:00 AM -99999.99 -179968 -99999.99 -99999.99 -99999.99 -99999.99
5/7/2021 6:15:00 AM -99999.99 -179968 -99999.99 -99999.99 -99999.99 -99999.99
5/7/2021 6:30:00 AM -99999.99 -179968 -99999.99 -99999.99 -99999.99 -99999.99
5/7/2021 6:45:00 AM -99999.99 -179968 -99999.99 -99999.99 -99999.99 -99999.99
5/7/2021 7:00:00 AM 12.03 53.654 0.134 7.64 62.19 9.73
5/7/2021 7:15:00 AM 12 53.6 0.134 7.65 75.2 9.74
5/7/2021 7:30:00 AM 11.98 53.564 0.134 7.66 49.87 9.74
5/7/2021 7:45:00 AM -99999.99 -179968 -99999.99 -99999.99 -99999.99 -99999.99
5/7/2021 8:00:00 AM -99999.99 -179968 -99999.99 -99999.99 -99999.99 -99999.99
5/7/2021 8:15:00 AM -99999.99 -179968 -99999.99 -99999.99 -99999.99 -99999.99
5/7/2021 8:30:00 AM -99999.99 -179968 -99999.99 -99999.99 -99999.99 -99999.99
5/7/2021 8:45:00 AM -99999.99 -179968 -99999.99 -99999.99 -99999.99 -99999.99
5/7/2021 9:00:00 AM -99999.99 -179968 -99999.99 -99999.99 -99999.99 -99999.99
5/7/2021 9:15:00 AM -99999.99 -179968 -99999.99 -99999.99 -99999.99 -99999.99
5/7/2021 9:30:00 AM -99999.99 -179968 -99999.99 -99999.99 -99999.99 -99999.99
5/7/2021 9:45:00 AM -99999.99 -179968 -99999.99 -99999.99 -99999.99 -99999.99
5/7/2021 10:00:00 AM -99999.99 -179968 -99999.99 -99999.99 -99999.99 -99999.99
5/7/2021 10:15:00 AM -99999.99 -179968 -99999.99 -99999.99 -99999.99 -99999.99
5/7/2021 10:30:00 AM -99999.99 -179968 -99999.99 -99999.99 -99999.99 -99999.99
5/7/2021 10:45:00 AM -99999.99 -179968 -99999.99 -99999.99 -99999.99 -99999.99
5/7/2021 11:00:00 AM -99999.99 -179968 -99999.99 -99999.99 -99999.99 -99999.99
5/7/2021 11:15:00 AM -99999.99 -179968 -99999.99 -99999.99 -99999.99 -99999.99
5/7/2021 11:30:00 AM -99999.99 -179968 -99999.99 -99999.99 -99999.99 -99999.99
5/7/2021 11:45:00 AM -99999.99 -179968 -99999.99 -99999.99 -99999.99 -99999.99
5/7/2021 12:00:00 PM -99999.99 -179968 -99999.99 -99999.99 -99999.99 -99999.99
5/7/2021 12:15:00 PM -99999.99 -179968 -99999.99 -99999.99 -99999.99 -99999.99
5/7/2021 12:30:00 PM -99999.99 -179968 -99999.99 -99999.99 -99999.99 -99999.99
5/7/2021 12:45:00 PM -99999.99 -179968 -99999.99 -99999.99 -99999.99 -99999.99
5/7/2021 1:00:00 PM -99999.99 -179968 -99999.99 -99999.99 -99999.99 -99999.99
5/7/2021 1:15:00 PM -99999.99 -179968 -99999.99 -99999.99 -99999.99 -99999.99
5/7/2021 1:30:00 PM -99999.99 -179968 -99999.99 -99999.99 -99999.99 -99999.99
5/7/2021 1:45:00 PM -99999.99 -179968 -99999.99 -99999.99 -99999.99 -99999.99
5/7/2021 2:00:00 PM -99999.99 -179968 -99999.99 -99999.99 -99999.99 -99999.99
5/7/2021 2:15:00 PM -99999.99 -179968 -99999.99 -99999.99 -99999.99 -99999.99
5/7/2021 2:30:00 PM -99999.99 -179968 -99999.99 -99999.99 -99999.99 -99999.99
5/7/2021 2:45:00 PM -99999.99 -179968 -99999.99 -99999.99 -99999.99 -99999.99
5/7/2021 3:00:00 PM -99999.99 -179968 -99999.99 -99999.99 -99999.99 -99999.99
5/7/2021 3:15:00 PM -99999.99 -179968 -99999.99 -99999.99 -99999.99 -99999.99
5/7/2021 3:30:00 PM -99999.99 -179968 -99999.99 -99999.99 -99999.99 -99999.99
5/7/2021 3:45:00 PM -99999.99 -179968 -99999.99 -99999.99 -99999.99 -99999.99
5/7/2021 4:00:00 PM -99999.99 -179968 -99999.99 -99999.99 -99999.99 -99999.99
5/7/2021 4:15:00 PM -99999.99 -179968 -99999.99 -99999.99 -99999.99 -99999.99
5/7/2021 4:30:00 PM -99999.99 -179968 -99999.99 -99999.99 -99999.99 -99999.99
5/7/2021 4:45:00 PM -99999.99 -179968 -99999.99 -99999.99 -99999.99 -99999.99
5/7/2021 5:00:00 PM -99999.99 -179968 -99999.99 -99999.99 -99999.99 -99999.99
5/7/2021 5:15:00 PM -99999.99 -179968 -99999.99 -99999.99 -99999.99 -99999.99
5/7/2021 5:30:00 PM -99999.99 -179968 -99999.99 -99999.99 -99999.99 -99999.99
5/7/2021 5:45:00 PM -99999.99 -179968 -99999.99 -99999.99 -99999.99 -99999.99
5/7/2021 6:00:00 PM -99999.99 -179968 -99999.99 -99999.99 -99999.99 -99999.99
5/7/2021 6:15:00 PM -99999.99 -179968 -99999.99 -99999.99 -99999.99 -99999.99
5/7/2021 6:30:00 PM 12.37 54.266 0.132 7.64 34.97 9.91
5/7/2021 6:45:00 PM 12.38 54.284 0.122 7.64 50.84 9.91
5/7/2021 7:00:00 PM 12.38 54.284 0.132 7.64 29.11 9.91
5/7/2021 7:15:00 PM 12.37 54.266 0.132 7.66 33.36 9.91
5/7/2021 7:30:00 PM 12.36 54.248 0.132 7.64 30.14 9.9
5/7/2021 7:45:00 PM 12.35 54.23 0.133 7.66 32.6 9.9
5/7/2021 8:00:00 PM 12.34 54.212 0.133 7.65 32.9 9.9
5/7/2021 8:15:00 PM 12.32 54.176 0.133 7.65 36.51 9.89
5/7/2021 8:30:00 PM 12.31 54.158 0.133 7.66 33.96 9.9
5/7/2021 8:45:00 PM 12.3 54.14 0.133 7.65 33.65 9.89
5/7/2021 9:00:00 PM 12.28 54.104 0.133 7.65 37.07 9.89
5/7/2021 9:15:00 PM 12.27 54.086 0.133 7.65 37.29 9.89
5/7/2021 9:30:00 PM 12.26 54.068 0.133 7.66 33.8 9.89
5/7/2021 9:45:00 PM 12.24 54.032 0.133 7.66 30.82 9.89
5/7/2021 10:00:00 PM 12.23 54.014 0.134 7.65 30.75 9.89
5/7/2021 10:15:00 PM 12.22 53.996 0.134 7.65 31.87 9.89
5/7/2021 10:30:00 PM 12.21 53.978 0.134 7.65 36.41 9.89
5/7/2021 10:45:00 PM 12.2 53.96 0.134 7.66 32.72 9.89
5/7/2021 11:00:00 PM 12.18 53.924 0.134 7.65 36.65 9.89
5/7/2021 11:15:00 PM 12.17 53.906 0.135 7.66 31.85 9.89
5/7/2021 11:30:00 PM 12.16 53.888 0.135 7.66 30.18 9.89
5/7/2021 11:45:00 PM 12.15 53.87 0.134 7.65 33.37 9.89
5/8/2021 12:00:00 AM 12.14 53.852 0.135 7.66 31.94 9.88
5/8/2021 12:15:00 AM 12.12 53.816 0.135 7.66 33.3 9.89
5/8/2021 12:30:00 AM 12.11 53.798 0.135 7.66 31.6 9.88
5/8/2021 12:45:00 AM 12.1 53.78 0.135 7.66 35.98 9.88
5/8/2021 1:00:00 AM 12.08 53.744 0.135 7.66 29.91 9.88
5/8/2021 1:15:00 AM 12.07 53.726 0.135 7.65 34.25 9.88
5/8/2021 1:30:00 AM 12.05 53.69 0.135 7.65 32.37 9.88
5/8/2021 1:45:00 AM 12.04 53.672 0.136 7.65 28.97 9.88
5/8/2021 2:00:00 AM 12.03 53.654 0.136 7.65 32.27 9.88
5/8/2021 2:15:00 AM 12.01 53.618 0.136 7.66 30.33 9.89
5/8/2021 2:30:00 AM 11.99 53.582 0.136 7.66 29.79 9.89
5/8/2021 2:45:00 AM 11.97 53.546 0.136 7.66 30.21 9.89
5/8/2021 3:00:00 AM 11.96 53.528 0.136 7.66 28.78 9.89
5/8/2021 3:15:00 AM 11.94 53.492 0.136 7.66 28.91 9.89
5/8/2021 3:30:00 AM 11.92 53.456 0.137 7.65 29.76 9.9
5/8/2021 3:45:00 AM 11.9 53.42 0.137 7.66 28.59 9.89
5/8/2021 4:00:00 AM 11.88 53.384 0.137 7.66 29.25 9.9
5/8/2021 4:15:00 AM 11.86 53.348 0.137 7.66 28.72 9.9
5/8/2021 4:30:00 AM 11.84 53.312 0.137 7.66 27.2 9.91
5/8/2021 4:45:00 AM 11.82 53.276 0.137 7.66 29.25 9.91
5/8/2021 5:00:00 AM -99999.99 -179968 -99999.99 -99999.99 -99999.99 -99999.99
5/8/2021 5:15:00 AM -99999.99 -179968 -99999.99 -99999.99 -99999.99 -99999.99
5/8/2021 5:30:00 AM -99999.99 -179968 -99999.99 -99999.99 -99999.99 -99999.99
5/8/2021 5:45:00 AM -99999.99 -179968 -99999.99 -99999.99 -99999.99 -99999.99
5/8/2021 6:00:00 AM -99999.99 -179968 -99999.99 -99999.99 -99999.99 -99999.99
5/8/2021 6:15:00 AM -99999.99 -179968 -99999.99 -99999.99 -99999.99 -99999.99
5/8/2021 6:30:00 AM -99999.99 -179968 -99999.99 -99999.99 -99999.99 -99999.99
5/8/2021 6:45:00 AM -99999.99 -179968 -99999.99 -99999.99 -99999.99 -99999.99
5/8/2021 7:00:00 AM -99999.99 -179968 -99999.99 -99999.99 -99999.99 -99999.99
5/8/2021 7:15:00 AM -99999.99 -179968 -99999.99 -99999.99 -99999.99 -99999.99
5/8/2021 7:30:00 AM -99999.99 -179968 -99999.99 -99999.99 -99999.99 -99999.99
5/8/2021 7:45:00 AM -99999.99 -179968 -99999.99 -99999.99 -99999.99 -99999.99
5/8/2021 8:00:00 AM -99999.99 -179968 -99999.99 -99999.99 -99999.99 -99999.99
5/8/2021 8:15:00 AM -99999.99 -179968 -99999.99 -99999.99 -99999.99 -99999.99
5/8/2021 8:30:00 AM -99999.99 -179968 -99999.99 -99999.99 -99999.99 -99999.99
5/8/2021 8:45:00 AM -99999.99 -179968 -99999.99 -99999.99 -99999.99 -99999.99
5/8/2021 9:00:00 AM -99999.99 -179968 -99999.99 -99999.99 -99999.99 -99999.99
5/8/2021 9:15:00 AM -99999.99 -179968 -99999.99 -99999.99 -99999.99 -99999.99
5/8/2021 9:30:00 AM -99999.99 -179968 -99999.99 -99999.99 -99999.99 -99999.99
5/8/2021 9:45:00 AM -99999.99 -179968 -99999.99 -99999.99 -99999.99 -99999.99
5/8/2021 10:00:00 AM -99999.99 -179968 -99999.99 -99999.99 -99999.99 -99999.99
5/8/2021 10:15:00 AM -99999.99 -179968 -99999.99 -99999.99 -99999.99 -99999.99
5/8/2021 10:30:00 AM -99999.99 -179968 -99999.99 -99999.99 -99999.99 -99999.99
5/8/2021 10:45:00 AM -99999.99 -179968 -99999.99 -99999.99 -99999.99 -99999.99
5/8/2021 11:00:00 AM -99999.99 -179968 -99999.99 -99999.99 -99999.99 -99999.99
5/8/2021 11:15:00 AM -99999.99 -179968 -99999.99 -99999.99 -99999.99 -99999.99
5/8/2021 11:30:00 AM -99999.99 -179968 -99999.99 -99999.99 -99999.99 -99999.99
5/8/2021 11:45:00 AM -99999.99 -179968 -99999.99 -99999.99 -99999.99 -99999.99
5/8/2021 12:00:00 PM -99999.99 -179968 -99999.99 -99999.99 -99999.99 -99999.99
5/8/2021 12:15:00 PM -99999.99 -179968 -99999.99 -99999.99 -99999.99 -99999.99
5/8/2021 12:30:00 PM -99999.99 -179968 -99999.99 -99999.99 -99999.99 -99999.99
5/8/2021 12:45:00 PM -99999.99 -179968 -99999.99 -99999.99 -99999.99 -99999.99
5/8/2021 1:00:00 PM -99999.99 -179968 -99999.99 -99999.99 -99999.99 -99999.99
5/8/2021 1:15:00 PM -99999.99 -179968 -99999.99 -99999.99 -99999.99 -99999.99
5/8/2021 1:30:00 PM -99999.99 -179968 -99999.99 -99999.99 -99999.99 -99999.99
5/8/2021 1:45:00 PM -99999.99 -179968 -99999.99 -99999.99 -99999.99 -99999.99
5/8/2021 2:00:00 PM -99999.99 -179968 -99999.99 -99999.99 -99999.99 -99999.99
5/8/2021 2:15:00 PM -99999.99 -179968 -99999.99 -99999.99 -99999.99 -99999.99
5/8/2021 2:30:00 PM -99999.99 -179968 -99999.99 -99999.99 -99999.99 -99999.99
5/8/2021 2:45:00 PM -99999.99 -179968 -99999.99 -99999.99 -99999.99 -99999.99
5/8/2021 3:00:00 PM -99999.99 -179968 -99999.99 -99999.99 -99999.99 -99999.99
5/8/2021 3:15:00 PM -99999.99 -179968 -99999.99 -99999.99 -99999.99 -99999.99
5/8/2021 3:30:00 PM -99999.99 -179968 -99999.99 -99999.99 -99999.99 -99999.99
5/8/2021 3:45:00 PM -99999.99 -179968 -99999.99 -99999.99 -99999.99 -99999.99
5/8/2021 4:00:00 PM -99999.99 -179968 -99999.99 -99999.99 -99999.99 -99999.99
5/8/2021 4:15:00 PM -99999.99 -179968 -99999.99 -99999.99 -99999.99 -99999.99
5/8/2021 4:30:00 PM -99999.99 -179968 -99999.99 -99999.99 -99999.99 -99999.99
5/8/2021 4:45:00 PM -99999.99 -179968 -99999.99 -99999.99 -99999.99 -99999.99
5/8/2021 5:00:00 PM -99999.99 -179968 -99999.99 -99999.99 -99999.99 -99999.99
5/8/2021 5:15:00 PM -99999.99 -179968 -99999.99 -99999.99 -99999.99 -99999.99
5/8/2021 5:30:00 PM -99999.99 -179968 -99999.99 -99999.99 -99999.99 -99999.99
5/8/2021 5:45:00 PM -99999.99 -179968 -99999.99 -99999.99 -99999.99 -99999.99
5/8/2021 6:00:00 PM -99999.99 -179968 -99999.99 -99999.99 -99999.99 -99999.99
5/8/2021 6:15:00 PM -99999.99 -179968 -99999.99 -99999.99 -99999.99 -99999.99
5/8/2021 6:30:00 PM -99999.99 -179968 -99999.99 -99999.99 -99999.99 -99999.99
5/8/2021 6:45:00 PM -99999.99 -179968 -99999.99 -99999.99 -99999.99 -99999.99
5/8/2021 7:00:00 PM -99999.99 -179968 -99999.99 -99999.99 -99999.99 -99999.99
5/8/2021 7:15:00 PM -99999.99 -179968 -99999.99 -99999.99 -99999.99 -99999.99
5/8/2021 7:30:00 PM -99999.99 -179968 -99999.99 -99999.99 -99999.99 -99999.99
5/8/2021 7:45:00 PM -99999.99 -179968 -99999.99 -99999.99 -99999.99 -99999.99
5/8/2021 8:00:00 PM -99999.99 -179968 -99999.99 -99999.99 -99999.99 -99999.99
5/8/2021 8:15:00 PM -99999.99 -179968 -99999.99 -99999.99 -99999.99 -99999.99
5/8/2021 8:30:00 PM -99999.99 -179968 -99999.99 -99999.99 -99999.99 -99999.99
5/8/2021 8:45:00 PM -99999.99 -179968 -99999.99 -99999.99 -99999.99 -99999.99
5/8/2021 9:00:00 PM -99999.99 -179968 -99999.99 -99999.99 -99999.99 -99999.99
5/8/2021 9:15:00 PM -99999.99 -179968 -99999.99 -99999.99 -99999.99 -99999.99
5/8/2021 9:30:00 PM -99999.99 -179968 -99999.99 -99999.99 -99999.99 -99999.99
5/8/2021 9:45:00 PM -99999.99 -179968 -99999.99 -99999.99 -99999.99 -99999.99
5/8/2021 10:00:00 PM -99999.99 -179968 -99999.99 -99999.99 -99999.99 -99999.99
5/8/2021 10:15:00 PM -99999.99 -179968 -99999.99 -99999.99 -99999.99 -99999.99
5/8/2021 10:30:00 PM -99999.99 -179968 -99999.99 -99999.99 -99999.99 -99999.99
5/8/2021 10:45:00 PM -99999.99 -179968 -99999.99 -99999.99 -99999.99 -99999.99
5/8/2021 11:00:00 PM -99999.99 -179968 -99999.99 -99999.99 -99999.99 -99999.99
5/8/2021 11:15:00 PM -99999.99 -179968 -99999.99 -99999.99 -99999.99 -99999.99
5/8/2021 11:30:00 PM -99999.99 -179968 -99999.99 -99999.99 -99999.99 -99999.99
5/8/2021 11:45:00 PM -99999.99 -179968 -99999.99 -99999.99 -99999.99 -99999.99
5/9/2021 12:00:00 AM -99999.99 -179968 -99999.99 -99999.99 -99999.99 -99999.99
5/9/2021 12:15:00 AM -99999.99 -179968 -99999.99 -99999.99 -99999.99 -99999.99
5/9/2021 12:30:00 AM -99999.99 -179968 -99999.99 -99999.99 -99999.99 -99999.99
5/9/2021 12:45:00 AM -99999.99 -179968 -99999.99 -99999.99 -99999.99 -99999.99
5/9/2021 1:00:00 AM -99999.99 -179968 -99999.99 -99999.99 -99999.99 -99999.99
5/9/2021 1:15:00 AM -99999.99 -179968 -99999.99 -99999.99 -99999.99 -99999.99
5/9/2021 1:30:00 AM -99999.99 -179968 -99999.99 -99999.99 -99999.99 -99999.99
5/9/2021 1:45:00 AM 11.11 51.998 0.14 7.66 28.31 10.12
5/9/2021 2:00:00 AM 11.09 51.962 0.14 7.67 18.93 10.11
5/9/2021 2:15:00 AM -99999.99 -179968 -99999.99 -99999.99 -99999.99 -99999.99
5/9/2021 2:30:00 AM -99999.99 -179968 -99999.99 -99999.99 -99999.99 -99999.99
5/9/2021 2:45:00 AM 11 51.8 0.14 7.67 20.19 10.12
5/9/2021 3:00:00 AM -99999.99 -179968 -99999.99 -99999.99 -99999.99 -99999.99
5/9/2021 3:15:00 AM -99999.99 -179968 -99999.99 -99999.99 -99999.99 -99999.99
5/9/2021 3:30:00 AM -99999.99 -179968 -99999.99 -99999.99 -99999.99 -99999.99
5/9/2021 3:45:00 AM -99999.99 -179968 -99999.99 -99999.99 -99999.99 -99999.99
5/9/2021 4:00:00 AM -99999.99 -179968 -99999.99 -99999.99 -99999.99 -99999.99
5/9/2021 4:15:00 AM -99999.99 -179968 -99999.99 -99999.99 -99999.99 -99999.99
5/9/2021 4:30:00 AM -99999.99 -179968 -99999.99 -99999.99 -99999.99 -99999.99
5/9/2021 4:45:00 AM -99999.99 -179968 -99999.99 -99999.99 -99999.99 -99999.99
5/9/2021 5:00:00 AM -99999.99 -179968 -99999.99 -99999.99 -99999.99 -99999.99
5/9/2021 5:15:00 AM -99999.99 -179968 -99999.99 -99999.99 -99999.99 -99999.99
5/9/2021 5:30:00 AM -99999.99 -179968 -99999.99 -99999.99 -99999.99 -99999.99
5/9/2021 5:45:00 AM -99999.99 -179968 -99999.99 -99999.99 -99999.99 -99999.99
5/9/2021 6:00:00 AM -99999.99 -179968 -99999.99 -99999.99 -99999.99 -99999.99
5/9/2021 6:15:00 AM -99999.99 -179968 -99999.99 -99999.99 -99999.99 -99999.99
5/9/2021 6:30:00 AM -99999.99 -179968 -99999.99 -99999.99 -99999.99 -99999.99
5/9/2021 6:45:00 AM -99999.99 -179968 -99999.99 -99999.99 -99999.99 -99999.99
5/9/2021 7:00:00 AM -99999.99 -179968 -99999.99 -99999.99 -99999.99 -99999.99
5/9/2021 7:15:00 AM -99999.99 -179968 -99999.99 -99999.99 -99999.99 -99999.99
5/9/2021 7:30:00 AM -99999.99 -179968 -99999.99 -99999.99 -99999.99 -99999.99
5/9/2021 7:45:00 AM -99999.99 -179968 -99999.99 -99999.99 -99999.99 -99999.99
5/9/2021 8:00:00 AM -99999.99 -179968 -99999.99 -99999.99 -99999.99 -99999.99
5/9/2021 8:15:00 AM -99999.99 -179968 -99999.99 -99999.99 -99999.99 -99999.99
5/9/2021 8:30:00 AM -99999.99 -179968 -99999.99 -99999.99 -99999.99 -99999.99
5/9/2021 8:45:00 AM -99999.99 -179968 -99999.99 -99999.99 -99999.99 -99999.99
5/9/2021 9:00:00 AM -99999.99 -179968 -99999.99 -99999.99 -99999.99 -99999.99
5/9/2021 9:15:00 AM -99999.99 -179968 -99999.99 -99999.99 -99999.99 -99999.99
5/9/2021 9:30:00 AM -99999.99 -179968 -99999.99 -99999.99 -99999.99 -99999.99
5/9/2021 9:45:00 AM -99999.99 -179968 -99999.99 -99999.99 -99999.99 -99999.99
5/9/2021 10:00:00 AM -99999.99 -179968 -99999.99 -99999.99 -99999.99 -99999.99
5/9/2021 10:15:00 AM -99999.99 -179968 -99999.99 -99999.99 -99999.99 -99999.99
5/9/2021 10:30:00 AM -99999.99 -179968 -99999.99 -99999.99 -99999.99 -99999.99
5/9/2021 10:45:00 AM -99999.99 -179968 -99999.99 -99999.99 -99999.99 -99999.99
5/9/2021 11:00:00 AM -99999.99 -179968 -99999.99 -99999.99 -99999.99 -99999.99
5/9/2021 11:15:00 AM -99999.99 -179968 -99999.99 -99999.99 -99999.99 -99999.99
5/9/2021 11:30:00 AM -99999.99 -179968 -99999.99 -99999.99 -99999.99 -99999.99
5/9/2021 11:45:00 AM -99999.99 -179968 -99999.99 -99999.99 -99999.99 -99999.99
5/9/2021 12:00:00 PM -99999.99 -179968 -99999.99 -99999.99 -99999.99 -99999.99
5/9/2021 12:15:00 PM -99999.99 -179968 -99999.99 -99999.99 -99999.99 -99999.99
5/9/2021 12:30:00 PM -99999.99 -179968 -99999.99 -99999.99 -99999.99 -99999.99
5/9/2021 12:45:00 PM -99999.99 -179968 -99999.99 -99999.99 -99999.99 -99999.99
5/9/2021 1:00:00 PM -99999.99 -179968 -99999.99 -99999.99 -99999.99 -99999.99
5/9/2021 1:15:00 PM -99999.99 -179968 -99999.99 -99999.99 -99999.99 -99999.99
5/9/2021 1:30:00 PM -99999.99 -179968 -99999.99 -99999.99 -99999.99 -99999.99
5/9/2021 1:45:00 PM -99999.99 -179968 -99999.99 -99999.99 -99999.99 -99999.99
5/9/2021 2:00:00 PM -99999.99 -179968 -99999.99 -99999.99 -99999.99 -99999.99
5/9/2021 2:15:00 PM -99999.99 -179968 -99999.99 -99999.99 -99999.99 -99999.99
5/9/2021 2:30:00 PM -99999.99 -179968 -99999.99 -99999.99 -99999.99 -99999.99
5/9/2021 2:45:00 PM -99999.99 -179968 -99999.99 -99999.99 -99999.99 -99999.99
5/9/2021 3:00:00 PM 10.92 51.656 0.145 7.71 19.88 10.41
5/9/2021 3:15:00 PM 10.91 51.638 0.145 7.71 20.17 10.42
5/9/2021 3:30:00 PM -99999.99 -179968 -99999.99 -99999.99 -99999.99 -99999.99
5/9/2021 3:45:00 PM -99999.99 -179968 -99999.99 -99999.99 -99999.99 -99999.99
5/9/2021 4:00:00 PM -99999.99 -179968 -99999.99 -99999.99 -99999.99 -99999.99
5/9/2021 4:15:00 PM -99999.99 -179968 -99999.99 -99999.99 -99999.99 -99999.99
5/9/2021 4:30:00 PM -99999.99 -179968 -99999.99 -99999.99 -99999.99 -99999.99
5/9/2021 4:45:00 PM -99999.99 -179968 -99999.99 -99999.99 -99999.99 -99999.99
5/9/2021 5:00:00 PM -99999.99 -179968 -99999.99 -99999.99 -99999.99 -99999.99
5/9/2021 5:15:00 PM -99999.99 -179968 -99999.99 -99999.99 -99999.99 -99999.99
5/9/2021 5:30:00 PM -99999.99 -179968 -99999.99 -99999.99 -99999.99 -99999.99
5/9/2021 5:45:00 PM -99999.99 -179968 -99999.99 -99999.99 -99999.99 -99999.99
5/9/2021 6:00:00 PM -99999.99 -179968 -99999.99 -99999.99 -99999.99 -99999.99
5/9/2021 6:15:00 PM -99999.99 -179968 -99999.99 -99999.99 -99999.99 -99999.99
5/9/2021 6:30:00 PM -99999.99 -179968 -99999.99 -99999.99 -99999.99 -99999.99
5/9/2021 6:45:00 PM -99999.99 -179968 -99999.99 -99999.99 -99999.99 -99999.99
5/9/2021 7:00:00 PM -99999.99 -179968 -99999.99 -99999.99 -99999.99 -99999.99
5/9/2021 7:15:00 PM -99999.99 -179968 -99999.99 -99999.99 -99999.99 -99999.99
5/9/2021 7:30:00 PM -99999.99 -179968 -99999.99 -99999.99 -99999.99 -99999.99
5/9/2021 7:45:00 PM 10.7 51.26 0.146 7.73 16.13 10.44
5/9/2021 8:00:00 PM 10.68 51.224 0.146 7.72 14.78 10.45
5/9/2021 8:15:00 PM 10.67 51.206 0.146 7.73 17.05 10.45
5/9/2021 8:30:00 PM 10.65 51.17 0.146 7.72 18.51 10.45
5/9/2021 8:45:00 PM 10.62 51.116 0.147 7.73 18.8 10.46
5/9/2021 9:00:00 PM 10.6 51.08 0.147 7.73 17.46 10.46
5/9/2021 9:15:00 PM 10.57 51.026 0.147 7.73 17.33 10.46
5/9/2021 9:30:00 PM 10.55 50.99 0.147 7.73 16.72 10.46
5/9/2021 9:45:00 PM 10.52 50.936 0.147 7.72 18.4 10.46
5/9/2021 10:00:00 PM 10.5 50.9 0.147 7.73 18.54 10.46
5/9/2021 10:15:00 PM 10.47 50.846 0.148 7.73 19.02 10.46
5/9/2021 10:30:00 PM 10.45 50.81 0.147 7.73 19.21 10.46
5/9/2021 10:45:00 PM 10.43 50.774 0.147 7.72 20.08 10.46
5/9/2021 11:00:00 PM 10.41 50.738 0.147 7.73 19.36 10.46
5/9/2021 11:15:00 PM 10.39 50.702 0.147 7.72 20.61 10.46
5/9/2021 11:30:00 PM 10.37 50.666 0.147 7.73 21.2 10.46
5/9/2021 11:45:00 PM 10.35 50.63 0.147 7.72 22.1 10.46
5/10/2021 12:00:00 AM 10.33 50.594 0.147 7.72 20.04 10.46
5/10/2021 12:15:00 AM 10.32 50.576 0.147 7.72 21.19 10.46
5/10/2021 12:30:00 AM 10.3 50.54 0.147 7.72 20.75 10.46
5/10/2021 12:45:00 AM 10.28 50.504 0.147 7.72 21.96 10.45
5/10/2021 1:00:00 AM 10.27 50.486 0.143 7.72 22.41 10.46
5/10/2021 1:15:00 AM 10.25 50.45 0.142 7.72 21.08 10.45
5/10/2021 1:30:00 AM 10.24 50.432 0.145 7.71 34.99 10.45
5/10/2021 1:45:00 AM 10.22 50.396 0.146 7.71 24.3 10.46
5/10/2021 2:00:00 AM 10.21 50.378 0.146 7.72 24.14 10.46
5/10/2021 2:15:00 AM 10.19 50.342 0.145 7.71 26.6 10.46
5/10/2021 2:30:00 AM 10.18 50.324 0.145 7.71 28.43 10.47
5/10/2021 2:45:00 AM 10.17 50.306 0.145 7.71 23.94 10.46
5/10/2021 3:00:00 AM 10.16 50.288 0.144 7.71 26.79 10.47
5/10/2021 3:15:00 AM 10.15 50.27 0.144 7.71 25.52 10.47
5/10/2021 3:30:00 AM 10.14 50.252 0.144 7.71 25.45 10.46
5/10/2021 3:45:00 AM 10.13 50.234 0.143 7.7 39.5 10.46
5/10/2021 4:00:00 AM 10.12 50.216 0.143 7.7 23.48 10.47
5/10/2021 4:15:00 AM 10.11 50.198 0.143 7.71 30.41 10.47
5/10/2021 4:30:00 AM 10.1 50.18 0.142 7.7 19.51 10.47
5/10/2021 4:45:00 AM 10.1 50.18 0.142 7.7 26.44 10.47
5/10/2021 5:00:00 AM 10.09 50.162 0.141 7.7 29.81 10.46
5/10/2021 5:15:00 AM 10.09 50.162 0.141 7.69 26.62 10.47
5/10/2021 5:30:00 AM 10.08 50.144 0.141 7.7 39.44 10.47
5/10/2021 5:45:00 AM 10.07 50.126 0.14 7.7 34.5 10.46
5/10/2021 6:00:00 AM 10.07 50.126 0.14 7.7 29.48 10.47
5/10/2021 6:15:00 AM 10.06 50.108 0.14 7.69 29.59 10.47
5/10/2021 6:30:00 AM 10.05 50.09 0.14 7.7 32.36 10.47
5/10/2021 6:45:00 AM 10.04 50.072 0.139 7.69 31.92 10.47
5/10/2021 7:00:00 AM 10.03 50.054 0.139 7.69 27.41 10.47
5/10/2021 7:15:00 AM 10.02 50.036 0.139 7.69 30.08 10.48
5/10/2021 7:30:00 AM 10.01 50.018 0.138 7.7 29.24 10.48
5/10/2021 7:45:00 AM 10 50 0.138 7.69 30.23 10.49
5/10/2021 8:00:00 AM -99999.99 -179968 -99999.99 -99999.99 -99999.99 -99999.99
5/10/2021 8:15:00 AM -99999.99 -179968 -99999.99 -99999.99 -99999.99 -99999.99
5/10/2021 8:30:00 AM -99999.99 -179968 -99999.99 -99999.99 -99999.99 -99999.99
5/10/2021 8:45:00 AM -99999.99 -179968 -99999.99 -99999.99 -99999.99 -99999.99
5/10/2021 9:00:00 AM -99999.99 -179968 -99999.99 -99999.99 -99999.99 -99999.99
5/10/2021 9:15:00 AM -99999.99 -179968 -99999.99 -99999.99 -99999.99 -99999.99
5/10/2021 9:30:00 AM -99999.99 -179968 -99999.99 -99999.99 -99999.99 -99999.99
5/10/2021 9:45:00 AM -99999.99 -179968 -99999.99 -99999.99 -99999.99 -99999.99
5/10/2021 10:00:00 AM -99999.99 -179968 -99999.99 -99999.99 -99999.99 -99999.99
5/10/2021 10:15:00 AM -99999.99 -179968 -99999.99 -99999.99 -99999.99 -99999.99
5/10/2021 10:30:00 AM -99999.99 -179968 -99999.99 -99999.99 -99999.99 -99999.99
5/10/2021 10:45:00 AM -99999.99 -179968 -99999.99 -99999.99 -99999.99 -99999.99
5/10/2021 11:00:00 AM -99999.99 -179968 -99999.99 -99999.99 -99999.99 -99999.99
5/10/2021 11:15:00 AM -99999.99 -179968 -99999.99 -99999.99 -99999.99 -99999.99
5/10/2021 11:30:00 AM -99999.99 -179968 -99999.99 -99999.99 -99999.99 -99999.99
5/10/2021 11:45:00 AM -99999.99 -179968 -99999.99 -99999.99 -99999.99 -99999.99
5/10/2021 12:00:00 PM -99999.99 -179968 -99999.99 -99999.99 -99999.99 -99999.99
5/10/2021 12:15:00 PM -99999.99 -179968 -99999.99 -99999.99 -99999.99 -99999.99
5/10/2021 12:30:00 PM -99999.99 -179968 -99999.99 -99999.99 -99999.99 -99999.99
5/10/2021 12:45:00 PM -99999.99 -179968 -99999.99 -99999.99 -99999.99 -99999.99
5/10/2021 1:00:00 PM -99999.99 -179968 -99999.99 -99999.99 -99999.99 -99999.99
5/10/2021 1:15:00 PM -99999.99 -179968 -99999.99 -99999.99 -99999.99 -99999.99
5/10/2021 1:30:00 PM -99999.99 -179968 -99999.99 -99999.99 -99999.99 -99999.99
5/10/2021 1:45:00 PM -99999.99 -179968 -99999.99 -99999.99 -99999.99 -99999.99
5/10/2021 2:00:00 PM -99999.99 -179968 -99999.99 -99999.99 -99999.99 -99999.99
5/10/2021 2:15:00 PM -99999.99 -179968 -99999.99 -99999.99 -99999.99 -99999.99
5/10/2021 2:30:00 PM -99999.99 -179968 -99999.99 -99999.99 -99999.99 -99999.99
5/10/2021 2:45:00 PM -99999.99 -179968 -99999.99 -99999.99 -99999.99 -99999.99
5/10/2021 3:00:00 PM -99999.99 -179968 -99999.99 -99999.99 -99999.99 -99999.99
5/10/2021 3:15:00 PM -99999.99 -179968 -99999.99 -99999.99 -99999.99 -99999.99
5/10/2021 3:30:00 PM -99999.99 -179968 -99999.99 -99999.99 -99999.99 -99999.99
5/10/2021 3:45:00 PM -99999.99 -179968 -99999.99 -99999.99 -99999.99 -99999.99
5/10/2021 4:00:00 PM -99999.99 -179968 -99999.99 -99999.99 -99999.99 -99999.99
5/10/2021 4:15:00 PM -99999.99 -179968 -99999.99 -99999.99 -99999.99 -99999.99
5/10/2021 4:30:00 PM -99999.99 -179968 -99999.99 -99999.99 -99999.99 -99999.99
5/10/2021 4:45:00 PM -99999.99 -179968 -99999.99 -99999.99 -99999.99 -99999.99
5/10/2021 5:00:00 PM -99999.99 -179968 -99999.99 -99999.99 -99999.99 -99999.99
5/10/2021 5:15:00 PM -99999.99 -179968 -99999.99 -99999.99 -99999.99 -99999.99
5/10/2021 5:30:00 PM -99999.99 -179968 -99999.99 -99999.99 -99999.99 -99999.99
5/10/2021 5:45:00 PM -99999.99 -179968 -99999.99 -99999.99 -99999.99 -99999.99
5/10/2021 6:00:00 PM -99999.99 -179968 -99999.99 -99999.99 -99999.99 -99999.99
5/10/2021 6:15:00 PM -99999.99 -179968 -99999.99 -99999.99 -99999.99 -99999.99
5/10/2021 6:30:00 PM -99999.99 -179968 -99999.99 -99999.99 -99999.99 -99999.99
5/10/2021 6:45:00 PM 10.35 50.63 0.138 7.7 18.12 10.64
5/10/2021 7:00:00 PM 10.36 50.648 0.138 7.71 19.69 10.64
5/10/2021 7:15:00 PM 10.37 50.666 0.137 7.7 16.25 10.64
5/10/2021 7:30:00 PM 10.37 50.666 0.137 7.7 18.75 10.63
5/10/2021 7:45:00 PM 10.38 50.684 0.137 7.7 18.72 10.63
5/10/2021 8:00:00 PM 10.38 50.684 0.137 7.71 18.69 10.63
5/10/2021 8:15:00 PM 10.38 50.684 0.137 7.7 18.18 10.63
5/10/2021 8:30:00 PM 10.39 50.702 0.137 7.7 22.49 10.62
5/10/2021 8:45:00 PM 10.39 50.702 0.137 7.71 19.81 10.62
5/10/2021 9:00:00 PM 10.41 50.738 0.137 7.69 20.51 10.61
5/10/2021 9:15:00 PM 10.42 50.756 0.137 7.71 19.09 10.61
5/10/2021 9:30:00 PM 10.43 50.774 0.138 7.71 19.37 10.6
5/10/2021 9:45:00 PM 10.44 50.792 0.138 7.7 19.19 10.6
5/10/2021 10:00:00 PM 10.44 50.792 0.138 7.71 18.91 10.6
5/10/2021 10:15:00 PM 10.45 50.81 0.138 7.7 15.99 10.59
5/10/2021 10:30:00 PM 10.46 50.828 0.138 7.7 19 10.59
5/10/2021 10:45:00 PM 10.46 50.828 0.138 7.7 18.82 10.58
5/10/2021 11:00:00 PM 10.46 50.828 0.138 7.7 18.7 10.58
5/10/2021 11:15:00 PM 10.45 50.81 0.138 7.71 20.38 10.58
5/10/2021 11:30:00 PM 10.44 50.792 0.138 7.7 35.88 10.58
5/10/2021 11:45:00 PM 10.43 50.774 0.138 7.71 17.17 10.57
5/11/2021 12:00:00 AM 10.41 50.738 0.138 7.7 17.93 10.57
5/11/2021 12:15:00 AM 10.38 50.684 0.138 7.71 24.89 10.57
5/11/2021 12:30:00 AM 10.36 50.648 0.138 7.71 19.35 10.56
5/11/2021 12:45:00 AM 10.33 50.594 0.138 7.7 18.95 10.57
5/11/2021 1:00:00 AM 10.29 50.522 0.138 7.71 21.11 10.56
5/11/2021 1:15:00 AM 10.26 50.468 0.138 7.7 21.11 10.56
5/11/2021 1:30:00 AM 10.23 50.414 0.138 7.71 18.22 10.56
5/11/2021 1:45:00 AM -99999.99 -179968 -99999.99 -99999.99 -99999.99 -99999.99
5/11/2021 2:00:00 AM -99999.99 -179968 -99999.99 -99999.99 -99999.99 -99999.99
5/11/2021 2:15:00 AM -99999.99 -179968 -99999.99 -99999.99 -99999.99 -99999.99
5/11/2021 2:30:00 AM -99999.99 -179968 -99999.99 -99999.99 -99999.99 -99999.99
5/11/2021 2:45:00 AM -99999.99 -179968 -99999.99 -99999.99 -99999.99 -99999.99
5/11/2021 3:00:00 AM -99999.99 -179968 -99999.99 -99999.99 -99999.99 -99999.99
5/11/2021 3:15:00 AM -99999.99 -179968 -99999.99 -99999.99 -99999.99 -99999.99
5/11/2021 3:30:00 AM -99999.99 -179968 -99999.99 -99999.99 -99999.99 -99999.99
5/11/2021 3:45:00 AM -99999.99 -179968 -99999.99 -99999.99 -99999.99 -99999.99
5/11/2021 4:00:00 AM -99999.99 -179968 -99999.99 -99999.99 -99999.99 -99999.99
5/11/2021 4:15:00 AM -99999.99 -179968 -99999.99 -99999.99 -99999.99 -99999.99
5/11/2021 4:30:00 AM -99999.99 -179968 -99999.99 -99999.99 -99999.99 -99999.99
5/11/2021 4:45:00 AM -99999.99 -179968 -99999.99 -99999.99 -99999.99 -99999.99
5/11/2021 5:00:00 AM -99999.99 -179968 -99999.99 -99999.99 -99999.99 -99999.99
5/11/2021 5:15:00 AM -99999.99 -179968 -99999.99 -99999.99 -99999.99 -99999.99
5/11/2021 5:30:00 AM -99999.99 -179968 -99999.99 -99999.99 -99999.99 -99999.99
5/11/2021 5:45:00 AM -99999.99 -179968 -99999.99 -99999.99 -99999.99 -99999.99
5/11/2021 6:00:00 AM -99999.99 -179968 -99999.99 -99999.99 -99999.99 -99999.99
5/11/2021 6:15:00 AM -99999.99 -179968 -99999.99 -99999.99 -99999.99 -99999.99
5/11/2021 6:30:00 AM -99999.99 -179968 -99999.99 -99999.99 -99999.99 -99999.99
5/11/2021 6:45:00 AM -99999.99 -179968 -99999.99 -99999.99 -99999.99 -99999.99
5/11/2021 7:00:00 AM -99999.99 -179968 -99999.99 -99999.99 -99999.99 -99999.99
5/11/2021 7:15:00 AM -99999.99 -179968 -99999.99 -99999.99 -99999.99 -99999.99
5/11/2021 7:30:00 AM -99999.99 -179968 -99999.99 -99999.99 -99999.99 -99999.99
5/11/2021 7:45:00 AM -99999.99 -179968 -99999.99 -99999.99 -99999.99 -99999.99
5/11/2021 8:00:00 AM -99999.99 -179968 -99999.99 -99999.99 -99999.99 -99999.99
5/11/2021 8:15:00 AM -99999.99 -179968 -99999.99 -99999.99 -99999.99 -99999.99
5/11/2021 8:30:00 AM -99999.99 -179968 -99999.99 -99999.99 -99999.99 -99999.99
5/11/2021 8:45:00 AM -99999.99 -179968 -99999.99 -99999.99 -99999.99 -99999.99
5/11/2021 9:00:00 AM -99999.99 -179968 -99999.99 -99999.99 -99999.99 -99999.99
5/11/2021 9:15:00 AM -99999.99 -179968 -99999.99 -99999.99 -99999.99 -99999.99
5/11/2021 9:30:00 AM -99999.99 -179968 -99999.99 -99999.99 -99999.99 -99999.99
5/11/2021 9:45:00 AM -99999.99 -179968 -99999.99 -99999.99 -99999.99 -99999.99
5/11/2021 10:00:00 AM -99999.99 -179968 -99999.99 -99999.99 -99999.99 -99999.99
5/11/2021 10:15:00 AM -99999.99 -179968 -99999.99 -99999.99 -99999.99 -99999.99
5/11/2021 10:30:00 AM -99999.99 -179968 -99999.99 -99999.99 -99999.99 -99999.99
5/11/2021 10:45:00 AM -99999.99 -179968 -99999.99 -99999.99 -99999.99 -99999.99
5/11/2021 11:00:00 AM -99999.99 -179968 -99999.99 -99999.99 -99999.99 -99999.99
5/11/2021 11:15:00 AM -99999.99 -179968 -99999.99 -99999.99 -99999.99 -99999.99
5/11/2021 11:30:00 AM -99999.99 -179968 -99999.99 -99999.99 -99999.99 -99999.99
5/11/2021 11:45:00 AM -99999.99 -179968 -99999.99 -99999.99 -99999.99 -99999.99
5/11/2021 12:00:00 PM -99999.99 -179968 -99999.99 -99999.99 -99999.99 -99999.99
5/11/2021 12:15:00 PM -99999.99 -179968 -99999.99 -99999.99 -99999.99 -99999.99
5/11/2021 12:30:00 PM -99999.99 -179968 -99999.99 -99999.99 -99999.99 -99999.99
5/11/2021 12:45:00 PM -99999.99 -179968 -99999.99 -99999.99 -99999.99 -99999.99
5/11/2021 1:00:00 PM -99999.99 -179968 -99999.99 -99999.99 -99999.99 -99999.99
5/11/2021 1:15:00 PM -99999.99 -179968 -99999.99 -99999.99 -99999.99 -99999.99
5/11/2021 1:30:00 PM -99999.99 -179968 -99999.99 -99999.99 -99999.99 -99999.99
5/11/2021 1:45:00 PM -99999.99 -179968 -99999.99 -99999.99 -99999.99 -99999.99
5/11/2021 2:00:00 PM -99999.99 -179968 -99999.99 -99999.99 -99999.99 -99999.99
5/11/2021 2:15:00 PM -99999.99 -179968 -99999.99 -99999.99 -99999.99 -99999.99
5/11/2021 2:30:00 PM -99999.99 -179968 -99999.99 -99999.99 -99999.99 -99999.99
5/11/2021 2:45:00 PM -99999.99 -179968 -99999.99 -99999.99 -99999.99 -99999.99
5/11/2021 3:00:00 PM -99999.99 -179968 -99999.99 -99999.99 -99999.99 -99999.99
5/11/2021 3:15:00 PM -99999.99 -179968 -99999.99 -99999.99 -99999.99 -99999.99
5/11/2021 3:30:00 PM -99999.99 -179968 -99999.99 -99999.99 -99999.99 -99999.99
5/11/2021 3:45:00 PM -99999.99 -179968 -99999.99 -99999.99 -99999.99 -99999.99
5/11/2021 4:00:00 PM -99999.99 -179968 -99999.99 -99999.99 -99999.99 -99999.99
5/11/2021 4:15:00 PM -99999.99 -179968 -99999.99 -99999.99 -99999.99 -99999.99
5/11/2021 4:30:00 PM -99999.99 -179968 -99999.99 -99999.99 -99999.99 -99999.99
5/11/2021 4:45:00 PM -99999.99 -179968 -99999.99 -99999.99 -99999.99 -99999.99
5/11/2021 5:00:00 PM -99999.99 -179968 -99999.99 -99999.99 -99999.99 -99999.99
5/11/2021 5:15:00 PM -99999.99 -179968 -99999.99 -99999.99 -99999.99 -99999.99
5/11/2021 5:30:00 PM -99999.99 -179968 -99999.99 -99999.99 -99999.99 -99999.99
5/11/2021 5:45:00 PM -99999.99 -179968 -99999.99 -99999.99 -99999.99 -99999.99
5/11/2021 6:00:00 PM -99999.99 -179968 -99999.99 -99999.99 -99999.99 -99999.99
5/11/2021 6:15:00 PM -99999.99 -179968 -99999.99 -99999.99 -99999.99 -99999.99
5/11/2021 6:30:00 PM -99999.99 -179968 -99999.99 -99999.99 -99999.99 -99999.99
5/11/2021 6:45:00 PM -99999.99 -179968 -99999.99 -99999.99 -99999.99 -99999.99
5/11/2021 7:00:00 PM -99999.99 -179968 -99999.99 -99999.99 -99999.99 -99999.99
5/11/2021 7:15:00 PM -99999.99 -179968 -99999.99 -99999.99 -99999.99 -99999.99
5/11/2021 7:30:00 PM -99999.99 -179968 -99999.99 -99999.99 -99999.99 -99999.99
5/11/2021 7:45:00 PM -99999.99 -179968 -99999.99 -99999.99 -99999.99 -99999.99
5/11/2021 8:00:00 PM -99999.99 -179968 -99999.99 -99999.99 -99999.99 -99999.99
5/11/2021 8:15:00 PM -99999.99 -179968 -99999.99 -99999.99 -99999.99 -99999.99
5/11/2021 8:30:00 PM -99999.99 -179968 -99999.99 -99999.99 -99999.99 -99999.99
5/11/2021 8:45:00 PM -99999.99 -179968 -99999.99 -99999.99 -99999.99 -99999.99
5/11/2021 9:00:00 PM -99999.99 -179968 -99999.99 -99999.99 -99999.99 -99999.99
5/11/2021 9:15:00 PM -99999.99 -179968 -99999.99 -99999.99 -99999.99 -99999.99
5/11/2021 9:30:00 PM -99999.99 -179968 -99999.99 -99999.99 -99999.99 -99999.99
5/11/2021 9:45:00 PM -99999.99 -179968 -99999.99 -99999.99 -99999.99 -99999.99
5/11/2021 10:00:00 PM -99999.99 -179968 -99999.99 -99999.99 -99999.99 -99999.99
5/11/2021 10:15:00 PM -99999.99 -179968 -99999.99 -99999.99 -99999.99 -99999.99
5/11/2021 10:30:00 PM -99999.99 -179968 -99999.99 -99999.99 -99999.99 -99999.99
5/11/2021 10:45:00 PM -99999.99 -179968 -99999.99 -99999.99 -99999.99 -99999.99
5/11/2021 11:00:00 PM -99999.99 -179968 -99999.99 -99999.99 -99999.99 -99999.99
5/11/2021 11:15:00 PM -99999.99 -179968 -99999.99 -99999.99 -99999.99 -99999.99
5/11/2021 11:30:00 PM -99999.99 -179968 -99999.99 -99999.99 -99999.99 -99999.99
5/11/2021 11:45:00 PM -99999.99 -179968 -99999.99 -99999.99 -99999.99 -99999.99
5/12/2021 12:00:00 AM -99999.99 -179968 -99999.99 -99999.99 -99999.99 -99999.99
5/12/2021 12:15:00 AM -99999.99 -179968 -99999.99 -99999.99 -99999.99 -99999.99
5/12/2021 12:30:00 AM -99999.99 -179968 -99999.99 -99999.99 -99999.99 -99999.99
5/12/2021 12:45:00 AM -99999.99 -179968 -99999.99 -99999.99 -99999.99 -99999.99
5/12/2021 1:00:00 AM -99999.99 -179968 -99999.99 -99999.99 -99999.99 -99999.99
5/12/2021 1:15:00 AM -99999.99 -179968 -99999.99 -99999.99 -99999.99 -99999.99
5/12/2021 1:30:00 AM -99999.99 -179968 -99999.99 -99999.99 -99999.99 -99999.99
5/12/2021 1:45:00 AM -99999.99 -179968 -99999.99 -99999.99 -99999.99 -99999.99
5/12/2021 2:00:00 AM -99999.99 -179968 -99999.99 -99999.99 -99999.99 -99999.99
5/12/2021 2:15:00 AM -99999.99 -179968 -99999.99 -99999.99 -99999.99 -99999.99
5/12/2021 2:30:00 AM -99999.99 -179968 -99999.99 -99999.99 -99999.99 -99999.99
5/12/2021 2:45:00 AM -99999.99 -179968 -99999.99 -99999.99 -99999.99 -99999.99
5/12/2021 3:00:00 AM -99999.99 -179968 -99999.99 -99999.99 -99999.99 -99999.99
5/12/2021 3:15:00 AM -99999.99 -179968 -99999.99 -99999.99 -99999.99 -99999.99
5/12/2021 3:30:00 AM -99999.99 -179968 -99999.99 -99999.99 -99999.99 -99999.99
5/12/2021 3:45:00 AM -99999.99 -179968 -99999.99 -99999.99 -99999.99 -99999.99
5/12/2021 4:00:00 AM -99999.99 -179968 -99999.99 -99999.99 -99999.99 -99999.99
5/12/2021 4:15:00 AM -99999.99 -179968 -99999.99 -99999.99 -99999.99 -99999.99
5/12/2021 4:30:00 AM -99999.99 -179968 -99999.99 -99999.99 -99999.99 -99999.99
5/12/2021 4:45:00 AM -99999.99 -179968 -99999.99 -99999.99 -99999.99 -99999.99
5/12/2021 5:00:00 AM -99999.99 -179968 -99999.99 -99999.99 -99999.99 -99999.99
5/12/2021 5:15:00 AM -99999.99 -179968 -99999.99 -99999.99 -99999.99 -99999.99
5/12/2021 5:30:00 AM -99999.99 -179968 -99999.99 -99999.99 -99999.99 -99999.99
5/12/2021 5:45:00 AM -99999.99 -179968 -99999.99 -99999.99 -99999.99 -99999.99
5/12/2021 6:00:00 AM -99999.99 -179968 -99999.99 -99999.99 -99999.99 -99999.99
5/12/2021 6:15:00 AM -99999.99 -179968 -99999.99 -99999.99 -99999.99 -99999.99
5/12/2021 6:30:00 AM -99999.99 -179968 -99999.99 -99999.99 -99999.99 -99999.99
5/12/2021 6:45:00 AM -99999.99 -179968 -99999.99 -99999.99 -99999.99 -99999.99
5/12/2021 7:00:00 AM -99999.99 -179968 -99999.99 -99999.99 -99999.99 -99999.99
5/12/2021 7:15:00 AM -99999.99 -179968 -99999.99 -99999.99 -99999.99 -99999.99
5/12/2021 7:30:00 AM -99999.99 -179968 -99999.99 -99999.99 -99999.99 -99999.99
5/12/2021 7:45:00 AM -99999.99 -179968 -99999.99 -99999.99 -99999.99 -99999.99
5/12/2021 8:00:00 AM -99999.99 -179968 -99999.99 -99999.99 -99999.99 -99999.99
5/12/2021 8:15:00 AM 9.86 49.748 0.145 7.71 15.3 10.6
5/12/2021 8:30:00 AM 9.86 49.748 0.145 7.72 16.8 10.62
5/12/2021 8:45:00 AM -99999.99 -179968 -99999.99 -99999.99 -99999.99 -99999.99
5/12/2021 9:00:00 AM -99999.99 -179968 -99999.99 -99999.99 -99999.99 -99999.99
5/12/2021 9:15:00 AM -99999.99 -179968 -99999.99 -99999.99 -99999.99 -99999.99
5/12/2021 9:30:00 AM -99999.99 -179968 -99999.99 -99999.99 -99999.99 -99999.99
5/12/2021 9:45:00 AM -99999.99 -179968 -99999.99 -99999.99 -99999.99 -99999.99
5/12/2021 10:00:00 AM -99999.99 -179968 -99999.99 -99999.99 -99999.99 -99999.99
5/12/2021 10:15:00 AM -99999.99 -179968 -99999.99 -99999.99 -99999.99 -99999.99
5/12/2021 10:30:00 AM -99999.99 -179968 -99999.99 -99999.99 -99999.99 -99999.99
5/12/2021 10:45:00 AM -99999.99 -179968 -99999.99 -99999.99 -99999.99 -99999.99
5/12/2021 11:00:00 AM -99999.99 -179968 -99999.99 -99999.99 -99999.99 -99999.99
5/12/2021 11:15:00 AM -99999.99 -179968 -99999.99 -99999.99 -99999.99 -99999.99
5/12/2021 11:30:00 AM -99999.99 -179968 -99999.99 -99999.99 -99999.99 -99999.99
5/12/2021 11:45:00 AM -99999.99 -179968 -99999.99 -99999.99 -99999.99 -99999.99
5/12/2021 12:00:00 PM -99999.99 -179968 -99999.99 -99999.99 -99999.99 -99999.99
5/12/2021 12:15:00 PM -99999.99 -179968 -99999.99 -99999.99 -99999.99 -99999.99
5/12/2021 12:30:00 PM -99999.99 -179968 -99999.99 -99999.99 -99999.99 -99999.99
5/12/2021 12:45:00 PM -99999.99 -179968 -99999.99 -99999.99 -99999.99 -99999.99
5/12/2021 1:00:00 PM -99999.99 -179968 -99999.99 -99999.99 -99999.99 -99999.99
5/12/2021 1:15:00 PM -99999.99 -179968 -99999.99 -99999.99 -99999.99 -99999.99
5/12/2021 1:30:00 PM -99999.99 -179968 -99999.99 -99999.99 -99999.99 -99999.99
5/12/2021 1:45:00 PM -99999.99 -179968 -99999.99 -99999.99 -99999.99 -99999.99
5/12/2021 2:00:00 PM -99999.99 -179968 -99999.99 -99999.99 -99999.99 -99999.99
5/12/2021 2:15:00 PM -99999.99 -179968 -99999.99 -99999.99 -99999.99 -99999.99
5/12/2021 2:30:00 PM -99999.99 -179968 -99999.99 -99999.99 -99999.99 -99999.99
5/12/2021 2:45:00 PM -99999.99 -179968 -99999.99 -99999.99 -99999.99 -99999.99
5/12/2021 3:00:00 PM -99999.99 -179968 -99999.99 -99999.99 -99999.99 -99999.99
5/12/2021 3:15:00 PM -99999.99 -179968 -99999.99 -99999.99 -99999.99 -99999.99
5/12/2021 3:30:00 PM -99999.99 -179968 -99999.99 -99999.99 -99999.99 -99999.99
5/12/2021 3:45:00 PM -99999.99 -179968 -99999.99 -99999.99 -99999.99 -99999.99
5/12/2021 4:00:00 PM -99999.99 -179968 -99999.99 -99999.99 -99999.99 -99999.99
5/12/2021 4:15:00 PM -99999.99 -179968 -99999.99 -99999.99 -99999.99 -99999.99
5/12/2021 4:30:00 PM -99999.99 -179968 -99999.99 -99999.99 -99999.99 -99999.99
5/12/2021 4:45:00 PM -99999.99 -179968 -99999.99 -99999.99 -99999.99 -99999.99
5/12/2021 5:00:00 PM -99999.99 -179968 -99999.99 -99999.99 -99999.99 -99999.99
5/12/2021 5:15:00 PM -99999.99 -179968 -99999.99 -99999.99 -99999.99 -99999.99
5/12/2021 5:30:00 PM -99999.99 -179968 -99999.99 -99999.99 -99999.99 -99999.99
5/12/2021 5:45:00 PM -99999.99 -179968 -99999.99 -99999.99 -99999.99 -99999.99
5/12/2021 6:00:00 PM -99999.99 -179968 -99999.99 -99999.99 -99999.99 -99999.99
5/12/2021 6:15:00 PM -99999.99 -179968 -99999.99 -99999.99 -99999.99 -99999.99
5/12/2021 6:30:00 PM -99999.99 -179968 -99999.99 -99999.99 -99999.99 -99999.99
5/12/2021 6:45:00 PM -99999.99 -179968 -99999.99 -99999.99 -99999.99 -99999.99
5/12/2021 7:00:00 PM -99999.99 -179968 -99999.99 -99999.99 -99999.99 -99999.99
5/12/2021 7:15:00 PM -99999.99 -179968 -99999.99 -99999.99 -99999.99 -99999.99
5/12/2021 7:30:00 PM -99999.99 -179968 -99999.99 -99999.99 -99999.99 -99999.99
5/12/2021 7:45:00 PM -99999.99 -179968 -99999.99 -99999.99 -99999.99 -99999.99
5/12/2021 8:00:00 PM -99999.99 -179968 -99999.99 -99999.99 -99999.99 -99999.99
5/12/2021 8:15:00 PM -99999.99 -179968 -99999.99 -99999.99 -99999.99 -99999.99
5/12/2021 8:30:00 PM -99999.99 -179968 -99999.99 -99999.99 -99999.99 -99999.99
5/12/2021 8:45:00 PM -99999.99 -179968 -99999.99 -99999.99 -99999.99 -99999.99
5/12/2021 9:00:00 PM -99999.99 -179968 -99999.99 -99999.99 -99999.99 -99999.99
5/12/2021 9:15:00 PM -99999.99 -179968 -99999.99 -99999.99 -99999.99 -99999.99
5/12/2021 9:30:00 PM -99999.99 -179968 -99999.99 -99999.99 -99999.99 -99999.99
5/12/2021 9:45:00 PM -99999.99 -179968 -99999.99 -99999.99 -99999.99 -99999.99
5/12/2021 10:00:00 PM -99999.99 -179968 -99999.99 -99999.99 -99999.99 -99999.99
5/12/2021 10:15:00 PM -99999.99 -179968 -99999.99 -99999.99 -99999.99 -99999.99
5/12/2021 10:30:00 PM -99999.99 -179968 -99999.99 -99999.99 -99999.99 -99999.99
5/12/2021 10:45:00 PM -99999.99 -179968 -99999.99 -99999.99 -99999.99 -99999.99
5/12/2021 11:00:00 PM -99999.99 -179968 -99999.99 -99999.99 -99999.99 -99999.99
5/12/2021 11:15:00 PM -99999.99 -179968 -99999.99 -99999.99 -99999.99 -99999.99
5/12/2021 11:30:00 PM -99999.99 -179968 -99999.99 -99999.99 -99999.99 -99999.99
5/12/2021 11:45:00 PM -99999.99 -179968 -99999.99 -99999.99 -99999.99 -99999.99
5/13/2021 12:00:00 AM -99999.99 -179968 -99999.99 -99999.99 -99999.99 -99999.99
5/13/2021 12:15:00 AM -99999.99 -179968 -99999.99 -99999.99 -99999.99 -99999.99
5/13/2021 12:30:00 AM -99999.99 -179968 -99999.99 -99999.99 -99999.99 -99999.99
5/13/2021 12:45:00 AM -99999.99 -179968 -99999.99 -99999.99 -99999.99 -99999.99
5/13/2021 1:00:00 AM -99999.99 -179968 -99999.99 -99999.99 -99999.99 -99999.99
5/13/2021 1:15:00 AM -99999.99 -179968 -99999.99 -99999.99 -99999.99 -99999.99
5/13/2021 1:30:00 AM -99999.99 -179968 -99999.99 -99999.99 -99999.99 -99999.99
5/13/2021 1:45:00 AM -99999.99 -179968 -99999.99 -99999.99 -99999.99 -99999.99
5/13/2021 2:00:00 AM -99999.99 -179968 -99999.99 -99999.99 -99999.99 -99999.99
5/13/2021 2:15:00 AM -99999.99 -179968 -99999.99 -99999.99 -99999.99 -99999.99
5/13/2021 2:30:00 AM -99999.99 -179968 -99999.99 -99999.99 -99999.99 -99999.99
5/13/2021 2:45:00 AM -99999.99 -179968 -99999.99 -99999.99 -99999.99 -99999.99
5/13/2021 3:00:00 AM -99999.99 -179968 -99999.99 -99999.99 -99999.99 -99999.99
5/13/2021 3:15:00 AM -99999.99 -179968 -99999.99 -99999.99 -99999.99 -99999.99
5/13/2021 3:30:00 AM -99999.99 -179968 -99999.99 -99999.99 -99999.99 -99999.99
5/13/2021 3:45:00 AM -99999.99 -179968 -99999.99 -99999.99 -99999.99 -99999.99
5/13/2021 4:00:00 AM -99999.99 -179968 -99999.99 -99999.99 -99999.99 -99999.99
5/13/2021 4:15:00 AM -99999.99 -179968 -99999.99 -99999.99 -99999.99 -99999.99
5/13/2021 4:30:00 AM -99999.99 -179968 -99999.99 -99999.99 -99999.99 -99999.99
5/13/2021 4:45:00 AM -99999.99 -179968 -99999.99 -99999.99 -99999.99 -99999.99
5/13/2021 5:00:00 AM -99999.99 -179968 -99999.99 -99999.99 -99999.99 -99999.99
5/13/2021 5:15:00 AM -99999.99 -179968 -99999.99 -99999.99 -99999.99 -99999.99
5/13/2021 5:30:00 AM -99999.99 -179968 -99999.99 -99999.99 -99999.99 -99999.99
5/13/2021 5:45:00 AM -99999.99 -179968 -99999.99 -99999.99 -99999.99 -99999.99
5/13/2021 6:00:00 AM -99999.99 -179968 -99999.99 -99999.99 -99999.99 -99999.99
5/13/2021 6:15:00 AM -99999.99 -179968 -99999.99 -99999.99 -99999.99 -99999.99
5/13/2021 6:30:00 AM -99999.99 -179968 -99999.99 -99999.99 -99999.99 -99999.99
5/13/2021 6:45:00 AM -99999.99 -179968 -99999.99 -99999.99 -99999.99 -99999.99
5/13/2021 7:00:00 AM -99999.99 -179968 -99999.99 -99999.99 -99999.99 -99999.99
5/13/2021 7:15:00 AM -99999.99 -179968 -99999.99 -99999.99 -99999.99 -99999.99
5/13/2021 7:30:00 AM -99999.99 -179968 -99999.99 -99999.99 -99999.99 -99999.99
5/13/2021 7:45:00 AM -99999.99 -179968 -99999.99 -99999.99 -99999.99 -99999.99
5/13/2021 8:00:00 AM -99999.99 -179968 -99999.99 -99999.99 -99999.99 -99999.99
5/13/2021 8:15:00 AM -99999.99 -179968 -99999.99 -99999.99 -99999.99 -99999.99
5/13/2021 8:30:00 AM -99999.99 -179968 -99999.99 -99999.99 -99999.99 -99999.99
5/13/2021 8:45:00 AM -99999.99 -179968 -99999.99 -99999.99 -99999.99 -99999.99
5/13/2021 9:00:00 AM -99999.99 -179968 -99999.99 -99999.99 -99999.99 -99999.99
5/13/2021 9:15:00 AM -99999.99 -179968 -99999.99 -99999.99 -99999.99 -99999.99
5/13/2021 9:30:00 AM -99999.99 -179968 -99999.99 -99999.99 -99999.99 -99999.99
5/13/2021 9:45:00 AM -99999.99 -179968 -99999.99 -99999.99 -99999.99 -99999.99
5/13/2021 10:00:00 AM -99999.99 -179968 -99999.99 -99999.99 -99999.99 -99999.99
5/13/2021 10:15:00 AM -99999.99 -179968 -99999.99 -99999.99 -99999.99 -99999.99
5/13/2021 10:30:00 AM -99999.99 -179968 -99999.99 -99999.99 -99999.99 -99999.99
5/13/2021 10:45:00 AM -99999.99 -179968 -99999.99 -99999.99 -99999.99 -99999.99
5/13/2021 11:00:00 AM -99999.99 -179968 -99999.99 -99999.99 -99999.99 -99999.99
5/13/2021 11:15:00 AM -99999.99 -179968 -99999.99 -99999.99 -99999.99 -99999.99
5/13/2021 11:30:00 AM -99999.99 -179968 -99999.99 -99999.99 -99999.99 -99999.99
5/13/2021 11:45:00 AM -99999.99 -179968 -99999.99 -99999.99 -99999.99 -99999.99
5/13/2021 12:00:00 PM -99999.99 -179968 -99999.99 -99999.99 -99999.99 -99999.99
5/13/2021 12:15:00 PM -99999.99 -179968 -99999.99 -99999.99 -99999.99 -99999.99
5/13/2021 12:30:00 PM -99999.99 -179968 -99999.99 -99999.99 -99999.99 -99999.99
5/13/2021 12:45:00 PM -99999.99 -179968 -99999.99 -99999.99 -99999.99 -99999.99
5/13/2021 1:00:00 PM -99999.99 -179968 -99999.99 -99999.99 -99999.99 -99999.99
5/13/2021 1:15:00 PM -99999.99 -179968 -99999.99 -99999.99 -99999.99 -99999.99
5/13/2021 1:30:00 PM -99999.99 -179968 -99999.99 -99999.99 -99999.99 -99999.99
5/13/2021 1:45:00 PM -99999.99 -179968 -99999.99 -99999.99 -99999.99 -99999.99
5/13/2021 2:00:00 PM -99999.99 -179968 -99999.99 -99999.99 -99999.99 -99999.99
5/13/2021 2:15:00 PM -99999.99 -179968 -99999.99 -99999.99 -99999.99 -99999.99
5/13/2021 2:30:00 PM -99999.99 -179968 -99999.99 -99999.99 -99999.99 -99999.99
5/13/2021 2:45:00 PM -99999.99 -179968 -99999.99 -99999.99 -99999.99 -99999.99
5/13/2021 3:00:00 PM -99999.99 -179968 -99999.99 -99999.99 -99999.99 -99999.99
5/13/2021 3:15:00 PM -99999.99 -179968 -99999.99 -99999.99 -99999.99 -99999.99
5/13/2021 3:30:00 PM -99999.99 -179968 -99999.99 -99999.99 -99999.99 -99999.99
5/13/2021 3:45:00 PM -99999.99 -179968 -99999.99 -99999.99 -99999.99 -99999.99
5/13/2021 4:00:00 PM -99999.99 -179968 -99999.99 -99999.99 -99999.99 -99999.99
5/13/2021 4:15:00 PM -99999.99 -179968 -99999.99 -99999.99 -99999.99 -99999.99
5/13/2021 4:30:00 PM -99999.99 -179968 -99999.99 -99999.99 -99999.99 -99999.99
5/13/2021 4:45:00 PM -99999.99 -179968 -99999.99 -99999.99 -99999.99 -99999.99
5/13/2021 5:00:00 PM -99999.99 -179968 -99999.99 -99999.99 -99999.99 -99999.99
5/13/2021 5:15:00 PM -99999.99 -179968 -99999.99 -99999.99 -99999.99 -99999.99
5/13/2021 5:30:00 PM -99999.99 -179968 -99999.99 -99999.99 -99999.99 -99999.99
5/13/2021 5:45:00 PM -99999.99 -179968 -99999.99 -99999.99 -99999.99 -99999.99
5/13/2021 6:00:00 PM -99999.99 -179968 -99999.99 -99999.99 -99999.99 -99999.99
5/13/2021 6:15:00 PM -99999.99 -179968 -99999.99 -99999.99 -99999.99 -99999.99
5/13/2021 6:30:00 PM -99999.99 -179968 -99999.99 -99999.99 -99999.99 -99999.99
5/13/2021 6:45:00 PM -99999.99 -179968 -99999.99 -99999.99 -99999.99 -99999.99
5/13/2021 7:00:00 PM -99999.99 -179968 -99999.99 -99999.99 -99999.99 -99999.99
5/13/2021 7:15:00 PM -99999.99 -179968 -99999.99 -99999.99 -99999.99 -99999.99
5/13/2021 7:30:00 PM -99999.99 -179968 -99999.99 -99999.99 -99999.99 -99999.99
5/13/2021 7:45:00 PM -99999.99 -179968 -99999.99 -99999.99 -99999.99 -99999.99
5/13/2021 8:00:00 PM -99999.99 -179968 -99999.99 -99999.99 -99999.99 -99999.99
5/13/2021 8:15:00 PM -99999.99 -179968 -99999.99 -99999.99 -99999.99 -99999.99
5/13/2021 8:30:00 PM -99999.99 -179968 -99999.99 -99999.99 -99999.99 -99999.99
5/13/2021 8:45:00 PM -99999.99 -179968 -99999.99 -99999.99 -99999.99 -99999.99
5/13/2021 9:00:00 PM -99999.99 -179968 -99999.99 -99999.99 -99999.99 -99999.99
5/13/2021 9:15:00 PM -99999.99 -179968 -99999.99 -99999.99 -99999.99 -99999.99
5/13/2021 9:30:00 PM -99999.99 -179968 -99999.99 -99999.99 -99999.99 -99999.99
5/13/2021 9:45:00 PM -99999.99 -179968 -99999.99 -99999.99 -99999.99 -99999.99
5/13/2021 10:00:00 PM -99999.99 -179968 -99999.99 -99999.99 -99999.99 -99999.99
5/13/2021 10:15:00 PM -99999.99 -179968 -99999.99 -99999.99 -99999.99 -99999.99
5/13/2021 10:30:00 PM -99999.99 -179968 -99999.99 -99999.99 -99999.99 -99999.99
5/13/2021 10:45:00 PM -99999.99 -179968 -99999.99 -99999.99 -99999.99 -99999.99
5/13/2021 11:00:00 PM -99999.99 -179968 -99999.99 -99999.99 -99999.99 -99999.99
5/13/2021 11:15:00 PM -99999.99 -179968 -99999.99 -99999.99 -99999.99 -99999.99
5/13/2021 11:30:00 PM -99999.99 -179968 -99999.99 -99999.99 -99999.99 -99999.99
5/13/2021 11:45:00 PM -99999.99 -179968 -99999.99 -99999.99 -99999.99 -99999.99
5/14/2021 12:00:00 AM -99999.99 -179968 -99999.99 -99999.99 -99999.99 -99999.99
5/14/2021 12:15:00 AM -99999.99 -179968 -99999.99 -99999.99 -99999.99 -99999.99
5/14/2021 12:30:00 AM -99999.99 -179968 -99999.99 -99999.99 -99999.99 -99999.99
5/14/2021 12:45:00 AM -99999.99 -179968 -99999.99 -99999.99 -99999.99 -99999.99
5/14/2021 1:00:00 AM -99999.99 -179968 -99999.99 -99999.99 -99999.99 -99999.99
5/14/2021 1:15:00 AM -99999.99 -179968 -99999.99 -99999.99 -99999.99 -99999.99
5/14/2021 1:30:00 AM -99999.99 -179968 -99999.99 -99999.99 -99999.99 -99999.99
5/14/2021 1:45:00 AM -99999.99 -179968 -99999.99 -99999.99 -99999.99 -99999.99
5/14/2021 2:00:00 AM -99999.99 -179968 -99999.99 -99999.99 -99999.99 -99999.99
5/14/2021 2:15:00 AM -99999.99 -179968 -99999.99 -99999.99 -99999.99 -99999.99
5/14/2021 2:30:00 AM -99999.99 -179968 -99999.99 -99999.99 -99999.99 -99999.99
5/14/2021 2:45:00 AM -99999.99 -179968 -99999.99 -99999.99 -99999.99 -99999.99
5/14/2021 3:00:00 AM -99999.99 -179968 -99999.99 -99999.99 -99999.99 -99999.99
5/14/2021 3:15:00 AM -99999.99 -179968 -99999.99 -99999.99 -99999.99 -99999.99
5/14/2021 3:30:00 AM -99999.99 -179968 -99999.99 -99999.99 -99999.99 -99999.99
5/14/2021 3:45:00 AM -99999.99 -179968 -99999.99 -99999.99 -99999.99 -99999.99
5/14/2021 4:00:00 AM -99999.99 -179968 -99999.99 -99999.99 -99999.99 -99999.99
5/14/2021 4:15:00 AM -99999.99 -179968 -99999.99 -99999.99 -99999.99 -99999.99
5/14/2021 4:30:00 AM -99999.99 -179968 -99999.99 -99999.99 -99999.99 -99999.99
5/14/2021 4:45:00 AM -99999.99 -179968 -99999.99 -99999.99 -99999.99 -99999.99
5/14/2021 5:00:00 AM -99999.99 -179968 -99999.99 -99999.99 -99999.99 -99999.99
5/14/2021 5:15:00 AM -99999.99 -179968 -99999.99 -99999.99 -99999.99 -99999.99
5/14/2021 5:30:00 AM -99999.99 -179968 -99999.99 -99999.99 -99999.99 -99999.99
5/14/2021 5:45:00 AM -99999.99 -179968 -99999.99 -99999.99 -99999.99 -99999.99
5/14/2021 6:00:00 AM -99999.99 -179968 -99999.99 -99999.99 -99999.99 -99999.99
5/14/2021 6:15:00 AM -99999.99 -179968 -99999.99 -99999.99 -99999.99 -99999.99
5/14/2021 6:30:00 AM -99999.99 -179968 -99999.99 -99999.99 -99999.99 -99999.99
5/14/2021 6:45:00 AM -99999.99 -179968 -99999.99 -99999.99 -99999.99 -99999.99
5/14/2021 7:00:00 AM -99999.99 -179968 -99999.99 -99999.99 -99999.99 -99999.99
5/14/2021 7:15:00 AM -99999.99 -179968 -99999.99 -99999.99 -99999.99 -99999.99
5/14/2021 7:30:00 AM -99999.99 -179968 -99999.99 -99999.99 -99999.99 -99999.99
5/14/2021 7:45:00 AM -99999.99 -179968 -99999.99 -99999.99 -99999.99 -99999.99
5/14/2021 8:00:00 AM -99999.99 -179968 -99999.99 -99999.99 -99999.99 -99999.99
5/14/2021 8:15:00 AM -99999.99 -179968 -99999.99 -99999.99 -99999.99 -99999.99
5/14/2021 8:30:00 AM -99999.99 -179968 -99999.99 -99999.99 -99999.99 -99999.99
5/14/2021 8:45:00 AM -99999.99 -179968 -99999.99 -99999.99 -99999.99 -99999.99
5/14/2021 9:00:00 AM -99999.99 -179968 -99999.99 -99999.99 -99999.99 -99999.99
5/14/2021 9:15:00 AM -99999.99 -179968 -99999.99 -99999.99 -99999.99 -99999.99
5/14/2021 9:30:00 AM -99999.99 -179968 -99999.99 -99999.99 -99999.99 -99999.99
5/14/2021 9:45:00 AM -99999.99 -179968 -99999.99 -99999.99 -99999.99 -99999.99
5/14/2021 10:00:00 AM -99999.99 -179968 -99999.99 -99999.99 -99999.99 -99999.99
5/14/2021 10:15:00 AM -99999.99 -179968 -99999.99 -99999.99 -99999.99 -99999.99
5/14/2021 10:30:00 AM -99999.99 -179968 -99999.99 -99999.99 -99999.99 -99999.99
5/14/2021 10:45:00 AM -99999.99 -179968 -99999.99 -99999.99 -99999.99 -99999.99
5/14/2021 11:00:00 AM -99999.99 -179968 -99999.99 -99999.99 -99999.99 -99999.99
5/14/2021 11:15:00 AM -99999.99 -179968 -99999.99 -99999.99 -99999.99 -99999.99
5/14/2021 11:30:00 AM -99999.99 -179968 -99999.99 -99999.99 -99999.99 -99999.99
5/14/2021 11:45:00 AM -99999.99 -179968 -99999.99 -99999.99 -99999.99 -99999.99
5/14/2021 12:00:00 PM -99999.99 -179968 -99999.99 -99999.99 -99999.99 -99999.99
5/14/2021 12:15:00 PM -99999.99 -179968 -99999.99 -99999.99 -99999.99 -99999.99
5/14/2021 12:30:00 PM -99999.99 -179968 -99999.99 -99999.99 -99999.99 -99999.99
5/14/2021 12:45:00 PM -99999.99 -179968 -99999.99 -99999.99 -99999.99 -99999.99
5/14/2021 1:00:00 PM -99999.99 -179968 -99999.99 -99999.99 -99999.99 -99999.99
5/14/2021 1:15:00 PM -99999.99 -179968 -99999.99 -99999.99 -99999.99 -99999.99
5/14/2021 1:30:00 PM -99999.99 -179968 -99999.99 -99999.99 -99999.99 -99999.99
5/14/2021 1:45:00 PM -99999.99 -179968 -99999.99 -99999.99 -99999.99 -99999.99
5/14/2021 2:00:00 PM -99999.99 -179968 -99999.99 -99999.99 -99999.99 -99999.99
5/14/2021 2:15:00 PM -99999.99 -179968 -99999.99 -99999.99 -99999.99 -99999.99
5/14/2021 2:30:00 PM -99999.99 -179968 -99999.99 -99999.99 -99999.99 -99999.99
5/14/2021 2:45:00 PM -99999.99 -179968 -99999.99 -99999.99 -99999.99 -99999.99
5/14/2021 3:00:00 PM -99999.99 -179968 -99999.99 -99999.99 -99999.99 -99999.99
5/14/2021 3:15:00 PM -99999.99 -179968 -99999.99 -99999.99 -99999.99 -99999.99
5/14/2021 3:30:00 PM -99999.99 -179968 -99999.99 -99999.99 -99999.99 -99999.99
5/14/2021 3:45:00 PM -99999.99 -179968 -99999.99 -99999.99 -99999.99 -99999.99
5/14/2021 4:00:00 PM -99999.99 -179968 -99999.99 -99999.99 -99999.99 -99999.99
5/14/2021 4:15:00 PM -99999.99 -179968 -99999.99 -99999.99 -99999.99 -99999.99
5/14/2021 4:30:00 PM -99999.99 -179968 -99999.99 -99999.99 -99999.99 -99999.99
5/14/2021 4:45:00 PM -99999.99 -179968 -99999.99 -99999.99 -99999.99 -99999.99
5/14/2021 5:00:00 PM -99999.99 -179968 -99999.99 -99999.99 -99999.99 -99999.99
5/14/2021 5:15:00 PM -99999.99 -179968 -99999.99 -99999.99 -99999.99 -99999.99
5/14/2021 5:30:00 PM -99999.99 -179968 -99999.99 -99999.99 -99999.99 -99999.99
5/14/2021 5:45:00 PM -99999.99 -179968 -99999.99 -99999.99 -99999.99 -99999.99
5/14/2021 6:00:00 PM -99999.99 -179968 -99999.99 -99999.99 -99999.99 -99999.99
5/14/2021 6:15:00 PM -99999.99 -179968 -99999.99 -99999.99 -99999.99 -99999.99
5/14/2021 6:30:00 PM -99999.99 -179968 -99999.99 -99999.99 -99999.99 -99999.99
5/14/2021 6:45:00 PM -99999.99 -179968 -99999.99 -99999.99 -99999.99 -99999.99
5/14/2021 7:00:00 PM -99999.99 -179968 -99999.99 -99999.99 -99999.99 -99999.99
5/14/2021 7:15:00 PM -99999.99 -179968 -99999.99 -99999.99 -99999.99 -99999.99
5/14/2021 7:30:00 PM -99999.99 -179968 -99999.99 -99999.99 -99999.99 -99999.99
5/14/2021 7:45:00 PM -99999.99 -179968 -99999.99 -99999.99 -99999.99 -99999.99
5/14/2021 8:00:00 PM -99999.99 -179968 -99999.99 -99999.99 -99999.99 -99999.99
5/14/2021 8:15:00 PM -99999.99 -179968 -99999.99 -99999.99 -99999.99 -99999.99
5/14/2021 8:30:00 PM -99999.99 -179968 -99999.99 -99999.99 -99999.99 -99999.99
5/14/2021 8:45:00 PM -99999.99 -179968 -99999.99 -99999.99 -99999.99 -99999.99
5/14/2021 9:00:00 PM -99999.99 -179968 -99999.99 -99999.99 -99999.99 -99999.99
5/14/2021 9:15:00 PM -99999.99 -179968 -99999.99 -99999.99 -99999.99 -99999.99
5/14/2021 9:30:00 PM -99999.99 -179968 -99999.99 -99999.99 -99999.99 -99999.99
5/14/2021 9:45:00 PM -99999.99 -179968 -99999.99 -99999.99 -99999.99 -99999.99
5/14/2021 10:00:00 PM -99999.99 -179968 -99999.99 -99999.99 -99999.99 -99999.99
5/14/2021 10:15:00 PM -99999.99 -179968 -99999.99 -99999.99 -99999.99 -99999.99
5/14/2021 10:30:00 PM -99999.99 -179968 -99999.99 -99999.99 -99999.99 -99999.99
5/14/2021 10:45:00 PM -99999.99 -179968 -99999.99 -99999.99 -99999.99 -99999.99
5/14/2021 11:00:00 PM -99999.99 -179968 -99999.99 -99999.99 -99999.99 -99999.99
5/14/2021 11:15:00 PM -99999.99 -179968 -99999.99 -99999.99 -99999.99 -99999.99
5/14/2021 11:30:00 PM -99999.99 -179968 -99999.99 -99999.99 -99999.99 -99999.99
5/14/2021 11:45:00 PM -99999.99 -179968 -99999.99 -99999.99 -99999.99 -99999.99
5/15/2021 12:00:00 AM -99999.99 -179968 -99999.99 -99999.99 -99999.99 -99999.99
5/15/2021 12:15:00 AM -99999.99 -179968 -99999.99 -99999.99 -99999.99 -99999.99
5/15/2021 12:30:00 AM -99999.99 -179968 -99999.99 -99999.99 -99999.99 -99999.99
5/15/2021 12:45:00 AM -99999.99 -179968 -99999.99 -99999.99 -99999.99 -99999.99
5/15/2021 1:00:00 AM -99999.99 -179968 -99999.99 -99999.99 -99999.99 -99999.99
5/15/2021 1:15:00 AM -99999.99 -179968 -99999.99 -99999.99 -99999.99 -99999.99
5/15/2021 1:30:00 AM -99999.99 -179968 -99999.99 -99999.99 -99999.99 -99999.99
5/15/2021 1:45:00 AM -99999.99 -179968 -99999.99 -99999.99 -99999.99 -99999.99
5/15/2021 2:00:00 AM -99999.99 -179968 -99999.99 -99999.99 -99999.99 -99999.99
5/15/2021 2:15:00 AM -99999.99 -179968 -99999.99 -99999.99 -99999.99 -99999.99
5/15/2021 2:30:00 AM -99999.99 -179968 -99999.99 -99999.99 -99999.99 -99999.99
5/15/2021 2:45:00 AM -99999.99 -179968 -99999.99 -99999.99 -99999.99 -99999.99
5/15/2021 3:00:00 AM -99999.99 -179968 -99999.99 -99999.99 -99999.99 -99999.99
5/15/2021 3:15:00 AM -99999.99 -179968 -99999.99 -99999.99 -99999.99 -99999.99
5/15/2021 3:30:00 AM -99999.99 -179968 -99999.99 -99999.99 -99999.99 -99999.99
5/15/2021 3:45:00 AM -99999.99 -179968 -99999.99 -99999.99 -99999.99 -99999.99
5/15/2021 4:00:00 AM -99999.99 -179968 -99999.99 -99999.99 -99999.99 -99999.99
5/15/2021 4:15:00 AM -99999.99 -179968 -99999.99 -99999.99 -99999.99 -99999.99
5/15/2021 4:30:00 AM -99999.99 -179968 -99999.99 -99999.99 -99999.99 -99999.99
5/15/2021 4:45:00 AM -99999.99 -179968 -99999.99 -99999.99 -99999.99 -99999.99
5/15/2021 5:00:00 AM -99999.99 -179968 -99999.99 -99999.99 -99999.99 -99999.99
5/15/2021 5:15:00 AM -99999.99 -179968 -99999.99 -99999.99 -99999.99 -99999.99
5/15/2021 5:30:00 AM -99999.99 -179968 -99999.99 -99999.99 -99999.99 -99999.99
5/15/2021 5:45:00 AM -99999.99 -179968 -99999.99 -99999.99 -99999.99 -99999.99
5/15/2021 6:00:00 AM -99999.99 -179968 -99999.99 -99999.99 -99999.99 -99999.99
5/15/2021 6:15:00 AM -99999.99 -179968 -99999.99 -99999.99 -99999.99 -99999.99
5/15/2021 6:30:00 AM -99999.99 -179968 -99999.99 -99999.99 -99999.99 -99999.99
5/15/2021 6:45:00 AM -99999.99 -179968 -99999.99 -99999.99 -99999.99 -99999.99
5/15/2021 7:00:00 AM -99999.99 -179968 -99999.99 -99999.99 -99999.99 -99999.99
5/15/2021 7:15:00 AM -99999.99 -179968 -99999.99 -99999.99 -99999.99 -99999.99
5/15/2021 7:30:00 AM -99999.99 -179968 -99999.99 -99999.99 -99999.99 -99999.99
5/15/2021 7:45:00 AM -99999.99 -179968 -99999.99 -99999.99 -99999.99 -99999.99
5/15/2021 8:00:00 AM -99999.99 -179968 -99999.99 -99999.99 -99999.99 -99999.99
5/15/2021 8:15:00 AM -99999.99 -179968 -99999.99 -99999.99 -99999.99 -99999.99
5/15/2021 8:30:00 AM -99999.99 -179968 -99999.99 -99999.99 -99999.99 -99999.99
5/15/2021 8:45:00 AM -99999.99 -179968 -99999.99 -99999.99 -99999.99 -99999.99
5/15/2021 9:00:00 AM -99999.99 -179968 -99999.99 -99999.99 -99999.99 -99999.99
5/15/2021 9:15:00 AM -99999.99 -179968 -99999.99 -99999.99 -99999.99 -99999.99
5/15/2021 9:30:00 AM -99999.99 -179968 -99999.99 -99999.99 -99999.99 -99999.99
5/15/2021 9:45:00 AM -99999.99 -179968 -99999.99 -99999.99 -99999.99 -99999.99
5/15/2021 10:00:00 AM -99999.99 -179968 -99999.99 -99999.99 -99999.99 -99999.99
5/15/2021 10:15:00 AM -99999.99 -179968 -99999.99 -99999.99 -99999.99 -99999.99
5/15/2021 10:30:00 AM -99999.99 -179968 -99999.99 -99999.99 -99999.99 -99999.99
5/15/2021 10:45:00 AM -99999.99 -179968 -99999.99 -99999.99 -99999.99 -99999.99
5/15/2021 11:00:00 AM -99999.99 -179968 -99999.99 -99999.99 -99999.99 -99999.99
5/15/2021 11:15:00 AM -99999.99 -179968 -99999.99 -99999.99 -99999.99 -99999.99
5/15/2021 11:30:00 AM -99999.99 -179968 -99999.99 -99999.99 -99999.99 -99999.99
5/15/2021 11:45:00 AM -99999.99 -179968 -99999.99 -99999.99 -99999.99 -99999.99
5/15/2021 12:00:00 PM -99999.99 -179968 -99999.99 -99999.99 -99999.99 -99999.99
5/15/2021 12:15:00 PM -99999.99 -179968 -99999.99 -99999.99 -99999.99 -99999.99
5/15/2021 12:30:00 PM -99999.99 -179968 -99999.99 -99999.99 -99999.99 -99999.99
5/15/2021 12:45:00 PM -99999.99 -179968 -99999.99 -99999.99 -99999.99 -99999.99
5/15/2021 1:00:00 PM -99999.99 -179968 -99999.99 -99999.99 -99999.99 -99999.99
5/15/2021 1:15:00 PM -99999.99 -179968 -99999.99 -99999.99 -99999.99 -99999.99
5/15/2021 1:30:00 PM -99999.99 -179968 -99999.99 -99999.99 -99999.99 -99999.99
5/15/2021 1:45:00 PM -99999.99 -179968 -99999.99 -99999.99 -99999.99 -99999.99
5/15/2021 2:00:00 PM -99999.99 -179968 -99999.99 -99999.99 -99999.99 -99999.99
5/15/2021 2:15:00 PM -99999.99 -179968 -99999.99 -99999.99 -99999.99 -99999.99
5/15/2021 2:30:00 PM -99999.99 -179968 -99999.99 -99999.99 -99999.99 -99999.99
5/15/2021 2:45:00 PM -99999.99 -179968 -99999.99 -99999.99 -99999.99 -99999.99
5/15/2021 3:00:00 PM -99999.99 -179968 -99999.99 -99999.99 -99999.99 -99999.99
5/15/2021 3:15:00 PM -99999.99 -179968 -99999.99 -99999.99 -99999.99 -99999.99
5/15/2021 3:30:00 PM -99999.99 -179968 -99999.99 -99999.99 -99999.99 -99999.99
5/15/2021 3:45:00 PM -99999.99 -179968 -99999.99 -99999.99 -99999.99 -99999.99
5/15/2021 4:00:00 PM -99999.99 -179968 -99999.99 -99999.99 -99999.99 -99999.99
5/15/2021 4:15:00 PM -99999.99 -179968 -99999.99 -99999.99 -99999.99 -99999.99
5/15/2021 4:30:00 PM -99999.99 -179968 -99999.99 -99999.99 -99999.99 -99999.99
5/15/2021 4:45:00 PM -99999.99 -179968 -99999.99 -99999.99 -99999.99 -99999.99
5/15/2021 5:00:00 PM -99999.99 -179968 -99999.99 -99999.99 -99999.99 -99999.99
5/15/2021 5:15:00 PM -99999.99 -179968 -99999.99 -99999.99 -99999.99 -99999.99
5/15/2021 5:30:00 PM -99999.99 -179968 -99999.99 -99999.99 -99999.99 -99999.99
5/15/2021 5:45:00 PM -99999.99 -179968 -99999.99 -99999.99 -99999.99 -99999.99
5/15/2021 6:00:00 PM -99999.99 -179968 -99999.99 -99999.99 -99999.99 -99999.99
5/15/2021 6:15:00 PM -99999.99 -179968 -99999.99 -99999.99 -99999.99 -99999.99
5/15/2021 6:30:00 PM -99999.99 -179968 -99999.99 -99999.99 -99999.99 -99999.99
5/15/2021 6:45:00 PM -99999.99 -179968 -99999.99 -99999.99 -99999.99 -99999.99
5/15/2021 7:00:00 PM -99999.99 -179968 -99999.99 -99999.99 -99999.99 -99999.99
5/15/2021 7:15:00 PM -99999.99 -179968 -99999.99 -99999.99 -99999.99 -99999.99
5/15/2021 7:30:00 PM -99999.99 -179968 -99999.99 -99999.99 -99999.99 -99999.99
5/15/2021 7:45:00 PM -99999.99 -179968 -99999.99 -99999.99 -99999.99 -99999.99
5/15/2021 8:00:00 PM -99999.99 -179968 -99999.99 -99999.99 -99999.99 -99999.99
5/15/2021 8:15:00 PM -99999.99 -179968 -99999.99 -99999.99 -99999.99 -99999.99
5/15/2021 8:30:00 PM -99999.99 -179968 -99999.99 -99999.99 -99999.99 -99999.99
5/15/2021 8:45:00 PM -99999.99 -179968 -99999.99 -99999.99 -99999.99 -99999.99
5/15/2021 9:00:00 PM -99999.99 -179968 -99999.99 -99999.99 -99999.99 -99999.99
5/15/2021 9:15:00 PM -99999.99 -179968 -99999.99 -99999.99 -99999.99 -99999.99
5/15/2021 9:30:00 PM -99999.99 -179968 -99999.99 -99999.99 -99999.99 -99999.99
5/15/2021 9:45:00 PM 12.91 55.238 0.173 7.83 29.87 10.36
5/15/2021 10:00:00 PM -99999.99 -179968 -99999.99 -99999.99 -99999.99 -99999.99
5/15/2021 10:15:00 PM -99999.99 -179968 -99999.99 -99999.99 -99999.99 -99999.99
5/15/2021 10:30:00 PM -99999.99 -179968 -99999.99 -99999.99 -99999.99 -99999.99
5/15/2021 10:45:00 PM -99999.99 -179968 -99999.99 -99999.99 -99999.99 -99999.99
5/15/2021 11:00:00 PM -99999.99 -179968 -99999.99 -99999.99 -99999.99 -99999.99
5/15/2021 11:15:00 PM -99999.99 -179968 -99999.99 -99999.99 -99999.99 -99999.99
5/15/2021 11:30:00 PM -99999.99 -179968 -99999.99 -99999.99 -99999.99 -99999.99
5/15/2021 11:45:00 PM -99999.99 -179968 -99999.99 -99999.99 -99999.99 -99999.99
5/16/2021 12:00:00 AM -99999.99 -179968 -99999.99 -99999.99 -99999.99 -99999.99
5/16/2021 12:15:00 AM -99999.99 -179968 -99999.99 -99999.99 -99999.99 -99999.99
5/16/2021 12:30:00 AM -99999.99 -179968 -99999.99 -99999.99 -99999.99 -99999.99
5/16/2021 12:45:00 AM -99999.99 -179968 -99999.99 -99999.99 -99999.99 -99999.99
5/16/2021 1:00:00 AM -99999.99 -179968 -99999.99 -99999.99 -99999.99 -99999.99
5/16/2021 1:15:00 AM -99999.99 -179968 -99999.99 -99999.99 -99999.99 -99999.99
5/16/2021 1:30:00 AM -99999.99 -179968 -99999.99 -99999.99 -99999.99 -99999.99
5/16/2021 1:45:00 AM -99999.99 -179968 -99999.99 -99999.99 -99999.99 -99999.99
5/16/2021 2:00:00 AM -99999.99 -179968 -99999.99 -99999.99 -99999.99 -99999.99
5/16/2021 2:15:00 AM -99999.99 -179968 -99999.99 -99999.99 -99999.99 -99999.99
5/16/2021 2:30:00 AM -99999.99 -179968 -99999.99 -99999.99 -99999.99 -99999.99
5/16/2021 2:45:00 AM -99999.99 -179968 -99999.99 -99999.99 -99999.99 -99999.99
5/16/2021 3:00:00 AM -99999.99 -179968 -99999.99 -99999.99 -99999.99 -99999.99
5/16/2021 3:15:00 AM -99999.99 -179968 -99999.99 -99999.99 -99999.99 -99999.99
5/16/2021 3:30:00 AM -99999.99 -179968 -99999.99 -99999.99 -99999.99 -99999.99
5/16/2021 3:45:00 AM -99999.99 -179968 -99999.99 -99999.99 -99999.99 -99999.99
5/16/2021 4:00:00 AM -99999.99 -179968 -99999.99 -99999.99 -99999.99 -99999.99
5/16/2021 4:15:00 AM -99999.99 -179968 -99999.99 -99999.99 -99999.99 -99999.99
5/16/2021 4:30:00 AM -99999.99 -179968 -99999.99 -99999.99 -99999.99 -99999.99
5/16/2021 4:45:00 AM -99999.99 -179968 -99999.99 -99999.99 -99999.99 -99999.99
5/16/2021 5:00:00 AM -99999.99 -179968 -99999.99 -99999.99 -99999.99 -99999.99
5/16/2021 5:15:00 AM -99999.99 -179968 -99999.99 -99999.99 -99999.99 -99999.99
5/16/2021 5:30:00 AM -99999.99 -179968 -99999.99 -99999.99 -99999.99 -99999.99
5/16/2021 5:45:00 AM -99999.99 -179968 -99999.99 -99999.99 -99999.99 -99999.99
5/16/2021 6:00:00 AM -99999.99 -179968 -99999.99 -99999.99 -99999.99 -99999.99
5/16/2021 6:15:00 AM -99999.99 -179968 -99999.99 -99999.99 -99999.99 -99999.99
5/16/2021 6:30:00 AM -99999.99 -179968 -99999.99 -99999.99 -99999.99 -99999.99
5/16/2021 6:45:00 AM -99999.99 -179968 -99999.99 -99999.99 -99999.99 -99999.99
5/16/2021 7:00:00 AM -99999.99 -179968 -99999.99 -99999.99 -99999.99 -99999.99
5/16/2021 7:15:00 AM -99999.99 -179968 -99999.99 -99999.99 -99999.99 -99999.99
5/16/2021 7:30:00 AM -99999.99 -179968 -99999.99 -99999.99 -99999.99 -99999.99
5/16/2021 7:45:00 AM -99999.99 -179968 -99999.99 -99999.99 -99999.99 -99999.99
5/16/2021 8:00:00 AM -99999.99 -179968 -99999.99 -99999.99 -99999.99 -99999.99
5/16/2021 8:15:00 AM -99999.99 -179968 -99999.99 -99999.99 -99999.99 -99999.99
5/16/2021 8:30:00 AM 12.06 53.708 0.175 7.79 16.49 10.16
5/16/2021 8:45:00 AM 12.1 53.78 0.175 7.78 13 10.18
5/16/2021 9:00:00 AM 12.15 53.87 0.175 7.8 12.15 10.2
5/16/2021 9:15:00 AM -99999.99 -179968 -99999.99 -99999.99 -99999.99 -99999.99
5/16/2021 9:30:00 AM -99999.99 -179968 -99999.99 -99999.99 -99999.99 -99999.99
5/16/2021 9:45:00 AM 12.37 54.266 0.175 7.82 13.89 10.29
5/16/2021 10:00:00 AM -99999.99 -179968 -99999.99 -99999.99 -99999.99 -99999.99
5/16/2021 10:15:00 AM -99999.99 -179968 -99999.99 -99999.99 -99999.99 -99999.99
5/16/2021 10:30:00 AM -99999.99 -179968 -99999.99 -99999.99 -99999.99 -99999.99
5/16/2021 10:45:00 AM -99999.99 -179968 -99999.99 -99999.99 -99999.99 -99999.99
5/16/2021 11:00:00 AM -99999.99 -179968 -99999.99 -99999.99 -99999.99 -99999.99
5/16/2021 11:15:00 AM -99999.99 -179968 -99999.99 -99999.99 -99999.99 -99999.99
5/16/2021 11:30:00 AM -99999.99 -179968 -99999.99 -99999.99 -99999.99 -99999.99
5/16/2021 11:45:00 AM -99999.99 -179968 -99999.99 -99999.99 -99999.99 -99999.99
5/16/2021 12:00:00 PM -99999.99 -179968 -99999.99 -99999.99 -99999.99 -99999.99
5/16/2021 12:15:00 PM -99999.99 -179968 -99999.99 -99999.99 -99999.99 -99999.99
5/16/2021 12:30:00 PM 13.17 55.706 0.176 7.89 11.84 10.45
5/16/2021 12:45:00 PM 13.23 55.814 0.176 7.9 9.97 10.45
5/16/2021 1:00:00 PM 13.37 56.066 0.176 7.9 9.82 10.47
5/16/2021 1:15:00 PM 13.5 56.3 0.176 7.91 10 10.51
5/16/2021 1:30:00 PM 13.69 56.642 0.176 7.93 10.07 10.54
5/16/2021 1:45:00 PM 13.86 56.948 0.176 7.93 8.76 10.56
5/16/2021 2:00:00 PM 13.9 57.02 0.176 7.94 8.94 10.57
5/16/2021 2:15:00 PM 13.95 57.11 0.176 7.95 9.09 10.57
5/16/2021 2:30:00 PM 14.05 57.29 0.176 7.95 8.77 10.56
5/16/2021 2:45:00 PM 14.17 57.506 0.177 7.95 14.01 10.57
5/16/2021 3:00:00 PM 14.17 57.506 0.177 7.96 8.87 10.57
5/16/2021 3:15:00 PM -99999.99 -179968 -99999.99 -99999.99 -99999.99 -99999.99
5/16/2021 3:30:00 PM -99999.99 -179968 -99999.99 -99999.99 -99999.99 -99999.99
5/16/2021 3:45:00 PM -99999.99 -179968 -99999.99 -99999.99 -99999.99 -99999.99
5/16/2021 4:00:00 PM -99999.99 -179968 -99999.99 -99999.99 -99999.99 -99999.99
5/16/2021 4:15:00 PM -99999.99 -179968 -99999.99 -99999.99 -99999.99 -99999.99
5/16/2021 4:30:00 PM -99999.99 -179968 -99999.99 -99999.99 -99999.99 -99999.99
5/16/2021 4:45:00 PM -99999.99 -179968 -99999.99 -99999.99 -99999.99 -99999.99
5/16/2021 5:00:00 PM -99999.99 -179968 -99999.99 -99999.99 -99999.99 -99999.99
5/16/2021 5:15:00 PM -99999.99 -179968 -99999.99 -99999.99 -99999.99 -99999.99
5/16/2021 5:30:00 PM -99999.99 -179968 -99999.99 -99999.99 -99999.99 -99999.99
5/16/2021 5:45:00 PM -99999.99 -179968 -99999.99 -99999.99 -99999.99 -99999.99
5/16/2021 6:00:00 PM -99999.99 -179968 -99999.99 -99999.99 -99999.99 -99999.99
5/16/2021 6:15:00 PM -99999.99 -179968 -99999.99 -99999.99 -99999.99 -99999.99
5/16/2021 6:30:00 PM -99999.99 -179968 -99999.99 -99999.99 -99999.99 -99999.99
5/16/2021 6:45:00 PM -99999.99 -179968 -99999.99 -99999.99 -99999.99 -99999.99
5/16/2021 7:00:00 PM -99999.99 -179968 -99999.99 -99999.99 -99999.99 -99999.99
5/16/2021 7:15:00 PM -99999.99 -179968 -99999.99 -99999.99 -99999.99 -99999.99
5/16/2021 7:30:00 PM -99999.99 -179968 -99999.99 -99999.99 -99999.99 -99999.99
5/16/2021 7:45:00 PM -99999.99 -179968 -99999.99 -99999.99 -99999.99 -99999.99
5/16/2021 8:00:00 PM -99999.99 -179968 -99999.99 -99999.99 -99999.99 -99999.99
5/16/2021 8:15:00 PM -99999.99 -179968 -99999.99 -99999.99 -99999.99 -99999.99
5/16/2021 8:30:00 PM -99999.99 -179968 -99999.99 -99999.99 -99999.99 -99999.99
5/16/2021 8:45:00 PM -99999.99 -179968 -99999.99 -99999.99 -99999.99 -99999.99
5/16/2021 9:00:00 PM -99999.99 -179968 -99999.99 -99999.99 -99999.99 -99999.99
5/16/2021 9:15:00 PM -99999.99 -179968 -99999.99 -99999.99 -99999.99 -99999.99
5/16/2021 9:30:00 PM -99999.99 -179968 -99999.99 -99999.99 -99999.99 -99999.99
5/16/2021 9:45:00 PM -99999.99 -179968 -99999.99 -99999.99 -99999.99 -99999.99
5/16/2021 10:00:00 PM -99999.99 -179968 -99999.99 -99999.99 -99999.99 -99999.99
5/16/2021 10:15:00 PM -99999.99 -179968 -99999.99 -99999.99 -99999.99 -99999.99
5/16/2021 10:30:00 PM -99999.99 -179968 -99999.99 -99999.99 -99999.99 -99999.99
5/16/2021 10:45:00 PM -99999.99 -179968 -99999.99 -99999.99 -99999.99 -99999.99
5/16/2021 11:00:00 PM -99999.99 -179968 -99999.99 -99999.99 -99999.99 -99999.99
5/16/2021 11:15:00 PM -99999.99 -179968 -99999.99 -99999.99 -99999.99 -99999.99
5/16/2021 11:30:00 PM -99999.99 -179968 -99999.99 -99999.99 -99999.99 -99999.99
5/16/2021 11:45:00 PM -99999.99 -179968 -99999.99 -99999.99 -99999.99 -99999.99
5/17/2021 12:00:00 AM -99999.99 -179968 -99999.99 -99999.99 -99999.99 -99999.99
5/17/2021 12:15:00 AM -99999.99 -179968 -99999.99 -99999.99 -99999.99 -99999.99
5/17/2021 12:30:00 AM -99999.99 -179968 -99999.99 -99999.99 -99999.99 -99999.99
5/17/2021 12:45:00 AM -99999.99 -179968 -99999.99 -99999.99 -99999.99 -99999.99
5/17/2021 1:00:00 AM -99999.99 -179968 -99999.99 -99999.99 -99999.99 -99999.99
5/17/2021 1:15:00 AM -99999.99 -179968 -99999.99 -99999.99 -99999.99 -99999.99
5/17/2021 1:30:00 AM -99999.99 -179968 -99999.99 -99999.99 -99999.99 -99999.99
5/17/2021 1:45:00 AM -99999.99 -179968 -99999.99 -99999.99 -99999.99 -99999.99
5/17/2021 2:00:00 AM -99999.99 -179968 -99999.99 -99999.99 -99999.99 -99999.99
5/17/2021 2:15:00 AM -99999.99 -179968 -99999.99 -99999.99 -99999.99 -99999.99
5/17/2021 2:30:00 AM -99999.99 -179968 -99999.99 -99999.99 -99999.99 -99999.99
5/17/2021 2:45:00 AM -99999.99 -179968 -99999.99 -99999.99 -99999.99 -99999.99
5/17/2021 3:00:00 AM -99999.99 -179968 -99999.99 -99999.99 -99999.99 -99999.99
5/17/2021 3:15:00 AM -99999.99 -179968 -99999.99 -99999.99 -99999.99 -99999.99
5/17/2021 3:30:00 AM -99999.99 -179968 -99999.99 -99999.99 -99999.99 -99999.99
5/17/2021 3:45:00 AM -99999.99 -179968 -99999.99 -99999.99 -99999.99 -99999.99
5/17/2021 4:00:00 AM -99999.99 -179968 -99999.99 -99999.99 -99999.99 -99999.99
5/17/2021 4:15:00 AM -99999.99 -179968 -99999.99 -99999.99 -99999.99 -99999.99
5/17/2021 4:30:00 AM -99999.99 -179968 -99999.99 -99999.99 -99999.99 -99999.99
5/17/2021 4:45:00 AM -99999.99 -179968 -99999.99 -99999.99 -99999.99 -99999.99
5/17/2021 5:00:00 AM -99999.99 -179968 -99999.99 -99999.99 -99999.99 -99999.99
5/17/2021 5:15:00 AM -99999.99 -179968 -99999.99 -99999.99 -99999.99 -99999.99
5/17/2021 5:30:00 AM -99999.99 -179968 -99999.99 -99999.99 -99999.99 -99999.99
5/17/2021 5:45:00 AM -99999.99 -179968 -99999.99 -99999.99 -99999.99 -99999.99
5/17/2021 6:00:00 AM -99999.99 -179968 -99999.99 -99999.99 -99999.99 -99999.99
5/17/2021 6:15:00 AM -99999.99 -179968 -99999.99 -99999.99 -99999.99 -99999.99
5/17/2021 6:30:00 AM -99999.99 -179968 -99999.99 -99999.99 -99999.99 -99999.99
5/17/2021 6:45:00 AM -99999.99 -179968 -99999.99 -99999.99 -99999.99 -99999.99
5/17/2021 7:00:00 AM -99999.99 -179968 -99999.99 -99999.99 -99999.99 -99999.99
5/17/2021 7:15:00 AM -99999.99 -179968 -99999.99 -99999.99 -99999.99 -99999.99
5/17/2021 7:30:00 AM -99999.99 -179968 -99999.99 -99999.99 -99999.99 -99999.99
5/17/2021 7:45:00 AM -99999.99 -179968 -99999.99 -99999.99 -99999.99 -99999.99
5/17/2021 8:00:00 AM -99999.99 -179968 -99999.99 -99999.99 -99999.99 -99999.99
5/17/2021 8:15:00 AM -99999.99 -179968 -99999.99 -99999.99 -99999.99 -99999.99
5/17/2021 8:30:00 AM -99999.99 -179968 -99999.99 -99999.99 -99999.99 -99999.99
5/17/2021 8:45:00 AM -99999.99 -179968 -99999.99 -99999.99 -99999.99 -99999.99
5/17/2021 9:00:00 AM -99999.99 -179968 -99999.99 -99999.99 -99999.99 -99999.99
5/17/2021 9:15:00 AM -99999.99 -179968 -99999.99 -99999.99 -99999.99 -99999.99
5/17/2021 9:30:00 AM -99999.99 -179968 -99999.99 -99999.99 -99999.99 -99999.99
5/17/2021 9:45:00 AM -99999.99 -179968 -99999.99 -99999.99 -99999.99 -99999.99
5/17/2021 10:00:00 AM -99999.99 -179968 -99999.99 -99999.99 -99999.99 -99999.99
5/17/2021 10:15:00 AM -99999.99 -179968 -99999.99 -99999.99 -99999.99 -99999.99
5/17/2021 10:30:00 AM -99999.99 -179968 -99999.99 -99999.99 -99999.99 -99999.99
5/17/2021 10:45:00 AM -99999.99 -179968 -99999.99 -99999.99 -99999.99 -99999.99
5/17/2021 11:00:00 AM -99999.99 -179968 -99999.99 -99999.99 -99999.99 -99999.99
5/17/2021 11:15:00 AM -99999.99 -179968 -99999.99 -99999.99 -99999.99 -99999.99
5/17/2021 11:30:00 AM -99999.99 -179968 -99999.99 -99999.99 -99999.99 -99999.99
5/17/2021 11:45:00 AM -99999.99 -179968 -99999.99 -99999.99 -99999.99 -99999.99
5/17/2021 12:00:00 PM -99999.99 -179968 -99999.99 -99999.99 -99999.99 -99999.99
5/17/2021 12:15:00 PM -99999.99 -179968 -99999.99 -99999.99 -99999.99 -99999.99
5/17/2021 12:30:00 PM -99999.99 -179968 -99999.99 -99999.99 -99999.99 -99999.99
5/17/2021 12:45:00 PM -99999.99 -179968 -99999.99 -99999.99 -99999.99 -99999.99
5/17/2021 1:00:00 PM -99999.99 -179968 -99999.99 -99999.99 -99999.99 -99999.99
5/17/2021 1:15:00 PM -99999.99 -179968 -99999.99 -99999.99 -99999.99 -99999.99
5/17/2021 1:30:00 PM -99999.99 -179968 -99999.99 -99999.99 -99999.99 -99999.99
5/17/2021 1:45:00 PM -99999.99 -179968 -99999.99 -99999.99 -99999.99 -99999.99
5/17/2021 2:00:00 PM -99999.99 -179968 -99999.99 -99999.99 -99999.99 -99999.99
5/17/2021 2:15:00 PM -99999.99 -179968 -99999.99 -99999.99 -99999.99 -99999.99
5/17/2021 2:30:00 PM -99999.99 -179968 -99999.99 -99999.99 -99999.99 -99999.99
5/17/2021 2:45:00 PM -99999.99 -179968 -99999.99 -99999.99 -99999.99 -99999.99
5/17/2021 3:00:00 PM -99999.99 -179968 -99999.99 -99999.99 -99999.99 -99999.99
5/17/2021 3:15:00 PM -99999.99 -179968 -99999.99 -99999.99 -99999.99 -99999.99
5/17/2021 3:30:00 PM -99999.99 -179968 -99999.99 -99999.99 -99999.99 -99999.99
5/17/2021 3:45:00 PM -99999.99 -179968 -99999.99 -99999.99 -99999.99 -99999.99
5/17/2021 4:00:00 PM 15.92 60.656 0.184 8.05 9.61 10.65
5/17/2021 4:15:00 PM 15.92 60.656 0.184 8.07 9.44 10.65
5/17/2021 4:30:00 PM 15.94 60.692 0.184 8.07 8.88 10.66
5/17/2021 4:45:00 PM 15.99 60.782 0.184 8.08 7.98 10.64
5/17/2021 5:00:00 PM 16.05 60.89 0.184 8.08 8.1 10.66
5/17/2021 5:15:00 PM 16.03 60.854 0.184 8.09 8.47 10.66
5/17/2021 5:30:00 PM 16.02 60.836 0.184 8.09 8.49 10.67
5/17/2021 5:45:00 PM 15.96 60.728 0.185 8.09 8.05 10.64
5/17/2021 6:00:00 PM 15.95 60.71 0.185 8.08 13.8 10.61
5/17/2021 6:15:00 PM 15.87 60.566 0.185 8.08 12.29 10.59
5/17/2021 6:30:00 PM 15.85 60.53 0.185 8.08 9.65 10.58
5/17/2021 6:45:00 PM 15.82 60.476 0.185 8.08 9.26 10.57
5/17/2021 7:00:00 PM 15.79 60.422 0.185 8.08 8.98 10.52
5/17/2021 7:15:00 PM 15.74 60.332 0.185 8.07 9.76 10.53
5/17/2021 7:30:00 PM 15.69 60.242 0.185 8.06 12.8 10.49
5/17/2021 7:45:00 PM 15.64 60.152 0.185 8.06 8.81 10.46
5/17/2021 8:00:00 PM 15.58 60.044 0.185 8.03 13.74 10.44
5/17/2021 8:15:00 PM 15.51 59.918 0.185 8.03 14.73 10.38
5/17/2021 8:30:00 PM 15.45 59.81 0.185 8 16.32 10.33
5/17/2021 8:45:00 PM 15.37 59.666 0.185 8 10.32 10.28
5/17/2021 9:00:00 PM 15.31 59.558 0.186 7.99 11.4 10.23
5/17/2021 9:15:00 PM 15.25 59.45 0.186 7.97 13.75 10.19
5/17/2021 9:30:00 PM 15.2 59.36 0.186 7.97 10.41 10.17
5/17/2021 9:45:00 PM -99999.99 -179968 -99999.99 -99999.99 -99999.99 -99999.99
5/17/2021 10:00:00 PM -99999.99 -179968 -99999.99 -99999.99 -99999.99 -99999.99
5/17/2021 10:15:00 PM -99999.99 -179968 -99999.99 -99999.99 -99999.99 -99999.99
5/17/2021 10:30:00 PM -99999.99 -179968 -99999.99 -99999.99 -99999.99 -99999.99
5/17/2021 10:45:00 PM -99999.99 -179968 -99999.99 -99999.99 -99999.99 -99999.99
5/17/2021 11:00:00 PM 15.02 59.036 0.186 7.9 18.66 10.02
5/17/2021 11:15:00 PM 14.98 58.964 0.186 7.9 15.82 9.99
5/17/2021 11:30:00 PM 14.95 58.91 0.186 7.9 12.12 9.99
5/17/2021 11:45:00 PM 14.92 58.856 0.186 7.89 17.3 9.97
5/18/2021 12:00:00 AM 14.88 58.784 0.186 7.89 13.97 9.95
5/18/2021 12:15:00 AM 14.85 58.73 0.186 7.89 11.67 9.94
5/18/2021 12:30:00 AM 14.81 58.658 0.186 7.88 11.02 9.94
5/18/2021 12:45:00 AM 14.77 58.586 0.186 7.88 13.93 9.9
5/18/2021 1:00:00 AM 14.73 58.514 0.187 7.88 10.01 9.92
5/18/2021 1:15:00 AM 14.69 58.442 0.187 7.88 10.95 9.91
5/18/2021 1:30:00 AM -99999.99 -179968 -99999.99 -99999.99 -99999.99 -99999.99
5/18/2021 1:45:00 AM -99999.99 -179968 -99999.99 -99999.99 -99999.99 -99999.99
5/18/2021 2:00:00 AM -99999.99 -179968 -99999.99 -99999.99 -99999.99 -99999.99
5/18/2021 2:15:00 AM -99999.99 -179968 -99999.99 -99999.99 -99999.99 -99999.99
5/18/2021 2:30:00 AM 14.36 57.848 0.187 7.87 11.23 9.86
5/18/2021 2:45:00 AM 14.27 57.686 0.187 7.87 11.38 9.86
5/18/2021 3:00:00 AM 14.19 57.542 0.187 7.86 9.77 9.86
5/18/2021 3:15:00 AM 14.1 57.38 0.187 7.86 10.53 9.86
5/18/2021 3:30:00 AM 14.02 57.236 0.187 7.85 10.28 9.85
5/18/2021 3:45:00 AM 13.93 57.074 0.187 7.85 13.37 9.84
5/18/2021 4:00:00 AM 13.85 56.93 0.187 7.85 10.7 9.85
5/18/2021 4:15:00 AM 13.77 56.786 0.187 7.84 10.56 9.85
5/18/2021 4:30:00 AM 13.7 56.66 0.187 7.84 10.02 9.84
5/18/2021 4:45:00 AM -99999.99 -179968 -99999.99 -99999.99 -99999.99 -99999.99
5/18/2021 5:00:00 AM 13.56 56.408 0.187 7.83 10.55 9.82
5/18/2021 5:15:00 AM 13.5 56.3 0.187 7.83 10.12 9.81
5/18/2021 5:30:00 AM 13.43 56.174 0.187 7.83 9.72 9.81
5/18/2021 5:45:00 AM 13.38 56.084 0.187 7.81 12.45 9.8
5/18/2021 6:00:00 AM 13.32 55.976 0.187 7.81 10.83 9.79
5/18/2021 6:15:00 AM 13.27 55.886 0.187 7.81 10.03 9.79
5/18/2021 6:30:00 AM 13.22 55.796 0.187 7.81 9.64 9.78
5/18/2021 6:45:00 AM 13.18 55.724 0.187 7.81 8.94 9.79
5/18/2021 7:00:00 AM 13.15 55.67 0.187 7.81 8.95 9.79
5/18/2021 7:15:00 AM 13.13 55.634 0.187 7.81 8.51 9.81
5/18/2021 7:30:00 AM 13.12 55.616 0.187 7.8 8.53 9.8
5/18/2021 7:45:00 AM 13.11 55.598 0.187 7.82 8.3 9.84
5/18/2021 8:00:00 AM 13.1 55.58 0.187 7.82 8.36 9.88
5/18/2021 8:15:00 AM 13.11 55.598 0.187 7.83 7.99 9.9
5/18/2021 8:30:00 AM 13.13 55.634 0.188 7.82 8.55 9.93
5/18/2021 8:45:00 AM 13.16 55.688 0.188 7.83 7.62 9.96
5/18/2021 9:00:00 AM 13.2 55.76 0.188 7.84 8.12 10
5/18/2021 9:15:00 AM 13.25 55.85 0.188 7.85 7.86 10.04
5/18/2021 9:30:00 AM 13.31 55.958 0.188 7.86 8.68 10.08
5/18/2021 9:45:00 AM 13.39 56.102 0.188 7.86 7.73 10.1
5/18/2021 10:00:00 AM 13.48 56.264 0.188 7.87 7.25 10.15
5/18/2021 10:15:00 AM 13.6 56.48 0.188 7.89 7.81 10.19
5/18/2021 10:30:00 AM 13.72 56.696 0.188 7.89 7.63 10.22
5/18/2021 10:45:00 AM 13.86 56.948 0.188 7.91 7.71 10.26
5/18/2021 11:00:00 AM 14.02 57.236 0.188 7.92 7.45 10.3
5/18/2021 11:15:00 AM 14.18 57.524 0.188 7.93 6.77 10.31
5/18/2021 11:30:00 AM 14.34 57.812 0.188 7.94 6.92 10.36
5/18/2021 11:45:00 AM 14.51 58.118 0.188 7.96 8.66 10.4
5/18/2021 12:00:00 PM 14.69 58.442 0.188 7.97 7.19 10.43
5/18/2021 12:15:00 PM 14.87 58.766 0.188 7.98 8.62 10.46
5/18/2021 12:30:00 PM 15.06 59.108 0.188 8 6.82 10.5
5/18/2021 12:45:00 PM 15.23 59.414 0.188 8.01 6.95 10.53
5/18/2021 1:00:00 PM 15.39 59.702 0.188 8.02 9.72 10.56
5/18/2021 1:15:00 PM 15.54 59.972 0.188 8.03 6.61 10.56
5/18/2021 1:30:00 PM 15.75 60.35 0.189 8.04 9.79 10.6
5/18/2021 1:45:00 PM 15.96 60.728 0.189 8.06 8.63 10.62
5/18/2021 2:00:00 PM 16.14 61.052 0.189 8.07 10.68 10.65
5/18/2021 2:15:00 PM 16.29 61.322 0.189 8.09 7.72 10.67
5/18/2021 2:30:00 PM 16.38 61.484 0.189 8.09 8.28 10.68
5/18/2021 2:45:00 PM 16.49 61.682 0.189 8.1 11.57 10.69
5/18/2021 3:00:00 PM -99999.99 -179968 -99999.99 -99999.99 -99999.99 -99999.99
5/18/2021 3:15:00 PM 16.69 62.042 0.189 8.13 7.7 10.69
5/18/2021 3:30:00 PM 16.78 62.204 0.189 8.14 7.66 10.7
5/18/2021 3:45:00 PM 16.86 62.348 0.189 8.14 6.8 10.65
5/18/2021 4:00:00 PM 16.94 62.492 0.189 8.16 9.34 10.72
5/18/2021 4:15:00 PM 17.01 62.618 0.189 8.17 6.51 10.74
5/18/2021 4:30:00 PM 17.08 62.744 0.189 8.18 6.31 10.75
5/18/2021 4:45:00 PM 17.12 62.816 0.189 8.19 9.97 10.77
5/18/2021 5:00:00 PM 17.16 62.888 0.189 8.2 6.55 10.78
5/18/2021 5:15:00 PM 17.21 62.978 0.189 8.21 6.58 10.77
5/18/2021 5:30:00 PM 17.17 62.906 0.19 8.21 7.43 10.76
5/18/2021 5:45:00 PM 17.19 62.942 0.19 8.21 11.48 10.75
5/18/2021 6:00:00 PM 17.2 62.96 0.19 8.21 10.2 10.73
5/18/2021 6:15:00 PM 17.19 62.942 0.19 8.22 6.5 10.71
5/18/2021 6:30:00 PM 17.19 62.942 0.19 8.22 6.43 10.71
5/18/2021 6:45:00 PM 17.15 62.87 0.19 8.22 6.94 10.7
5/18/2021 7:00:00 PM 17.1 62.78 0.19 8.21 7.81 10.67
5/18/2021 7:15:00 PM 17.05 62.69 0.19 8.21 6.77 10.64
5/18/2021 7:30:00 PM 17.01 62.618 0.19 8.2 6.74 10.59
5/18/2021 7:45:00 PM 16.96 62.528 0.19 8.18 10.02 10.53
5/18/2021 8:00:00 PM 16.91 62.438 0.19 8.17 7.51 10.46
5/18/2021 8:15:00 PM 16.87 62.366 0.19 8.15 9.79 10.4
5/18/2021 8:30:00 PM 16.83 62.294 0.19 8.14 7.93 10.33
5/18/2021 8:45:00 PM 16.79 62.222 0.19 8.11 8.62 10.26
5/18/2021 9:00:00 PM 16.76 62.168 0.19 8.1 8.43 10.21
5/18/2021 9:15:00 PM 16.73 62.114 0.191 8.08 9 10.15
5/18/2021 9:30:00 PM 16.7 62.06 0.191 8.07 8.6 10.12
5/18/2021 9:45:00 PM 16.68 62.024 0.191 8.05 8.23 10.06
5/18/2021 10:00:00 PM 16.64 61.952 0.191 8.01 8.51 10.01
5/18/2021 10:15:00 PM 16.62 61.916 0.191 8.01 8.81 9.98
5/18/2021 10:30:00 PM 16.6 61.88 0.191 7.99 9.05 9.93
5/18/2021 10:45:00 PM 16.58 61.844 0.191 7.97 8.61 9.9
5/18/2021 11:00:00 PM 16.57 61.826 0.191 7.98 13.22 9.86
5/18/2021 11:15:00 PM 16.56 61.808 0.191 7.98 10.15 9.85
5/18/2021 11:30:00 PM 16.55 61.79 0.191 7.97 8.59 9.79
5/18/2021 11:45:00 PM 16.54 61.772 0.191 7.96 9.31 9.79
5/19/2021 12:00:00 AM 16.53 61.754 0.192 7.96 8.79 9.77
5/19/2021 12:15:00 AM 16.51 61.718 0.192 7.95 8.59 9.73
5/19/2021 12:30:00 AM 16.49 61.682 0.192 7.95 9.12 9.73
5/19/2021 12:45:00 AM 16.47 61.646 0.192 7.95 10.08 9.7
5/19/2021 1:00:00 AM 16.44 61.592 0.192 7.94 8.51 9.72
5/19/2021 1:15:00 AM 16.41 61.538 0.192 7.94 8.64 9.7
5/19/2021 1:30:00 AM 16.38 61.484 0.192 7.93 12.9 9.67
5/19/2021 1:45:00 AM 16.34 61.412 0.192 7.93 9.34 9.66
5/19/2021 2:00:00 AM 16.31 61.358 0.192 7.93 13.3 9.65
5/19/2021 2:15:00 AM 16.27 61.286 0.192 7.93 9.13 9.64
5/19/2021 2:30:00 AM 16.23 61.214 0.192 7.91 10.19 9.63
5/19/2021 2:45:00 AM 16.19 61.142 0.192 7.91 12.51 9.62
5/19/2021 3:00:00 AM 16.14 61.052 0.193 7.9 9.23 9.6
5/19/2021 3:15:00 AM 16.1 60.98 0.193 7.91 9.51 9.57
5/19/2021 3:30:00 AM 16.05 60.89 0.193 7.9 14.13 9.58
5/19/2021 3:45:00 AM 16 60.8 0.193 7.89 9.04 9.55
5/19/2021 4:00:00 AM 15.95 60.71 0.193 7.89 10.73 9.55
5/19/2021 4:15:00 AM 15.89 60.602 0.193 7.88 8.49 9.52
5/19/2021 4:30:00 AM 15.83 60.494 0.193 7.88 9.39 9.5
5/19/2021 4:45:00 AM 15.77 60.386 0.193 7.88 9.51 9.5
5/19/2021 5:00:00 AM 15.71 60.278 0.193 7.87 13.32 9.47
5/19/2021 5:15:00 AM 15.64 60.152 0.193 7.87 15.33 9.44
5/19/2021 5:30:00 AM 15.57 60.026 0.19 7.85 15.74 9.45
5/19/2021 5:45:00 AM 15.5 59.9 0.194 7.84 11.52 9.45
5/19/2021 6:00:00 AM 15.43 59.774 0.194 7.85 13.61 9.42
5/19/2021 6:15:00 AM 15.35 59.63 0.194 7.85 9.15 9.43
5/19/2021 6:30:00 AM 15.28 59.504 0.194 7.84 13.54 9.44
5/19/2021 6:45:00 AM 15.21 59.378 0.194 7.85 8.69 9.45
5/19/2021 7:00:00 AM 15.14 59.252 0.194 7.84 12.93 9.46
5/19/2021 7:15:00 AM 15.07 59.126 0.194 7.85 9.73 9.47
5/19/2021 7:30:00 AM 15.01 59.018 0.194 7.84 9.37 9.49
5/19/2021 7:45:00 AM 14.96 58.928 0.194 7.84 8.13 9.49
5/19/2021 8:00:00 AM 14.91 58.838 0.194 7.85 7.7 9.53
5/19/2021 8:15:00 AM 14.88 58.784 0.194 7.85 13.77 9.57
5/19/2021 8:30:00 AM 14.87 58.766 0.194 7.85 8.55 9.59
5/19/2021 8:45:00 AM 14.87 58.766 0.194 7.87 8.09 9.64
5/19/2021 9:00:00 AM 14.88 58.784 0.194 7.87 8.3 9.7
5/19/2021 9:15:00 AM 14.9 58.82 0.194 7.88 7.29 9.75
5/19/2021 9:30:00 AM 14.94 58.892 0.194 7.89 7.53 9.78
5/19/2021 9:45:00 AM 14.99 58.982 0.194 7.9 8.21 9.85
5/19/2021 10:00:00 AM 15.05 59.09 0.194 7.91 7.22 9.89
5/19/2021 10:15:00 AM 15.13 59.234 0.194 7.92 12.04 9.96
5/19/2021 10:30:00 AM 15.23 59.414 0.195 7.94 7 10.03
5/19/2021 10:45:00 AM 15.34 59.612 0.195 7.95 6.93 10.08
5/19/2021 11:00:00 AM 15.47 59.846 0.195 7.97 6.99 10.14
5/19/2021 11:15:00 AM 15.61 60.098 0.195 7.97 7.05 10.21
5/19/2021 11:30:00 AM 15.75 60.35 0.195 8 6.73 10.25
5/19/2021 11:45:00 AM 15.9 60.62 0.195 8.02 6.73 10.3
5/19/2021 12:00:00 PM 16.06 60.908 0.195 8.03 8.43 10.35
5/19/2021 12:15:00 PM 16.23 61.214 0.195 8.05 7.74 10.41
5/19/2021 12:30:00 PM 16.41 61.538 0.195 8.07 6.33 10.44
5/19/2021 12:45:00 PM 16.59 61.862 0.195 8.07 6.58 10.49
5/19/2021 1:00:00 PM 16.77 62.186 0.195 8.09 10 10.51
5/19/2021 1:15:00 PM 16.95 62.51 0.195 8.11 6.35 10.57
5/19/2021 1:30:00 PM 17.12 62.816 0.195 8.13 6.12 10.6
5/19/2021 1:45:00 PM 17.29 63.122 0.195 8.15 7.35 10.65
5/19/2021 2:00:00 PM 17.46 63.428 0.195 8.16 9.94 10.67
5/19/2021 2:15:00 PM 17.62 63.716 0.195 8.18 6.87 10.69
5/19/2021 2:30:00 PM 17.79 64.022 0.195 8.2 6.45 10.75
5/19/2021 2:45:00 PM 17.94 64.292 0.195 8.22 6.32 10.77
5/19/2021 3:00:00 PM 18.09 64.562 0.195 8.22 6.98 10.81
5/19/2021 3:15:00 PM 18.23 64.814 0.195 8.25 6.08 10.83
5/19/2021 3:30:00 PM 18.36 65.048 0.195 8.26 6.32 10.85
5/19/2021 3:45:00 PM 18.47 65.246 0.195 8.28 6.92 10.87
5/19/2021 4:00:00 PM 18.54 65.372 0.195 8.29 12.47 10.86
5/19/2021 4:15:00 PM 18.6 65.48 0.196 8.31 6.6 10.9
5/19/2021 4:30:00 PM 18.65 65.57 0.196 8.32 6.79 10.91
5/19/2021 4:45:00 PM 18.72 65.696 0.196 8.34 6.11 10.93
5/19/2021 5:00:00 PM 18.72 65.696 0.196 8.35 5.98 10.93
5/19/2021 5:15:00 PM 18.68 65.624 0.196 8.36 6.05 10.9
5/19/2021 5:30:00 PM 18.71 65.67799 0.196 8.36 7.19 10.89
5/19/2021 5:45:00 PM 18.68 65.624 0.196 8.36 6.19 10.88
5/19/2021 6:00:00 PM 18.65 65.57 0.196 8.35 5.83 10.84
5/19/2021 6:15:00 PM 18.63 65.534 0.196 8.35 7.04 10.81
5/19/2021 6:30:00 PM 18.61 65.498 0.196 8.35 6.3 10.78
5/19/2021 6:45:00 PM 18.59 65.462 0.196 8.35 5.86 10.72
5/19/2021 7:00:00 PM 18.57 65.426 0.196 8.34 7.24 10.7
5/19/2021 7:15:00 PM 18.56 65.408 0.196 8.34 7.62 10.65
5/19/2021 7:30:00 PM 18.54 65.372 0.196 8.33 6.43 10.64
5/19/2021 7:45:00 PM 18.52 65.336 0.196 8.32 6.06 10.61
5/19/2021 8:00:00 PM 18.49 65.282 0.196 8.31 6.89 10.55
5/19/2021 8:15:00 PM 18.47 65.246 0.196 8.28 6.89 10.48
5/19/2021 8:30:00 PM 18.45 65.21 0.196 8.25 6.6 10.38
5/19/2021 8:45:00 PM 18.43 65.174 0.196 8.23 8.84 10.33
5/19/2021 9:00:00 PM 18.41 65.138 0.196 8.22 8.62 10.24
5/19/2021 9:15:00 PM 18.4 65.12 0.196 8.18 8.53 10.16
5/19/2021 9:30:00 PM 18.38 65.084 0.196 8.16 7.17 10.12
5/19/2021 9:45:00 PM 18.37 65.066 0.196 8.14 10.16 10.03
5/19/2021 10:00:00 PM 18.37 65.066 0.196 8.12 8.91 9.99
5/19/2021 10:15:00 PM 18.36 65.048 0.197 8.11 8.13 9.93
5/19/2021 10:30:00 PM 18.35 65.03 0.197 8.04 7.61 9.88
5/19/2021 10:45:00 PM 18.36 65.048 0.197 8.04 7.47 9.84
5/19/2021 11:00:00 PM 18.36 65.048 0.197 8.03 7.09 9.79
5/19/2021 11:15:00 PM 18.37 65.066 0.197 8.04 6.98 9.76
5/19/2021 11:30:00 PM 18.37 65.066 0.197 8.03 7.12 9.71
5/19/2021 11:45:00 PM 18.38 65.084 0.197 8.02 6.65 9.68
5/20/2021 12:00:00 AM 18.38 65.084 0.197 8.02 7 9.65
5/20/2021 12:15:00 AM 18.38 65.084 0.197 8.01 6.56 9.62
5/20/2021 12:30:00 AM 18.38 65.084 0.197 8.01 6.56 9.59
5/20/2021 12:45:00 AM 18.37 65.066 0.197 8 6.89 9.56
5/20/2021 1:00:00 AM 18.36 65.048 0.197 7.99 6.84 9.54
5/20/2021 1:15:00 AM 18.35 65.03 0.197 7.99 7.04 9.51
5/20/2021 1:30:00 AM 18.34 65.012 0.197 7.98 13.22 9.49
5/20/2021 1:45:00 AM 18.32 64.976 0.197 7.98 10.97 9.46
5/20/2021 2:00:00 AM 18.31 64.958 0.197 7.97 13.97 9.44
5/20/2021 2:15:00 AM 18.28 64.904 0.197 7.97 7.2 9.41
5/20/2021 2:30:00 AM 18.26 64.868 0.197 7.96 5.66 9.4
5/20/2021 2:45:00 AM 18.23 64.814 0.198 7.95 9.6 9.35
5/20/2021 3:00:00 AM 18.19 64.742 0.198 7.96 6.08 9.35
5/20/2021 3:15:00 AM 18.16 64.688 0.198 7.94 9.4 9.29
5/20/2021 3:30:00 AM 18.12 64.616 0.198 7.94 7.27 9.3
5/20/2021 3:45:00 AM 18.08 64.544 0.198 7.93 7.79 9.27
5/20/2021 4:00:00 AM 18.03 64.454 0.198 7.93 7.89 9.25
5/20/2021 4:15:00 AM 17.97 64.346 0.198 7.92 6.84 9.23
5/20/2021 4:30:00 AM 17.92 64.256 0.198 7.92 6.04 9.21
5/20/2021 4:45:00 AM 17.86 64.148 0.198 7.9 8.14 9.18
5/20/2021 5:00:00 AM 17.8 64.04 0.198 7.9 9.35 9.16
5/20/2021 5:15:00 AM 17.74 63.932 0.198 7.89 8.12 9.14
5/20/2021 5:30:00 AM 17.68 63.824 0.198 7.88 8.22 9.13
5/20/2021 5:45:00 AM 17.61 63.698 0.198 7.87 9.65 9.09
5/20/2021 6:00:00 AM 17.55 63.59 0.198 7.87 7.86 9.05
5/20/2021 6:15:00 AM 17.48 63.464 0.199 7.86 8.06 9.07
5/20/2021 6:30:00 AM 17.41 63.338 0.199 7.86 6.76 8.98
5/20/2021 6:45:00 AM 17.35 63.23 0.199 7.86 5.99 9.06
5/20/2021 7:00:00 AM 17.28 63.104 0.199 7.85 6.51 9.07
5/20/2021 7:15:00 AM 17.21 62.978 0.199 7.86 6.29 9.1
5/20/2021 7:30:00 AM 17.15 62.87 0.199 7.86 6.75 9.12
5/20/2021 7:45:00 AM 17.09 62.762 0.199 7.86 7.02 9.17
5/20/2021 8:00:00 AM 17.03 62.654 0.199 7.87 6.56 9.19
5/20/2021 8:15:00 AM 16.98 62.564 0.199 7.87 6.27 9.24
5/20/2021 8:30:00 AM 16.93 62.474 0.199 7.88 8.62 9.33
5/20/2021 8:45:00 AM 16.9 62.42 0.199 7.9 6.93 9.4
5/20/2021 9:00:00 AM 16.89 62.402 0.199 7.9 8.02 9.46
5/20/2021 9:15:00 AM 16.89 62.402 0.199 7.91 6.31 9.47
5/20/2021 9:30:00 AM 16.91 62.438 0.199 7.93 6.23 9.31
5/20/2021 9:45:00 AM 16.94 62.492 0.199 7.93 6.35 9.45
5/20/2021 10:00:00 AM 16.98 62.564 0.199 7.95 6.03 9.73
5/20/2021 10:15:00 AM 17.03 62.654 0.2 7.96 6.33 9.69
5/20/2021 10:30:00 AM 17.1 62.78 0.2 7.98 5.96 9.74
5/20/2021 10:45:00 AM 17.18 62.924 0.2 8 4.99 9.85
5/20/2021 11:00:00 AM 17.29 63.122 0.2 8.01 5.4 10.06
5/20/2021 11:15:00 AM 17.41 63.338 0.2 8.03 5.68 10.1
5/20/2021 11:30:00 AM 17.53 63.554 0.2 8.05 6.26 10.22
5/20/2021 11:45:00 AM 17.65 63.77 0.2 8.09 7.63 10.28
5/20/2021 12:00:00 PM 17.78 64.004 0.2 8.09 5.45 10.33
5/20/2021 12:15:00 PM 17.92 64.256 0.2 8.11 5.48 10.42
5/20/2021 12:30:00 PM 18.08 64.544 0.2 8.12 7.67 10.46
5/20/2021 12:45:00 PM 18.24 64.832 0.2 8.13 5.95 10.54
5/20/2021 1:00:00 PM 18.4 65.12 0.2 8.15 6.48 10.55
5/20/2021 1:15:00 PM 18.56 65.408 0.2 8.17 5.23 10.61
5/20/2021 1:30:00 PM 18.73 65.714 0.2 8.19 6.59 10.67
5/20/2021 1:45:00 PM 18.87 65.966 0.2 8.21 6.29 10.73
5/20/2021 2:00:00 PM 18.97 66.146 0.2 8.22 5.59 10.74
5/20/2021 2:15:00 PM 19.11 66.398 0.201 8.24 5.32 10.79
5/20/2021 2:30:00 PM 19.32 66.776 0.2 8.26 5.07 10.85
5/20/2021 2:45:00 PM 19.48 67.064 0.2 8.28 5.26 10.88
5/20/2021 3:00:00 PM 19.63 67.334 0.201 8.3 6.43 10.92
5/20/2021 3:15:00 PM 19.7 67.46 0.2 8.32 5.41 10.96
5/20/2021 3:30:00 PM 19.81 67.658 0.201 8.33 4.57 11.02
5/20/2021 3:45:00 PM 19.88 67.784 0.201 8.36 5.77 11.02
5/20/2021 4:00:00 PM 19.95 67.91 0.201 8.36 4.94 11.01
5/20/2021 4:15:00 PM 20.02 68.036 0.201 8.37 4.92 11.06
5/20/2021 4:30:00 PM 20.1 68.18 0.201 8.38 4.64 11.1
5/20/2021 4:45:00 PM 20.15 68.27 0.201 8.38 5.23 11.13
5/20/2021 5:00:00 PM 20.21 68.378 0.2 8.4 4.93 11.1
5/20/2021 5:15:00 PM 20.24 68.432 0.201 8.42 4.65 11.12
5/20/2021 5:30:00 PM 20.2 68.36 0.201 8.42 5.64 10.97
5/20/2021 5:45:00 PM 20.16 68.288 0.2 8.44 6.2 11.11
5/20/2021 6:00:00 PM 20.09 68.162 0.2 8.43 5.96 11.05
5/20/2021 6:15:00 PM 20.02 68.036 0.2 8.42 4.58 10.94
5/20/2021 6:30:00 PM 19.96 67.92799 0.2 8.4 5.21 10.95
5/20/2021 6:45:00 PM 19.94 67.892 0.201 8.41 6.73 10.94
5/20/2021 7:00:00 PM 19.88 67.784 0.201 8.4 51.6 10.87
5/20/2021 7:15:00 PM 19.83 67.694 0.201 8.37 5.92 10.82
5/20/2021 7:30:00 PM 19.78 67.604 0.201 8.37 5.77 10.79
5/20/2021 7:45:00 PM 19.73 67.514 0.201 8.35 6.51 10.67
5/20/2021 8:00:00 PM 19.69 67.442 0.173 8.33 5.6 10.6
5/20/2021 8:15:00 PM 19.65 67.37 0.201 8.32 7.31 10.55
5/20/2021 8:30:00 PM 19.6 67.28 0.201 8.3 5.65 10.47
5/20/2021 8:45:00 PM 19.55 67.19 0.201 8.27 5.54 10.38
5/20/2021 9:00:00 PM 19.51 67.118 0.183 8.25 14.7 10.31
5/20/2021 9:15:00 PM 19.47 67.046 0.201 8.24 6.66 10.22
5/20/2021 9:30:00 PM 19.45 67.01 0.201 8.22 8.06 10.15
5/20/2021 9:45:00 PM 19.43 66.974 0.201 8.2 6.62 10.02
5/20/2021 10:00:00 PM 19.41 66.938 0.201 8.18 6.73 10
5/20/2021 10:15:00 PM 19.41 66.938 0.201 8.17 6.06 9.86
5/20/2021 10:30:00 PM 19.39 66.902 0.202 8.11 6.58 9.88
5/20/2021 10:45:00 PM 19.4 66.92 0.202 8.1 7.5 9.83
5/20/2021 11:00:00 PM 19.42 66.956 0.202 8.1 6.43 9.79
5/20/2021 11:15:00 PM 19.45 67.01 0.202 8.09 5.69 9.74
5/20/2021 11:30:00 PM 19.47 67.046 0.202 8.08 5.88 9.69
5/20/2021 11:45:00 PM 19.51 67.118 0.202 8.06 6.73 9.65
5/21/2021 12:00:00 AM 19.54 67.172 0.202 8.06 6.87 9.61
5/21/2021 12:15:00 AM 19.57 67.226 0.202 8.05 6.31 9.56
5/21/2021 12:30:00 AM 19.6 67.28 0.202 8.04 7.42 9.52
5/21/2021 12:45:00 AM 19.63 67.334 0.202 8.03 6.61 9.48
5/21/2021 1:00:00 AM 19.63 67.334 0.202 8.03 8.32 9.45
5/21/2021 1:15:00 AM 19.66 67.388 0.202 8.02 6.29 9.43
5/21/2021 1:30:00 AM 19.67 67.406 0.202 8.02 6.07 9.4
5/21/2021 1:45:00 AM 19.68 67.424 0.202 8.02 6.82 9.36
5/21/2021 2:00:00 AM 19.7 67.46 0.202 8.01 5.69 9.34
5/21/2021 2:15:00 AM 19.7 67.46 0.202 8.01 11.09 9.31
5/21/2021 2:30:00 AM 19.69 67.442 0.202 8.01 8.17 9.27
5/21/2021 2:45:00 AM 19.69 67.442 0.203 8 6.85 9.24
5/21/2021 3:00:00 AM 19.67 67.406 0.203 8 10.68 9.2
5/21/2021 3:15:00 AM 19.66 67.388 0.203 7.99 7.3 9.17
5/21/2021 3:30:00 AM 19.64 67.352 0.203 7.99 7.21 9.14
5/21/2021 3:45:00 AM 19.62 67.316 0.203 7.98 13.78 9.08
5/21/2021 4:00:00 AM 19.59 67.262 0.203 7.99 6.77 9.07
5/21/2021 4:15:00 AM 19.56 67.208 0.203 7.98 8.08 9.03
5/21/2021 4:30:00 AM 19.53 67.154 0.203 7.97 8.6 9
5/21/2021 4:45:00 AM 19.5 67.1 0.203 7.96 7.14 8.97
5/21/2021 5:00:00 AM 19.47 67.046 0.204 7.94 13.39 8.89
5/21/2021 5:15:00 AM 19.43 66.974 0.204 7.94 8.58 8.9
5/21/2021 5:30:00 AM 19.4 66.92 0.204 7.94 7.81 8.87
5/21/2021 5:45:00 AM 19.36 66.848 0.204 7.93 7.3 8.85
5/21/2021 6:00:00 AM 19.33 66.794 0.204 7.93 6.49 8.84
5/21/2021 6:15:00 AM 19.29 66.722 0.205 7.93 7.04 8.83
5/21/2021 6:30:00 AM 19.25 66.65 0.205 7.92 6.22 8.83
5/21/2021 6:45:00 AM 19.22 66.596 0.205 7.92 7.49 8.85
5/21/2021 7:00:00 AM 19.19 66.542 0.205 7.92 6.46 8.87
5/21/2021 7:15:00 AM 19.15 66.47 0.205 7.91 4.64 8.86
5/21/2021 7:30:00 AM 19.11 66.398 0.205 7.91 8.31 8.89
5/21/2021 7:45:00 AM 19.06 66.308 0.205 7.94 6.13 8.99
5/21/2021 8:00:00 AM 19.02 66.236 0.206 7.95 6.12 9.04
5/21/2021 8:15:00 AM 18.98 66.164 0.206 7.95 6.1 9.1
5/21/2021 8:30:00 AM 18.95 66.11 0.206 7.96 5.3 9.17
5/21/2021 8:45:00 AM 18.93 66.074 0.206 7.99 5.54 9.25
5/21/2021 9:00:00 AM 18.91 66.038 0.206 7.98 7.04 9.31
5/21/2021 9:15:00 AM 18.91 66.038 0.206 8.02 5.43 9.42
5/21/2021 9:30:00 AM 18.91 66.038 0.206 8.04 5.56 9.51
5/21/2021 9:45:00 AM 18.93 66.074 0.207 8.05 5.35 9.59
5/21/2021 10:00:00 AM 18.96 66.128 0.207 7.95 5.17 9.6
5/21/2021 10:15:00 AM 19.01 66.218 0.207 8.05 4.99 9.74
5/21/2021 10:30:00 AM 19.07 66.326 0.207 8.09 5.27 9.83
5/21/2021 10:45:00 AM 19.15 66.47 0.207 8.13 5.12 9.96
5/21/2021 11:00:00 AM 19.24 66.632 0.207 8.16 5.2 10.05
5/21/2021 11:15:00 AM 19.35 66.83 0.207 8.17 5.09 10.07
5/21/2021 11:30:00 AM 19.47 67.046 0.207 8.21 4.97 10.22
5/21/2021 11:45:00 AM 19.59 67.262 0.207 8.24 4.62 10.32
5/21/2021 12:00:00 PM 19.71 67.478 0.208 8.26 7.39 10.4
5/21/2021 12:15:00 PM 19.83 67.694 0.208 8.3 4.56 10.5
5/21/2021 12:30:00 PM 19.97 67.946 0.208 8.33 6.03 10.54
5/21/2021 12:45:00 PM 20.12 68.216 0.208 8.34 4.36 10.65
5/21/2021 1:00:00 PM 20.25 68.45 0.208 8.38 4.29 10.71
5/21/2021 1:15:00 PM 20.38 68.684 0.184 8.39 4.44 10.76
5/21/2021 1:30:00 PM 20.48 68.864 0.208 8.43 5.86 10.88
5/21/2021 1:45:00 PM 20.62 69.116 0.208 8.43 4.43 10.95
5/21/2021 2:00:00 PM 20.72 69.296 0.208 8.46 4.4 11
5/21/2021 2:15:00 PM 20.83 69.494 0.208 8.45 37.08 11
5/21/2021 2:30:00 PM 20.91 69.638 0.209 8.49 4.48 11.07
5/21/2021 2:45:00 PM 20.99 69.782 0.209 8.51 4.92 11.11
5/21/2021 3:00:00 PM 21.08 69.944 0.209 8.55 4.46 11.2
5/21/2021 3:15:00 PM 21.15 70.07 0.209 8.54 4.52 11.2
5/21/2021 3:30:00 PM 21.2 70.16 0.209 8.56 4.31 11.18
5/21/2021 3:45:00 PM 21.23 70.214 0.209 8.59 4.89 11.27
5/21/2021 4:00:00 PM 21.23 70.214 0.209 8.61 4.35 11.29
5/21/2021 4:15:00 PM 21.28 70.304 0.209 8.62 4.24 11.33
5/21/2021 4:30:00 PM 21.3 70.34 0.209 8.61 4.6 11.34
5/21/2021 4:45:00 PM 21.24 70.232 0.209 8.63 4.37 11.34
5/21/2021 5:00:00 PM 21.21 70.17799 0.209 8.64 4.31 11.35
5/21/2021 5:15:00 PM 21.22 70.196 0.209 8.63 4.36 11.35
5/21/2021 5:30:00 PM 21.19 70.142 0.209 8.64 4.77 11.34
5/21/2021 5:45:00 PM 21.18 70.124 0.209 8.65 4.32 11.33
5/21/2021 6:00:00 PM 21.17 70.106 0.209 8.66 4.46 11.34
5/21/2021 6:15:00 PM 21.13 70.034 0.209 8.65 4.73 11.35
5/21/2021 6:30:00 PM 21.08 69.944 0.209 8.65 4.41 11.33
5/21/2021 6:45:00 PM 21.02 69.836 0.209 8.66 4.78 11.3
5/21/2021 7:00:00 PM 20.96 69.728 0.209 8.65 4.75 11.25
5/21/2021 7:15:00 PM 20.88 69.584 0.209 8.64 8.68 11.17
5/21/2021 7:30:00 PM 20.79 69.422 0.209 8.62 4.8 11.1
5/21/2021 7:45:00 PM 20.71 69.278 0.209 8.59 9.6 11.01
5/21/2021 8:00:00 PM 20.63 69.134 0.209 8.58 5.66 10.93
5/21/2021 8:15:00 PM 20.54 68.972 0.209 8.55 5.47 10.84
5/21/2021 8:30:00 PM 20.47 68.846 0.209 8.53 5.78 10.73
5/21/2021 8:45:00 PM 20.41 68.738 0.209 8.49 5.98 10.61
5/21/2021 9:00:00 PM 20.34 68.612 0.21 8.46 5.94 10.49
5/21/2021 9:15:00 PM 20.29 68.522 0.21 8.43 5.99 10.38
5/21/2021 9:30:00 PM 20.24 68.432 0.21 8.4 6.19 10.27
5/21/2021 9:45:00 PM 20.21 68.378 0.21 8.37 7.25 10.18
5/21/2021 10:00:00 PM 20.19 68.342 0.21 8.33 11.99 10.09
5/21/2021 10:15:00 PM 20.16 68.288 0.21 8.31 6.59 10.02
5/21/2021 10:30:00 PM 20.13 68.234 0.211 8.22 8.03 9.93
5/21/2021 10:45:00 PM 20.12 68.216 0.211 8.2 6.45 9.86
5/21/2021 11:00:00 PM 20.14 68.252 0.21 8.22 7.05 9.82
5/21/2021 11:15:00 PM 20.14 68.252 0.21 8.2 7.49 9.74
5/21/2021 11:30:00 PM 20.15 68.27 0.21 8.19 7.2 9.7
5/21/2021 11:45:00 PM 20.15 68.27 0.21 8.18 7.57 9.64
5/22/2021 12:00:00 AM 20.18 68.324 0.21 8.17 6.93 9.6
5/22/2021 12:15:00 AM 20.19 68.342 0.21 8.16 6.66 9.54
5/22/2021 12:30:00 AM 20.2 68.36 0.21 8.14 6.53 9.5
5/22/2021 12:45:00 AM 20.21 68.378 0.21 8.13 6.86 9.45
5/22/2021 1:00:00 AM 20.23 68.414 0.21 8.12 7.02 9.42
5/22/2021 1:15:00 AM 20.25 68.45 0.21 8.12 6.87 9.39
5/22/2021 1:30:00 AM 20.28 68.504 0.21 8.11 6.36 9.37
5/22/2021 1:45:00 AM 20.28 68.504 0.21 8.11 6.24 9.34
5/22/2021 2:00:00 AM 20.3 68.54 0.21 8.11 6.49 9.3
5/22/2021 2:15:00 AM 20.32 68.576 0.21 8.1 6.81 9.27
5/22/2021 2:30:00 AM 20.34 68.612 0.21 8.1 6.35 9.25
5/22/2021 2:45:00 AM 20.36 68.648 0.21 8.1 6.43 9.22
5/22/2021 3:00:00 AM 20.36 68.648 0.21 8.09 7.54 9.19
5/22/2021 3:15:00 AM 20.38 68.684 0.21 8.09 6.66 9.16
5/22/2021 3:30:00 AM 20.38 68.684 0.21 8.09 6.62 9.12
5/22/2021 3:45:00 AM 20.39 68.702 0.211 8.09 6.61 9.09
5/22/2021 4:00:00 AM 20.39 68.702 0.211 8.08 6.33 9.04
5/22/2021 4:15:00 AM 20.4 68.72 0.211 8.08 14.5 9.02
5/22/2021 4:30:00 AM 20.39 68.702 0.211 8.07 7.1 8.98
5/22/2021 4:45:00 AM 20.39 68.702 0.211 8.08 7.34 8.94
5/22/2021 5:00:00 AM 20.38 68.684 0.211 8.07 6.22 8.9
5/22/2021 5:15:00 AM 20.37 68.666 0.211 8.07 6.45 8.86
5/22/2021 5:30:00 AM 20.36 68.648 0.211 8.06 8.52 8.83
5/22/2021 5:45:00 AM 20.33 68.594 0.211 8.05 6.21 8.78
5/22/2021 6:00:00 AM 20.32 68.576 0.211 8.04 8.58 8.75
5/22/2021 6:15:00 AM 20.31 68.558 0.211 8.04 6.44 8.73
5/22/2021 6:30:00 AM 20.3 68.54 0.211 8.04 5.74 8.74
5/22/2021 6:45:00 AM 20.31 68.558 0.211 8.04 5.71 8.76
5/22/2021 7:00:00 AM 20.3 68.54 0.211 8.05 6.89 8.79
5/22/2021 7:15:00 AM 20.3 68.54 0.211 8.07 5.41 8.85
5/22/2021 7:30:00 AM 20.33 68.594 0.211 8.09 6.01 8.92
5/22/2021 7:45:00 AM 20.33 68.594 0.212 8.11 4.9 9
5/22/2021 8:00:00 AM 20.35 68.63 0.212 8.14 5 9.12
5/22/2021 8:15:00 AM 20.38 68.684 0.212 8.17 4.87 9.21
5/22/2021 8:30:00 AM 20.39 68.702 0.212 8.19 4.95 9.31
5/22/2021 8:45:00 AM 20.41 68.738 0.212 8.23 4.92 9.41
5/22/2021 9:00:00 AM 20.44 68.792 0.212 8.26 4.9 9.5
5/22/2021 9:15:00 AM 20.47 68.846 0.212 8.29 4.71 9.61
5/22/2021 9:30:00 AM 20.51 68.918 0.212 8.33 4.65 9.72
5/22/2021 9:45:00 AM 20.56 69.008 0.212 8.36 4.92 9.83
5/22/2021 10:00:00 AM 20.64 69.152 0.212 8.4 4.91 9.96
5/22/2021 10:15:00 AM 20.7 69.26 0.212 8.44 4.85 10.07
5/22/2021 10:30:00 AM 20.8 69.44 0.212 8.47 4.64 10.18
5/22/2021 10:45:00 AM 20.91 69.638 0.212 8.51 5.02 10.29
5/22/2021 11:00:00 AM 21.03 69.854 0.212 8.55 4.97 10.42
5/22/2021 11:15:00 AM 21.12 70.016 0.212 8.59 4.52 10.53
5/22/2021 11:30:00 AM 21.24 70.232 0.212 8.61 4.47 10.63
5/22/2021 11:45:00 AM 21.38 70.484 0.213 8.64 4.53 10.71
5/22/2021 12:00:00 PM 21.4 70.52 0.213 8.66 7.32 10.79
5/22/2021 12:15:00 PM 21.47 70.646 0.213 8.68 4.59 10.89
5/22/2021 12:30:00 PM 21.53 70.754 0.213 8.71 4.65 10.96
5/22/2021 12:45:00 PM 21.63 70.934 0.213 8.73 4.66 11.02
5/22/2021 1:00:00 PM 21.67 71.006 0.213 8.75 4.53 11.1
5/22/2021 1:15:00 PM 21.78 71.204 0.213 8.76 4.89 11.18
5/22/2021 1:30:00 PM 21.86 71.348 0.213 8.78 4.94 11.25
5/22/2021 1:45:00 PM 21.94 71.492 0.213 8.8 4.8 11.32
5/22/2021 2:00:00 PM 22.03 71.654 0.214 8.81 5.62 11.39
5/22/2021 2:15:00 PM 22.04 71.672 0.214 8.81 5.87 11.42
5/22/2021 2:30:00 PM 22.05 71.69 0.214 8.82 5.23 11.43
5/22/2021 2:45:00 PM 22.14 71.852 0.214 8.83 5.13 11.44
5/22/2021 3:00:00 PM 22.07 71.726 0.214 8.83 5.49 11.44
5/22/2021 3:15:00 PM 22.05 71.69 0.215 8.83 5.51 11.43
5/22/2021 3:30:00 PM 22.04 71.672 0.215 8.84 5.58 11.46
5/22/2021 3:45:00 PM 22.03 71.654 0.215 8.85 5.1 11.5
5/22/2021 4:00:00 PM 22.07 71.726 0.215 8.8 27.42 11.45
5/22/2021 4:15:00 PM 22.04 71.672 0.215 8.82 14.89 11.48
5/22/2021 4:30:00 PM 22 71.6 0.215 8.84 8.97 11.51
5/22/2021 4:45:00 PM 22.04 71.672 0.215 8.85 13.09 11.52
5/22/2021 5:00:00 PM 22.07 71.726 0.215 8.86 8.68 11.56
5/22/2021 5:15:00 PM 21.98 71.564 0.217 8.77 9.1 11.53
5/22/2021 5:30:00 PM 21.94 71.492 0.217 8.84 7.14 11.55
5/22/2021 5:45:00 PM 21.88 71.384 0.216 8.82 15.33 11.45
5/22/2021 6:00:00 PM 21.8 71.24 0.216 8.84 9.43 11.43
5/22/2021 6:15:00 PM 21.7 71.06 0.216 8.84 8.13 11.36
5/22/2021 6:30:00 PM 21.62 70.916 0.217 8.82 7.14 11.26
5/22/2021 6:45:00 PM 21.52 70.736 0.217 8.82 6.4 11.21
5/22/2021 7:00:00 PM 21.44 70.592 0.217 8.8 5.53 11.14
5/22/2021 7:15:00 PM 21.35 70.43 0.217 8.79 5.39 11.05
5/22/2021 7:30:00 PM 21.27 70.286 0.217 8.77 7.27 10.96
5/22/2021 7:45:00 PM 21.19 70.142 0.217 8.74 5.8 10.84
5/22/2021 8:00:00 PM 21.11 69.998 0.217 8.72 5.32 10.73
5/22/2021 8:15:00 PM 21.04 69.872 0.217 8.69 5.19 10.6
5/22/2021 8:30:00 PM 20.98 69.764 0.217 8.66 6.41 10.48
5/22/2021 8:45:00 PM 20.93 69.674 0.218 8.63 6.97 10.36
5/22/2021 9:00:00 PM 20.88 69.584 0.218 8.59 31.34 10.22
5/22/2021 9:15:00 PM 20.84 69.512 0.218 8.56 6.41 10.08
5/22/2021 9:30:00 PM 20.79 69.422 0.218 8.53 6.8 10.03
5/22/2021 9:45:00 PM 20.76 69.368 0.218 8.49 6.24 9.93
5/22/2021 10:00:00 PM 20.73 69.314 0.218 8.47 5.8 9.86
5/22/2021 10:15:00 PM 20.69 69.242 0.218 8.44 6.02 9.76
5/22/2021 10:30:00 PM 20.67 69.206 0.218 8.41 5.82 9.67
5/22/2021 10:45:00 PM 20.66 69.188 0.218 8.38 7.19 9.6
5/22/2021 11:00:00 PM 20.64 69.152 0.219 8.36 6.65 9.53
5/22/2021 11:15:00 PM 20.64 69.152 0.219 8.34 6.56 9.45
5/22/2021 11:30:00 PM 20.63 69.134 0.219 8.32 6.43 9.39
5/22/2021 11:45:00 PM 20.63 69.134 0.219 8.29 6.73 9.32
5/23/2021 12:00:00 AM 20.63 69.134 0.219 8.27 6.6 9.25
5/23/2021 12:15:00 AM 20.64 69.152 0.219 8.25 8.94 9.2
5/23/2021 12:30:00 AM 20.66 69.188 0.219 8.24 8.8 9.17
5/23/2021 12:45:00 AM 20.66 69.188 0.219 8.23 8.92 9.11
5/23/2021 1:00:00 AM 20.68 69.224 0.219 8.22 7.68 9.08
5/23/2021 1:15:00 AM 20.69 69.242 0.219 8.21 6.58 9.03
5/23/2021 1:30:00 AM 20.72 69.296 0.219 8.2 6.65 9.01
5/23/2021 1:45:00 AM 20.73 69.314 0.219 8.19 8.34 8.97
5/23/2021 2:00:00 AM 20.75 69.35 0.22 8.19 7.31 8.95
5/23/2021 2:15:00 AM 20.78 69.404 0.22 8.18 6.77 8.94
5/23/2021 2:30:00 AM 20.79 69.422 0.22 8.18 7.56 8.91
5/23/2021 2:45:00 AM 20.8 69.44 0.219 8.18 9.38 8.89
5/23/2021 3:00:00 AM 20.83 69.494 0.219 8.18 7.05 8.86
5/23/2021 3:15:00 AM 20.83 69.494 0.219 8.18 7.11 8.84
5/23/2021 3:30:00 AM 20.84 69.512 0.219 8.17 7.02 8.81
5/23/2021 3:45:00 AM 20.85 69.53 0.219 8.17 6.43 8.79
5/23/2021 4:00:00 AM 20.85 69.53 0.218 8.16 8.58 8.75
5/23/2021 4:15:00 AM 20.87 69.566 0.218 8.15 6.79 8.72
5/23/2021 4:30:00 AM 20.87 69.566 0.218 8.15 6.37 8.69
5/23/2021 4:45:00 AM 20.87 69.566 0.219 8.14 6.18 8.65
5/23/2021 5:00:00 AM 20.87 69.566 0.219 8.14 6.69 8.62
5/23/2021 5:15:00 AM 20.81 69.458 0.22 8.04 6.47 8.56
5/23/2021 5:30:00 AM 20.84 69.512 0.22 8.07 8.05 8.55
5/23/2021 5:45:00 AM 20.85 69.53 0.219 8.11 5.83 8.52
5/23/2021 6:00:00 AM 20.79 69.422 0.221 8 9.56 8.47
5/23/2021 6:15:00 AM 20.84 69.512 0.22 8.09 5.6 8.5
5/23/2021 6:30:00 AM 20.88 69.584 0.219 8.12 5.82 8.5
5/23/2021 6:45:00 AM 20.89 69.602 0.219 8.13 5.34 8.53
5/23/2021 7:00:00 AM 20.91 69.638 0.219 8.15 5.62 8.58
5/23/2021 7:15:00 AM 20.91 69.638 0.219 8.16 5.19 8.62
5/23/2021 7:30:00 AM 20.92 69.656 0.219 8.18 5.07 8.69
5/23/2021 7:45:00 AM 20.94 69.692 0.219 8.22 5.08 8.78
5/23/2021 8:00:00 AM 20.95 69.71 0.219 8.24 5.06 8.85
5/23/2021 8:15:00 AM 20.97 69.746 0.219 8.26 5.11 8.92
5/23/2021 8:30:00 AM 20.99 69.782 0.219 8.29 5.74 9.04
5/23/2021 8:45:00 AM 21.03 69.854 0.219 8.33 5.77 9.14
5/23/2021 9:00:00 AM 21.06 69.908 0.219 8.36 7.68 9.24
5/23/2021 9:15:00 AM 21.13 70.034 0.219 8.41 5.32 9.36
5/23/2021 9:30:00 AM 21.21 70.17799 0.219 8.45 5.8 9.47
5/23/2021 9:45:00 AM 21.28 70.304 0.218 8.49 5.56 9.58
5/23/2021 10:00:00 AM 21.32 70.376 0.218 8.52 5.58 9.69
5/23/2021 10:15:00 AM -99999.99 -179968 -99999.99 -99999.99 -99999.99 -99999.99
5/23/2021 10:30:00 AM -99999.99 -179968 -99999.99 -99999.99 -99999.99 -99999.99
5/23/2021 10:45:00 AM -99999.99 -179968 -99999.99 -99999.99 -99999.99 -99999.99
5/23/2021 11:00:00 AM -99999.99 -179968 -99999.99 -99999.99 -99999.99 -99999.99
5/23/2021 11:15:00 AM -99999.99 -179968 -99999.99 -99999.99 -99999.99 -99999.99
5/23/2021 11:30:00 AM -99999.99 -179968 -99999.99 -99999.99 -99999.99 -99999.99
5/23/2021 11:45:00 AM -99999.99 -179968 -99999.99 -99999.99 -99999.99 -99999.99
5/23/2021 12:00:00 PM -99999.99 -179968 -99999.99 -99999.99 -99999.99 -99999.99
5/23/2021 12:15:00 PM -99999.99 -179968 -99999.99 -99999.99 -99999.99 -99999.99
5/23/2021 12:30:00 PM -99999.99 -179968 -99999.99 -99999.99 -99999.99 -99999.99
5/23/2021 12:45:00 PM -99999.99 -179968 -99999.99 -99999.99 -99999.99 -99999.99
5/23/2021 1:00:00 PM -99999.99 -179968 -99999.99 -99999.99 -99999.99 -99999.99
5/23/2021 1:15:00 PM -99999.99 -179968 -99999.99 -99999.99 -99999.99 -99999.99
5/23/2021 1:30:00 PM -99999.99 -179968 -99999.99 -99999.99 -99999.99 -99999.99
5/24/2021 6:15:00 AM 19.87 67.766 0.223 8.14 9.47 8.32
5/24/2021 6:30:00 AM 19.85 67.73 0.223 8.14 9.58 8.33
5/24/2021 6:45:00 AM 19.85 67.73 0.223 8.15 9.42 8.34
5/24/2021 7:00:00 AM 19.85 67.73 0.223 8.16 9.69 8.42
5/24/2021 7:15:00 AM 19.85 67.73 0.223 8.18 9.53 8.5
5/24/2021 7:30:00 AM 19.87 67.766 0.223 8.21 9.54 8.61
5/24/2021 7:45:00 AM 19.86 67.748 0.223 8.24 10.54 8.72
5/24/2021 8:00:00 AM 19.9 67.82 0.223 8.28 10.67 8.87
5/24/2021 8:15:00 AM 19.94 67.892 0.223 8.34 11.14 9.05
5/24/2021 8:30:00 AM 19.98 67.964 0.222 8.39 10.45 9.22
5/24/2021 8:45:00 AM 20.03 68.054 0.222 8.43 10.6 9.35
5/24/2021 9:00:00 AM 20.06 68.108 0.222 8.48 10.43 9.48
5/24/2021 9:15:00 AM 20.1 68.18 0.222 8.52 11.59 9.61
5/24/2021 9:30:00 AM 20.11 68.198 0.222 8.55 10.19 9.71
5/24/2021 9:45:00 AM 20.16 68.288 0.222 8.59 9.64 9.85
5/24/2021 10:00:00 AM 20.21 68.378 0.222 8.63 10.75 9.95
5/24/2021 10:15:00 AM 20.29 68.522 0.222 8.66 10.56 10.07
5/24/2021 10:30:00 AM 20.43 68.774 0.222 8.7 14.47 10.21
5/24/2021 10:45:00 AM 20.59 69.062 0.222 8.73 12.41 10.34
5/24/2021 11:00:00 AM 20.76 69.368 0.222 8.77 12.08 10.47
5/24/2021 11:15:00 AM 20.9 69.62 0.222 8.8 13.97 10.57
5/24/2021 11:30:00 AM 21.05 69.89 0.222 8.83 12.38 10.68
5/24/2021 11:45:00 AM 21.21 70.17799 0.222 8.85 13.1 10.76
5/24/2021 12:00:00 PM 21.37 70.466 0.222 8.87 12.03 10.85
5/24/2021 12:15:00 PM 21.54 70.772 0.222 8.89 14.94 10.95
5/24/2021 12:30:00 PM 21.72 71.096 0.222 8.91 14.28 11.03
5/24/2021 12:45:00 PM 21.93 71.474 0.222 8.93 15.79 11.14
5/24/2021 1:00:00 PM 22.08 71.744 0.222 8.94 63.96 11.19
5/24/2021 1:15:00 PM 22.29 72.122 0.222 8.95 7.52 11.24
5/24/2021 1:30:00 PM 22.44 72.392 0.222 8.97 4.7 11.3
5/24/2021 1:45:00 PM 22.62 72.716 0.222 8.98 4.68 11.36
5/24/2021 2:00:00 PM 22.79 73.022 0.223 8.99 5.06 11.43
5/24/2021 2:15:00 PM 22.95 73.31 0.223 9 5.5 11.48
5/24/2021 2:30:00 PM 23.11 73.598 0.223 9.02 5.11 11.55
5/24/2021 2:45:00 PM 23.15 73.67 0.223 9.02 5.28 11.56
5/24/2021 3:00:00 PM 23.14 73.652 0.223 9.03 5.88 11.53
5/24/2021 3:15:00 PM 23.21 73.778 0.223 9.03 6.63 11.57
5/24/2021 3:30:00 PM 23.21 73.778 0.223 9.04 4.97 11.58
5/24/2021 3:45:00 PM 23.22 73.796 0.223 9.05 4.84 11.6
5/24/2021 4:00:00 PM 23.41 74.138 0.223 9.06 5.25 11.67
5/24/2021 4:15:00 PM 23.48 74.264 0.223 9.07 5.6 11.71
5/24/2021 4:30:00 PM 23.54 74.372 0.223 9.07 5.98 11.05
5/24/2021 4:45:00 PM 23.55 74.39 0.223 9.08 6.61 11.74
5/24/2021 5:00:00 PM 23.52 74.336 0.223 9.09 6.12 11.73
5/24/2021 5:15:00 PM 23.47 74.246 0.223 9.09 5.07 11.73
5/24/2021 5:30:00 PM 23.41 74.138 0.223 9.1 5.02 11.75
5/24/2021 5:45:00 PM 23.3 73.94 0.223 9.11 5.25 11.76
5/24/2021 6:00:00 PM 23.19 73.742 0.223 9.11 5.82 11.74
5/24/2021 6:15:00 PM 23.07 73.526 0.223 9.11 6 11.68
5/24/2021 6:30:00 PM 22.86 73.148 0.223 9.11 5.86 11.67
5/24/2021 6:45:00 PM 22.66 72.788 0.224 9.1 6.57 11.62
5/24/2021 7:00:00 PM 22.48 72.464 0.224 9.1 5.95 11.58
5/24/2021 7:15:00 PM 22.31 72.158 0.224 9.1 5.88 11.54
5/24/2021 7:30:00 PM 22.14 71.852 0.224 9.09 6.75 11.47
5/24/2021 7:45:00 PM 22 71.6 0.224 9.07 7.24 11.37
5/24/2021 8:00:00 PM 21.87 71.366 0.224 9.06 7.15 11.29
5/24/2021 8:15:00 PM 21.73 71.114 0.224 9.04 7.66 11.09
5/24/2021 8:30:00 PM 21.59 70.862 0.224 9.01 10.08 10.99
5/24/2021 8:45:00 PM 21.47 70.646 0.224 8.98 13.76 10.82
5/24/2021 9:00:00 PM 21.35 70.43 0.225 8.95 12.68 10.66
5/24/2021 9:15:00 PM 21.25 70.25 0.225 8.92 12.78 10.49
5/24/2021 9:30:00 PM 21.15 70.07 0.225 8.9 12.23 10.37
5/24/2021 9:45:00 PM 21.07 69.926 0.225 8.87 7.17 10.25
5/24/2021 10:00:00 PM 20.98 69.764 0.225 8.84 6.93 10.11
5/24/2021 10:15:00 PM 20.9 69.62 0.225 8.81 7.89 10.03
5/24/2021 10:30:00 PM 20.79 69.422 0.226 8.71 8.71 9.92
5/24/2021 10:45:00 PM 20.75 69.35 0.226 8.76 8.51 9.85
5/24/2021 11:00:00 PM 20.68 69.224 0.226 8.73 7.32 9.77
5/24/2021 11:15:00 PM 20.62 69.116 0.226 8.71 7.17 9.68
5/24/2021 11:30:00 PM 20.56 69.008 0.226 8.68 7.13 9.6
5/24/2021 11:45:00 PM 20.51 68.918 0.226 8.66 7.14 9.52
5/25/2021 12:00:00 AM 20.46 68.828 0.226 8.63 7.03 9.46
5/25/2021 12:15:00 AM 20.43 68.774 0.226 8.6 12.66 9.37
5/25/2021 12:30:00 AM 20.39 68.702 0.226 8.59 7.51 9.32
5/25/2021 12:45:00 AM 20.36 68.648 0.226 8.56 10.02 9.26
5/25/2021 1:00:00 AM 20.32 68.576 0.226 8.54 8.67 9.2
5/25/2021 1:15:00 AM 20.29 68.522 0.227 8.52 8.06 9.16
5/25/2021 1:30:00 AM 20.27 68.486 0.227 8.5 8.53 9.1
5/25/2021 1:45:00 AM 20.24 68.432 0.227 8.49 9.05 9.06
5/25/2021 2:00:00 AM 20.22 68.396 0.227 8.47 9.55 9.01
5/25/2021 2:15:00 AM 20.21 68.378 0.227 8.46 8.97 8.98
5/25/2021 2:30:00 AM 20.2 68.36 0.227 8.44 16.71 8.96
5/25/2021 2:45:00 AM 20.2 68.36 0.227 8.43 8.19 8.92
5/25/2021 3:00:00 AM 20.17 68.306 0.227 8.43 7.63 8.87
5/25/2021 3:15:00 AM 20.17 68.306 0.228 8.42 7.97 8.84
5/25/2021 3:30:00 AM 20.14 68.252 0.228 8.41 8.42 8.82
5/25/2021 3:45:00 AM 20.12 68.216 0.228 8.41 8.27 8.79
5/25/2021 4:00:00 AM 20.1 68.18 0.228 8.39 9.1 8.75
5/25/2021 4:15:00 AM 20.09 68.162 0.228 8.39 8.6 8.73
5/25/2021 4:30:00 AM 20.08 68.144 0.228 8.38 8.5 8.68
5/25/2021 4:45:00 AM 20.07 68.126 0.228 8.37 8.88 8.64
5/25/2021 5:00:00 AM 20.08 68.144 0.228 8.37 9.59 8.62
5/25/2021 5:15:00 AM 20.09 68.162 0.228 8.36 9.39 8.58
5/25/2021 5:30:00 AM 20.09 68.162 0.227 8.35 8.81 8.55
5/25/2021 5:45:00 AM 20.08 68.144 0.227 8.35 7.95 8.52
5/25/2021 6:00:00 AM 20.07 68.126 0.227 8.35 7.87 8.49
5/25/2021 6:15:00 AM 20.09 68.162 0.227 8.35 7.95 8.47
5/25/2021 6:30:00 AM 20.09 68.162 0.227 8.35 7.89 8.46
5/25/2021 6:45:00 AM 20.09 68.162 0.227 8.35 7.81 8.47
5/25/2021 7:00:00 AM 20.11 68.198 0.227 8.37 7.98 8.53
5/25/2021 7:15:00 AM 20.11 68.198 0.141 8.39 8.34 8.58
5/25/2021 7:30:00 AM 20.12 68.216 0.226 8.42 8.03 8.67
5/25/2021 7:45:00 AM 20.14 68.252 0.226 8.45 8.48 8.78
5/25/2021 8:00:00 AM 20.15 68.27 0.226 8.49 9.86 8.89
5/25/2021 8:15:00 AM 20.16 68.288 0.226 8.52 8.74 9
5/25/2021 8:30:00 AM 20.16 68.288 0.226 8.56 9.21 9.12
5/25/2021 8:45:00 AM 20.2 68.36 0.225 8.6 9.47 9.25
5/25/2021 9:00:00 AM 20.27 68.486 0.225 8.66 8.85 9.46
5/25/2021 9:15:00 AM 20.3 68.54 0.225 8.69 8.91 9.58
5/25/2021 9:30:00 AM 20.37 68.666 0.225 8.73 8.21 9.71
5/25/2021 9:45:00 AM 20.44 68.792 0.225 8.76 8.8 9.87
5/25/2021 10:00:00 AM 20.49 68.882 0.225 8.79 9.65 9.98
5/25/2021 10:15:00 AM 20.61 69.098 0.224 8.83 10.46 10.13
5/25/2021 10:30:00 AM 20.72 69.296 0.224 8.85 10.64 10.22
5/25/2021 10:45:00 AM 20.83 69.494 0.224 8.88 9.86 10.32
5/25/2021 11:00:00 AM 20.98 69.764 0.224 8.9 11.02 10.45
5/25/2021 11:15:00 AM 21.13 70.034 0.224 8.92 6.7 10.55
5/25/2021 11:30:00 AM 21.3 70.34 0.224 8.94 7.17 10.65
5/25/2021 11:45:00 AM 21.45 70.61 0.224 8.95 6.91 10.73
5/25/2021 12:00:00 PM 21.61 70.898 0.224 8.97 7.39 10.78
5/25/2021 12:15:00 PM 21.76 71.168 0.224 8.99 7.98 10.87
5/25/2021 12:30:00 PM 21.97 71.546 0.224 9 8.11 10.94
5/25/2021 12:45:00 PM 22.14 71.852 0.224 9.01 8.31 11.03
5/25/2021 1:00:00 PM 22.2 71.96 0.224 9.02 8.05 11.09
5/25/2021 1:15:00 PM 22.37 72.266 0.224 9.03 8.6 11.16
5/25/2021 1:30:00 PM 22.52 72.536 0.224 9.04 8.71 11.18
5/25/2021 1:45:00 PM 22.64 72.752 0.224 9.05 5.06 11.26
5/25/2021 2:00:00 PM 22.86 73.148 0.224 9.05 6.12 11.28
5/25/2021 2:15:00 PM 22.92 73.256 0.224 9.06 6.07 11.33
5/25/2021 2:30:00 PM 22.98 73.364 0.225 9.07 6.11 11.3
5/25/2021 2:45:00 PM 23.12 73.616 0.225 9.07 6.38 11.42
5/25/2021 3:00:00 PM 23.33 73.994 0.225 9.08 6.76 11.45
5/25/2021 3:15:00 PM 23.45 74.21 0.225 9.08 7.05 11.49
5/25/2021 3:30:00 PM 23.64 74.552 0.225 9.09 7.77 11.51
5/25/2021 3:45:00 PM 23.7 74.66 0.225 9.09 8.89 11.53
5/25/2021 4:00:00 PM 23.81 74.858 0.225 9.1 7.78 11.55
5/25/2021 4:15:00 PM 23.81 74.858 0.225 9.1 9.07 11.59
5/25/2021 4:30:00 PM 23.83 74.894 0.225 9.1 8.14 11.58
5/25/2021 4:45:00 PM 23.9 75.02 0.225 9.1 8.7 11.61
5/25/2021 5:00:00 PM 23.93 75.074 0.225 9.11 8.75 11.62
5/25/2021 5:15:00 PM 23.88 74.984 0.225 9.11 9.58 11.65
5/25/2021 5:30:00 PM 23.9 75.02 0.225 9.11 10.19 11.64
5/25/2021 5:45:00 PM 23.84 74.912 0.225 9.11 10.2 11.66
5/25/2021 6:00:00 PM 23.75 74.75 0.225 9.11 9.89 11.64
5/25/2021 6:15:00 PM 23.66 74.588 0.225 9.11 10.82 11.64
5/25/2021 6:30:00 PM 23.56 74.408 0.211 9.11 11.15 11.58
5/25/2021 6:45:00 PM 23.43 74.174 0.194 9.11 10.8 11.55
5/25/2021 7:00:00 PM 23.3 73.94 0.21 9.1 11.51 11.51
5/25/2021 7:15:00 PM 23.13 73.634 0.226 9.09 12.94 11.39
5/25/2021 7:30:00 PM 22.98 73.364 0.225 9.07 20.09 11.3
5/25/2021 7:45:00 PM 22.85 73.13 0.226 9.06 15.04 11.17
5/25/2021 8:00:00 PM 22.67 72.806 0.226 9.04 13.68 11.07
5/25/2021 8:15:00 PM 22.54 72.57201 0.226 9.02 12.97 10.87
5/25/2021 8:30:00 PM 22.39 72.302 0.226 8.98 32.73 10.73
5/25/2021 8:45:00 PM 22.25 72.05 0.227 8.97 13.28 10.59
5/25/2021 9:00:00 PM 22.12 71.816 0.227 8.94 19.12 10.42
5/25/2021 9:15:00 PM 22 71.6 0.227 8.91 13.5 10.28
5/25/2021 9:30:00 PM 21.88 71.384 0.227 8.88 13.87 10.16
5/25/2021 9:45:00 PM 21.77 71.186 0.227 8.85 8.44 10.05
5/25/2021 10:00:00 PM 21.67 71.006 0.227 8.82 8.61 9.95
5/25/2021 10:15:00 PM 21.58 70.844 0.227 8.79 9.11 9.83
5/25/2021 10:30:00 PM 21.41 70.538 0.228 8.65 11.52 9.71
5/25/2021 10:45:00 PM 21.4 70.52 0.228 8.73 10.51 9.7
5/25/2021 11:00:00 PM 21.32 70.376 0.228 8.71 13.96 9.64
5/25/2021 11:15:00 PM 21.23 70.214 0.228 8.69 11.09 9.54
5/25/2021 11:30:00 PM 21.16 70.088 0.228 8.66 6.92 9.47
5/25/2021 11:45:00 PM 21.1 69.98 0.228 8.64 7.04 9.42
5/26/2021 12:00:00 AM 21.04 69.872 0.228 8.62 9.27 9.35
5/26/2021 12:15:00 AM 21 69.8 0.228 8.59 7.51 9.28
5/26/2021 12:30:00 AM 20.95 69.71 0.228 8.56 7.99 9.2
5/26/2021 12:45:00 AM 20.91 69.638 0.228 8.54 9.32 9.14
5/26/2021 1:00:00 AM 20.88 69.584 0.228 8.52 7.97 9.07
5/26/2021 1:15:00 AM 20.84 69.512 0.229 8.49 8.37 9
5/26/2021 1:30:00 AM 20.82 69.476 0.229 8.48 8.12 8.97
5/26/2021 1:45:00 AM 20.81 69.458 0.229 8.46 8.67 8.92
5/26/2021 2:00:00 AM 20.79 69.422 0.229 8.44 8.58 8.87
5/26/2021 2:15:00 AM 20.78 69.404 0.229 8.43 8.57 8.82
5/26/2021 2:30:00 AM 20.78 69.404 0.229 8.41 8.98 8.79
5/26/2021 2:45:00 AM 20.77 69.386 0.229 8.4 9.2 8.75
5/26/2021 3:00:00 AM 20.78 69.404 0.229 8.39 10.4 8.71
5/26/2021 3:15:00 AM 20.77 69.386 0.229 8.38 11.96 8.71
5/26/2021 3:30:00 AM 20.77 69.386 0.229 8.37 11.34 8.65
5/26/2021 3:45:00 AM 20.77 69.386 0.229 8.36 8.9 8.62
5/26/2021 4:00:00 AM 20.77 69.386 0.229 8.36 9.22 8.59
5/26/2021 4:15:00 AM 20.79 69.422 0.229 8.35 9.28 8.57
5/26/2021 4:30:00 AM 20.79 69.422 0.229 8.35 9.24 8.53
5/26/2021 4:45:00 AM 20.8 69.44 0.229 8.34 9.99 8.51
5/26/2021 5:00:00 AM 20.8 69.44 0.229 8.33 11.21 8.45
5/26/2021 5:15:00 AM 20.8 69.44 0.229 8.33 8.13 8.44
5/26/2021 5:30:00 AM 20.81 69.458 0.229 8.33 8.15 8.44
5/26/2021 5:45:00 AM 20.82 69.476 0.229 8.33 8.07 8.4
5/26/2021 6:00:00 AM 20.84 69.512 0.229 8.33 8.58 8.41
5/26/2021 6:15:00 AM 20.87 69.566 0.229 8.33 8.46 8.39
5/26/2021 6:30:00 AM 20.92 69.656 0.229 8.34 8.4 8.43
5/26/2021 6:45:00 AM 20.95 69.71 0.229 8.36 10.68 8.45
5/26/2021 7:00:00 AM 21 69.8 0.229 8.39 9.07 8.53
5/26/2021 7:15:00 AM 21.05 69.89 0.229 8.41 9.09 8.62
5/26/2021 7:30:00 AM 21.12 70.016 0.229 8.45 9.49 8.72
5/26/2021 7:45:00 AM 21.16 70.088 0.229 8.48 9.82 8.81
5/26/2021 8:00:00 AM 21.23 70.214 0.229 8.53 10.41 8.96
5/26/2021 8:15:00 AM 21.29 70.32201 0.229 8.58 10.3 9.09
5/26/2021 8:30:00 AM 21.33 70.394 0.23 8.6 10.54 9.15
5/26/2021 8:45:00 AM 21.39 70.502 0.229 8.64 10.32 9.22
5/26/2021 9:00:00 AM 21.47 70.646 0.229 8.67 11.36 9.33
5/26/2021 9:15:00 AM 21.58 70.844 0.228 8.71 10.98 9.45
5/26/2021 9:30:00 AM 21.69 71.042 0.228 8.74 11.08 9.6
5/26/2021 9:45:00 AM 21.81 71.258 0.228 8.78 11.42 9.72
5/26/2021 10:00:00 AM 21.9 71.42 0.228 8.82 11.86 9.75
5/26/2021 10:15:00 AM 22.05 71.69 0.228 8.84 11.69 9.92
5/26/2021 10:30:00 AM 22.2 71.96 0.228 8.87 11.96 10.02
5/26/2021 10:45:00 AM 22.4 72.32 0.227 8.89 12.89 10.11
5/26/2021 11:00:00 AM 22.58 72.644 0.227 8.92 15.45 10.23
5/26/2021 11:15:00 AM 22.8 73.04 0.227 8.94 9.94 10.34
5/26/2021 11:30:00 AM 23.05 73.49 0.228 8.96 9.98 10.39
5/26/2021 11:45:00 AM 23.23 73.814 0.227 8.97 10.39 10.43
5/26/2021 12:00:00 PM 23.44 74.192 0.228 8.99 10.77 10.52
5/26/2021 12:15:00 PM 23.66 74.588 0.228 9 11.11 10.55
5/26/2021 12:30:00 PM 23.9 75.02 0.228 9.01 11.43 10.64
5/26/2021 12:45:00 PM 24.08 75.344 0.228 9.03 11.58 10.69
5/26/2021 1:00:00 PM 24.3 75.74 0.228 9.04 11.88 10.77
5/26/2021 1:15:00 PM 24.47 76.046 0.228 9.04 12.57 10.78
5/26/2021 1:30:00 PM 24.62 76.316 0.228 9.05 12.94 10.82
5/26/2021 1:45:00 PM 24.8 76.64 0.228 9.06 13.25 10.9
5/26/2021 2:00:00 PM 24.97 76.946 0.228 9.07 14.77 10.92
5/26/2021 2:15:00 PM 25.13 77.234 0.228 9.08 14.53 10.91
5/26/2021 2:30:00 PM 25.04 77.07201 0.228 9.07 14.4 10.87
5/26/2021 2:45:00 PM 25.16 77.288 0.228 9.08 14.43 10.9
5/26/2021 3:00:00 PM 25.1 77.18 0.228 9.08 15.09 10.93
5/26/2021 3:15:00 PM 24.94 76.892 0.228 9.08 16.59 10.85
5/26/2021 3:30:00 PM 24.73 76.514 0.229 9.06 16.39 10.67
5/26/2021 3:45:00 PM 24.62 76.316 0.228 9.05 17.65 10.53
5/26/2021 4:00:00 PM 24.3 75.74 0.222 8.98 66.21 10.14
5/26/2021 4:15:00 PM 24.36 75.848 0.225 8.99 31.82 10.08
5/26/2021 4:30:00 PM 24.36 75.848 0.226 9 28.59 10.09
5/26/2021 4:45:00 PM 24.26 75.668 0.225 8.99 30.41 10.03
5/26/2021 5:00:00 PM 24.34 75.812 0.226 8.98 28.43 10.02
5/26/2021 5:15:00 PM -99999.99 -179968 -99999.99 -99999.99 -99999.99 -99999.99
5/26/2021 5:30:00 PM 24.26 75.668 0.226 8.97 58.78 10.03
5/26/2021 5:45:00 PM 24.28 75.704 0.226 8.98 24.18 10.13
5/26/2021 6:00:00 PM -99999.99 -179968 -99999.99 -99999.99 -99999.99 -99999.99
5/26/2021 6:15:00 PM -99999.99 -179968 -99999.99 -99999.99 -99999.99 -99999.99
5/26/2021 6:30:00 PM -99999.99 -179968 -99999.99 -99999.99 -99999.99 -99999.99
5/26/2021 6:45:00 PM -99999.99 -179968 -99999.99 -99999.99 -99999.99 -99999.99
5/26/2021 7:00:00 PM -99999.99 -179968 -99999.99 -99999.99 -99999.99 -99999.99
5/26/2021 7:15:00 PM -99999.99 -179968 -99999.99 -99999.99 -99999.99 -99999.99
5/26/2021 7:30:00 PM -99999.99 -179968 -99999.99 -99999.99 -99999.99 -99999.99
5/26/2021 7:45:00 PM -99999.99 -179968 -99999.99 -99999.99 -99999.99 -99999.99
5/26/2021 8:00:00 PM -99999.99 -179968 -99999.99 -99999.99 -99999.99 -99999.99
5/26/2021 8:15:00 PM -99999.99 -179968 -99999.99 -99999.99 -99999.99 -99999.99
5/26/2021 8:30:00 PM -99999.99 -179968 -99999.99 -99999.99 -99999.99 -99999.99
5/26/2021 8:45:00 PM -99999.99 -179968 -99999.99 -99999.99 -99999.99 -99999.99
5/26/2021 9:00:00 PM -99999.99 -179968 -99999.99 -99999.99 -99999.99 -99999.99
5/26/2021 9:15:00 PM -99999.99 -179968 -99999.99 -99999.99 -99999.99 -99999.99
5/26/2021 9:30:00 PM -99999.99 -179968 -99999.99 -99999.99 -99999.99 -99999.99
5/27/2021 6:00:00 AM -99999.99 -179968 -99999.99 -99999.99 -99999.99 -99999.99
5/27/2021 6:15:00 AM -99999.99 -179968 -99999.99 -99999.99 -99999.99 -99999.99
5/27/2021 6:30:00 AM -99999.99 -179968 -99999.99 -99999.99 -99999.99 -99999.99
5/27/2021 6:45:00 AM -99999.99 -179968 -99999.99 -99999.99 -99999.99 -99999.99
5/27/2021 7:00:00 AM -99999.99 -179968 -99999.99 -99999.99 -99999.99 -99999.99
5/27/2021 7:15:00 AM -99999.99 -179968 -99999.99 -99999.99 -99999.99 -99999.99
5/27/2021 7:30:00 AM -99999.99 -179968 -99999.99 -99999.99 -99999.99 -99999.99
5/27/2021 7:45:00 AM -99999.99 -179968 -99999.99 -99999.99 -99999.99 -99999.99
5/27/2021 8:00:00 AM -99999.99 -179968 -99999.99 -99999.99 -99999.99 -99999.99
5/27/2021 8:15:00 AM -99999.99 -179968 -99999.99 -99999.99 -99999.99 -99999.99
5/27/2021 8:30:00 AM -99999.99 -179968 -99999.99 -99999.99 -99999.99 -99999.99
5/27/2021 8:45:00 AM -99999.99 -179968 -99999.99 -99999.99 -99999.99 -99999.99
5/27/2021 9:00:00 AM -99999.99 -179968 -99999.99 -99999.99 -99999.99 -99999.99
5/27/2021 9:15:00 AM -99999.99 -179968 -99999.99 -99999.99 -99999.99 -99999.99
5/27/2021 9:30:00 AM -99999.99 -179968 -99999.99 -99999.99 -99999.99 -99999.99
5/27/2021 9:45:00 AM -99999.99 -179968 -99999.99 -99999.99 -99999.99 -99999.99
5/27/2021 10:00:00 AM -99999.99 -179968 -99999.99 -99999.99 -99999.99 -99999.99
5/27/2021 10:15:00 AM -99999.99 -179968 -99999.99 -99999.99 -99999.99 -99999.99
5/27/2021 10:30:00 AM -99999.99 -179968 -99999.99 -99999.99 -99999.99 -99999.99
5/27/2021 10:45:00 AM -99999.99 -179968 -99999.99 -99999.99 -99999.99 -99999.99
5/27/2021 11:00:00 AM -99999.99 -179968 -99999.99 -99999.99 -99999.99 -99999.99
5/27/2021 11:15:00 AM -99999.99 -179968 -99999.99 -99999.99 -99999.99 -99999.99
5/27/2021 11:30:00 AM -99999.99 -179968 -99999.99 -99999.99 -99999.99 -99999.99
5/27/2021 11:45:00 AM -99999.99 -179968 -99999.99 -99999.99 -99999.99 -99999.99
5/27/2021 12:00:00 PM -99999.99 -179968 -99999.99 -99999.99 -99999.99 -99999.99
5/27/2021 12:15:00 PM -99999.99 -179968 -99999.99 -99999.99 -99999.99 -99999.99
5/27/2021 12:30:00 PM -99999.99 -179968 -99999.99 -99999.99 -99999.99 -99999.99
5/27/2021 12:45:00 PM -99999.99 -179968 -99999.99 -99999.99 -99999.99 -99999.99
5/27/2021 1:00:00 PM -99999.99 -179968 -99999.99 -99999.99 -99999.99 -99999.99
5/27/2021 1:15:00 PM -99999.99 -179968 -99999.99 -99999.99 -99999.99 -99999.99
5/27/2021 1:30:00 PM -99999.99 -179968 -99999.99 -99999.99 -99999.99 -99999.99
5/27/2021 1:45:00 PM -99999.99 -179968 -99999.99 -99999.99 -99999.99 -99999.99
5/27/2021 2:00:00 PM 23.04 73.472 0.225 8.85 18.58 9.93
5/27/2021 2:15:00 PM 23.14 73.652 0.225 8.86 18.49 9.98
5/27/2021 2:30:00 PM 23.27 73.886 0.225 8.87 19.9 10.01
5/27/2021 2:45:00 PM 23.29 73.922 0.218 8.88 19.69 10.07
5/27/2021 3:00:00 PM 23.4 74.12 0.225 8.88 20.12 10.08
5/27/2021 3:15:00 PM 23.61 74.498 0.225 8.89 21.28 10.14
5/27/2021 3:30:00 PM 23.73 74.714 0.225 8.9 18.12 10.18
5/27/2021 3:45:00 PM -99999.99 -179968 -99999.99 -99999.99 -99999.99 -99999.99
5/27/2021 4:00:00 PM 24.01 75.218 0.225 8.91 17.83 10.3
5/27/2021 4:15:00 PM -99999.99 -179968 -99999.99 -99999.99 -99999.99 -99999.99
5/27/2021 4:30:00 PM 24.12 75.416 0.225 8.92 19.24 10.31
5/27/2021 4:45:00 PM 24.15 75.47 0.225 8.92 19.74 10.3
5/27/2021 5:00:00 PM 24.19 75.542 0.225 8.93 19.92 10.3
5/27/2021 5:15:00 PM 24.13 75.434 0.225 8.93 13.06 10.33
5/27/2021 5:30:00 PM 24.09 75.362 0.226 8.94 13.63 10.32
5/27/2021 5:45:00 PM 24.01 75.218 0.226 8.94 13.47 10.35
5/27/2021 6:00:00 PM 23.87 74.966 0.226 8.94 13.63 10.32
5/27/2021 6:15:00 PM 23.67 74.606 0.226 8.94 14.04 10.27
5/27/2021 6:30:00 PM 23.53 74.354 0.226 8.94 14.61 10.3
5/27/2021 6:45:00 PM 23.38 74.084 0.226 8.93 14.98 10.29
5/27/2021 7:00:00 PM 23.22 73.796 0.226 8.93 13.38 10.29
5/27/2021 7:15:00 PM 23.02 73.436 0.226 8.91 10.57 10.2
5/27/2021 7:30:00 PM 22.81 73.058 0.226 8.89 11.07 10.13
5/27/2021 7:45:00 PM 22.65 72.77 0.226 8.88 11.23 10.06
5/27/2021 8:00:00 PM 22.47 72.446 0.226 8.86 12.14 9.97
5/27/2021 8:15:00 PM 22.27 72.086 0.226 8.83 12.49 9.82
5/27/2021 8:30:00 PM 22.07 71.726 0.226 8.8 11.56 9.68
5/27/2021 8:45:00 PM 21.88 71.384 0.227 8.76 12.75 9.5
5/27/2021 9:00:00 PM 21.7 71.06 0.227 8.73 14.65 9.42
5/27/2021 9:15:00 PM 21.55 70.79 0.227 8.7 12.04 9.32
5/27/2021 9:30:00 PM 21.42 70.556 0.227 8.66 13.2 9.21
5/27/2021 9:45:00 PM 21.28 70.304 0.227 8.62 13.78 9.09
5/27/2021 10:00:00 PM 21.14 70.052 0.227 8.59 16.11 9.01
5/27/2021 10:15:00 PM 21.05 69.89 0.227 8.56 15.51 8.93
5/27/2021 10:30:00 PM 20.94 69.692 0.228 8.49 15.73 8.87
5/27/2021 10:45:00 PM 20.85 69.53 0.228 8.5 16.2 8.82
5/27/2021 11:00:00 PM 20.77 69.386 0.228 8.47 15.55 8.76
5/27/2021 11:15:00 PM 20.67 69.206 0.228 8.44 18.41 8.71
5/27/2021 11:30:00 PM 20.59 69.062 0.228 8.42 17.69 8.67
5/27/2021 11:45:00 PM 20.52 68.936 0.228 8.39 19.68 8.63
5/28/2021 12:00:00 AM 20.45 68.81 0.228 8.37 18.73 8.58
5/28/2021 12:15:00 AM 20.39 68.702 0.228 8.35 19.79 8.54
5/28/2021 12:30:00 AM 20.35 68.63 0.228 8.33 19.82 8.49
5/28/2021 12:45:00 AM 20.3 68.54 0.228 8.31 20.57 8.44
5/28/2021 1:00:00 AM 20.25 68.45 0.228 8.29 15.97 8.42
5/28/2021 1:15:00 AM 20.24 68.432 0.228 8.28 16.5 8.41
5/28/2021 1:30:00 AM 20.21 68.378 0.228 8.27 17.43 8.37
5/28/2021 1:45:00 AM 20.18 68.324 0.228 8.25 17.58 8.33
5/28/2021 2:00:00 AM 20.16 68.288 0.228 8.24 17.32 8.32
5/28/2021 2:15:00 AM 20.17 68.306 0.227 8.24 18.6 8.29
5/28/2021 2:30:00 AM 20.15 68.27 0.227 8.23 17.34 8.27
5/28/2021 2:45:00 AM 20.15 68.27 0.227 8.22 32.98 8.22
5/28/2021 3:00:00 AM 20.17 68.306 0.227 8.22 18.95 8.24
5/28/2021 3:15:00 AM 20.17 68.306 0.227 8.22 17.4 8.21
5/28/2021 3:30:00 AM 20.19 68.342 0.227 8.21 16.09 8.19
5/28/2021 3:45:00 AM 20.17 68.306 0.227 8.2 15.57 8.17
5/28/2021 4:00:00 AM 20.19 68.342 0.227 8.2 15.79 8.16
5/28/2021 4:15:00 AM 20.2 68.36 0.227 8.2 16.46 8.15
5/28/2021 4:30:00 AM 20.2 68.36 0.227 8.2 15.54 8.13
5/28/2021 4:45:00 AM 20.2 68.36 0.227 8.2 15.94 8.11
5/28/2021 5:00:00 AM 20.2 68.36 0.227 8.19 16.95 8.07
5/28/2021 5:15:00 AM 20.21 68.378 0.227 8.19 17.08 8.05
5/28/2021 5:30:00 AM 20.19 68.342 0.227 8.18 17.57 8.01
5/28/2021 5:45:00 AM 20.19 68.342 0.227 8.18 18.16 8
5/28/2021 6:00:00 AM 20.18 68.324 0.227 8.17 20.41 7.99
5/28/2021 6:15:00 AM 20.16 68.288 0.227 8.17 20.02 7.99
5/28/2021 6:30:00 AM 20.16 68.288 0.227 8.18 19.46 8
5/28/2021 6:45:00 AM 20.18 68.324 0.227 8.18 20.26 8
5/28/2021 7:00:00 AM 20.18 68.324 0.227 8.2 19.01 8.07
5/28/2021 7:15:00 AM 20.18 68.324 0.227 8.21 19.83 8.11
5/28/2021 7:30:00 AM 20.22 68.396 0.227 8.23 20.23 8.17
5/28/2021 7:45:00 AM 20.22 68.396 0.227 8.25 22.03 8.25
5/28/2021 8:00:00 AM 20.24 68.432 0.227 8.28 21.25 8.32
5/28/2021 8:15:00 AM 20.27 68.486 0.227 8.3 22.43 8.4
5/28/2021 8:30:00 AM 20.29 68.522 0.227 8.33 22.19 8.47
5/28/2021 8:45:00 AM 20.34 68.612 0.227 8.36 22.57 8.58
5/28/2021 9:00:00 AM 20.36 68.648 0.227 8.39 22.44 8.67
5/28/2021 9:15:00 AM 20.37 68.666 0.227 8.41 23.09 8.71
5/28/2021 9:30:00 AM 20.37 68.666 0.227 8.43 20.49 8.77
5/28/2021 9:45:00 AM 20.38 68.684 0.227 8.45 19.43 8.82
5/28/2021 10:00:00 AM 20.39 68.702 0.227 8.47 20.05 8.87
5/28/2021 10:15:00 AM 20.41 68.738 0.227 8.49 20.35 8.95
5/28/2021 10:30:00 AM 20.43 68.774 0.227 8.53 20.24 9.02
5/28/2021 10:45:00 AM 20.47 68.846 0.227 8.55 15.91 9.09
5/28/2021 11:00:00 AM 20.47 68.846 0.227 8.58 16.46 9.19
5/28/2021 11:15:00 AM 20.47 68.846 0.227 8.6 17.06 9.26
5/28/2021 11:30:00 AM 20.49 68.882 0.227 8.61 15.01 9.33
5/28/2021 11:45:00 AM 20.47 68.846 0.227 8.64 11.88 9.38
5/28/2021 12:00:00 PM 20.5 68.9 0.227 8.65 11.75 9.44
5/28/2021 12:15:00 PM 20.54 68.972 0.227 8.67 11.77 9.51
5/28/2021 12:30:00 PM 20.53 68.954 0.227 8.69 12.08 9.51
5/28/2021 12:45:00 PM 20.55 68.99 0.228 8.7 12.51 9.64
5/28/2021 1:00:00 PM 20.53 68.954 0.228 8.7 12.64 9.68
5/28/2021 1:15:00 PM 20.51 68.918 0.228 8.72 12.17 9.69
5/28/2021 1:30:00 PM 20.48 68.864 0.228 8.72 13.18 9.7
5/28/2021 1:45:00 PM 20.44 68.792 0.228 8.72 13.01 9.7
5/28/2021 2:00:00 PM 20.39 68.702 0.228 8.71 13.27 9.69
5/28/2021 2:15:00 PM 20.33 68.594 0.228 8.71 13.58 9.69
5/28/2021 2:30:00 PM 20.28 68.504 0.227 8.71 13.88 9.71
5/28/2021 2:45:00 PM 20.23 68.414 0.228 8.71 14.26 9.67
5/28/2021 3:00:00 PM 20.16 68.288 0.228 8.71 15.02 9.69
5/28/2021 3:15:00 PM 20.05 68.09 0.228 8.7 12.51 9.66
5/28/2021 3:30:00 PM 19.96 67.92799 0.224 8.69 13 9.64
5/28/2021 3:45:00 PM 19.87 67.766 0.229 8.67 13.15 9.6
5/28/2021 4:00:00 PM 19.74 67.532 0.229 8.65 14.01 9.53
5/28/2021 4:15:00 PM 19.63 67.334 0.229 8.63 14.18 9.48
5/28/2021 4:30:00 PM 19.54 67.172 0.23 8.6 14.16 9.41
5/28/2021 4:45:00 PM 19.45 67.01 0.23 8.58 14.5 9.36
5/28/2021 5:00:00 PM 19.34 66.812 0.23 8.56 14.99 9.31
5/28/2021 5:15:00 PM 19.25 66.65 0.229 8.54 15.5 9.29
5/28/2021 5:30:00 PM 19.14 66.452 0.228 8.52 15.76 9.27
5/28/2021 5:45:00 PM 19.05 66.29 0.228 8.5 16.65 9.21
5/28/2021 6:00:00 PM 18.97 66.146 0.228 8.47 16.53 9.18
5/28/2021 6:15:00 PM 18.87 65.966 0.228 8.44 17.74 9.13
5/28/2021 6:30:00 PM 18.79 65.82201 0.228 8.42 15.77 9.04
5/28/2021 6:45:00 PM 18.73 65.714 0.228 8.39 13.2 9.02
5/28/2021 7:00:00 PM 18.61 65.498 0.227 8.36 13.74 8.98
5/28/2021 7:15:00 PM 18.51 65.318 0.227 8.33 15.89 8.94
5/28/2021 7:30:00 PM 18.43 65.174 0.227 8.3 17.66 8.9
5/28/2021 7:45:00 PM 18.35